Darstellungsparameter: Aktuell verwendete Einstellungen:
Skalierung der Graphiken ... ?
xyx+y,   Skalierungsfaktor:      Skalierung: Modus: x, Faktor: 1
Darstellungszeitraum ... ?
Vom - - bis: - -   Zeitraum: 23.02.2005 - 23.02.2006
Min/Max/Avg-Anzeige ... ?
Zeige MMA aktuell
Zeige MMA Monat
Zeige MMA alles
Zeige --A aktuell
Zeige --A Monat
Zeige --A alles
Keine MMA-Anzeige
MMA:
Average (ber die Originaldaten)
MMA-Basis: 23.02.2005 - 23.02.2006
Quicknavigation für Darstellung... ?
Tage:      1T, 2T, 3T, 5T -1T -2T -3T -5T +1T +2T +3T +5T
Wochen: 1W, 2W, 3W -1W -2W -3W +1W +2W +3W
Monate: 1M, 3M, 6M -1M -3M -6M +1M +3M +6M
Jahre:    1J, 3J, 5J, 10J -1J -3J -5J -10J +1J +3J +5J +10J
Nutze für die Darstellung ... ?
Originaldaten oder Mittelwerte auf ...
Stundenbasis Tagesbasis Wochenbasis
Monatsbasis Jahresbasis      Datenbasis: Original-Daten
Darstellen als:
Statistik (Auto) Statistik J:M      Darstellung:

Der gewünschte Datumsbereich war nicht gültig/verfügbar und wurde korrigiert....


Zur Graphik,    zurück zur Übersicht aller Sensoren.
 
Tabellarische Datenbersicht: ?
 
Sensor: Nr:Datum:Temp:Abs-Feuchte:Windchill:Wind:
Aussen-T/F 1 24-02-2005 00:07:52 -2.7 C 2.97 g/m*3 -2.7 C 0 km/h
2 24-02-2005 00:27:52 -2.6 C 3.03 g/m*3 -2.6 C 0 km/h
3 24-02-2005 00:47:52 -2.7 C 2.97 g/m*3 -2.7 C 0 km/h
4 24-02-2005 01:07:52 -2.8 C 2.99 g/m*3 -2.8 C 0 km/h
5 24-02-2005 01:27:52 -2.8 C 2.99 g/m*3 -2.8 C 0 km/h
6 24-02-2005 01:47:52 -2.9 C 2.97 g/m*3 -2.9 C 0 km/h
7 24-02-2005 02:07:52 -3.1 C 2.93 g/m*3 -3.1 C 0 km/h
8 24-02-2005 02:27:52 -3.1 C 2.93 g/m*3 -3.1 C 0 km/h
9 24-02-2005 02:47:52 -3 C 2.99 g/m*3 -3 C 0 km/h
10 24-02-2005 03:07:52 -3 C 2.99 g/m*3 -3 C 0 km/h
11 24-02-2005 03:27:52 -3 C 2.99 g/m*3 -3 C 0 km/h
12 24-02-2005 03:47:52 -3 C 2.99 g/m*3 -3 C 0 km/h
13 24-02-2005 04:07:52 -3.1 C 2.93 g/m*3 -3.1 C 0 km/h
14 24-02-2005 04:27:52 -3.3 C 2.88 g/m*3 -3.3 C 0 km/h
15 24-02-2005 04:47:52 -3.5 C 2.88 g/m*3 -3.5 C 0 km/h
16 24-02-2005 05:07:52 -3.8 C 2.82 g/m*3 -3.8 C 0 km/h
17 24-02-2005 05:27:52 -3.9 C 2.84 g/m*3 -3.9 C 0 km/h
18 24-02-2005 05:47:52 -4 C 2.78 g/m*3 -4 C 0 km/h
19 24-02-2005 06:07:52 -4.1 C 2.8 g/m*3 -4.1 C 0 km/h
20 24-02-2005 06:27:53 -4 C 2.82 g/m*3 -4 C 0 km/h
21 24-02-2005 06:47:53 -4 C 2.82 g/m*3 -4 C 0 km/h
22 24-02-2005 07:07:53 -3.5 C 2.96 g/m*3 -3.5 C 0 km/h
23 24-02-2005 07:27:53 -3.1 C 3.04 g/m*3 -3.1 C 0 km/h
24 24-02-2005 07:47:53 -2.8 C 3.11 g/m*3 -2.8 C 0 km/h
25 24-02-2005 08:07:53 -2.6 C 3.11 g/m*3 -2.6 C 0 km/h
Sensor: Nr:Datum:Temp:Abs-Feuchte:Windchill:Wind:
Aussen-T/F 26 24-02-2005 08:27:53 -2.6 C 3.07 g/m*3 -2.6 C 0 km/h
27 24-02-2005 08:47:53 -2.3 C 3.14 g/m*3 -2.3 C 0 km/h
28 24-02-2005 09:07:53 -1.8 C 3.25 g/m*3 -1.8 C 0 km/h
29 24-02-2005 09:27:53 -1.3 C 3.23 g/m*3 -1.3 C 0 km/h
30 24-02-2005 09:47:53 -0.6 C 3.25 g/m*3 -0.6 C 0 km/h
31 24-02-2005 10:07:53 -0.5 C 3.14 g/m*3 -0.5 C 0 km/h
32 24-02-2005 10:27:53 -0.5 C 2.81 g/m*3 -0.5 C 0 km/h
33 24-02-2005 10:47:53 -0.2 C 2.87 g/m*3 -0.2 C 0 km/h
34 24-02-2005 11:07:53 -0.4 C 2.69 g/m*3 -0.4 C 0 km/h
35 24-02-2005 11:27:53 0.1 C 2.73 g/m*3 0.1 C 0 km/h
36 24-02-2005 11:47:53 0.8 C 2.87 g/m*3 0.8 C 0 km/h
37 24-02-2005 12:07:53 0.6 C 2.83 g/m*3 0.6 C 0 km/h
38 24-02-2005 12:27:53 1 C 2.7 g/m*3 1 C 0 km/h
39 24-02-2005 12:47:53 1.7 C 2.72 g/m*3 1.7 C 0 km/h
40 24-02-2005 13:07:53 1.7 C 2.83 g/m*3 1.7 C 0 km/h
41 24-02-2005 13:27:54 1.7 C 2.78 g/m*3 1.7 C 0 km/h
42 24-02-2005 13:47:54 2.1 C 2.69 g/m*3 2.1 C 0 km/h
43 24-02-2005 14:07:54 2.9 C 2.66 g/m*3 2.9 C 0 km/h
44 24-02-2005 14:27:54 1.8 C 2.52 g/m*3 1.8 C 0 km/h
45 24-02-2005 14:47:54 2.2 C 2.48 g/m*3 2.2 C 0 km/h
46 24-02-2005 15:07:54 2.9 C 2.78 g/m*3 2.9 C 0 km/h
47 24-02-2005 15:27:54 3.1 C 2.69 g/m*3 3.1 C 0 km/h
48 24-02-2005 15:47:54 2 C 2.61 g/m*3 2 C 0 km/h
49 24-02-2005 16:07:54 1.8 C 2.69 g/m*3 1.8 C 0 km/h
50 24-02-2005 16:27:54 1.3 C 2.6 g/m*3 1.3 C 0 km/h
Sensor: Nr:Datum:Temp:Abs-Feuchte:Windchill:Wind:
Aussen-T/F 51 24-02-2005 16:47:54 1.2 C 2.63 g/m*3 1.2 C 0 km/h
52 24-02-2005 17:07:54 1.1 C 2.72 g/m*3 1.1 C 0 km/h
53 24-02-2005 17:27:54 0.8 C 2.82 g/m*3 0.8 C 0 km/h
54 24-02-2005 17:47:54 0.6 C 2.93 g/m*3 0.6 C 0 km/h
55 24-02-2005 18:07:54 0.4 C 2.94 g/m*3 0.4 C 0 km/h
56 24-02-2005 18:27:54 0.2 C 2.95 g/m*3 0.2 C 0 km/h
57 24-02-2005 18:47:54 -0.2 C 2.91 g/m*3 -0.2 C 0 km/h
58 24-02-2005 19:07:54 -0.7 C 2.91 g/m*3 -0.7 C 0 km/h
59 24-02-2005 19:27:54 -1 C 2.89 g/m*3 -1 C 0 km/h
60 24-02-2005 19:47:54 -1 C 2.89 g/m*3 -1 C 0 km/h
61 24-02-2005 20:07:54 -1.1 C 2.87 g/m*3 -1.1 C 0 km/h
62 24-02-2005 20:27:54 -1.6 C 2.86 g/m*3 -1.6 C 0 km/h
63 24-02-2005 20:47:55 -2.1 C 2.8 g/m*3 -2.1 C 0 km/h
64 24-02-2005 21:07:55 -2.3 C 2.77 g/m*3 -2.3 C 0 km/h
65 24-02-2005 21:27:55 -2.5 C 2.77 g/m*3 -2.5 C 0 km/h
66 24-02-2005 21:47:55 -2.7 C 2.77 g/m*3 -2.7 C 0 km/h
67 24-02-2005 22:07:55 -2.8 C 2.79 g/m*3 -2.8 C 0 km/h
68 24-02-2005 22:27:55 -3.1 C 2.73 g/m*3 -3.1 C 0 km/h
69 24-02-2005 22:47:55 -3.4 C 2.67 g/m*3 -3.4 C 0 km/h
70 24-02-2005 23:07:55 -3.6 C 2.71 g/m*3 -3.6 C 0 km/h
71 24-02-2005 23:27:55 -3.8 C 2.71 g/m*3 -3.8 C 0 km/h
72 24-02-2005 23:47:55 -3.9 C 2.73 g/m*3 -3.9 C 0 km/h
73 25-02-2005 00:07:55 -4.1 C 2.69 g/m*3 -4.1 C 0 km/h
74 25-02-2005 00:27:55 -4.2 C 2.7 g/m*3 -4.2 C 0 km/h
75 25-02-2005 00:47:55 -4.6 C 2.63 g/m*3 -4.6 C 0 km/h
Sensor: Nr:Datum:Temp:Abs-Feuchte:Windchill:Wind:
Aussen-T/F 76 25-02-2005 01:07:55 -4.8 C 2.59 g/m*3 -4.8 C 0 km/h
77 25-02-2005 01:27:55 -4.8 C 2.63 g/m*3 -4.8 C 0 km/h
78 25-02-2005 01:47:55 -4.6 C 2.66 g/m*3 -4.6 C 0 km/h
79 25-02-2005 02:07:55 -4.9 C 2.57 g/m*3 -4.9 C 0 km/h
80 25-02-2005 02:27:55 -5.2 C 2.55 g/m*3 -5.2 C 0 km/h
81 25-02-2005 02:47:55 -5.4 C 2.51 g/m*3 -5.4 C 0 km/h
82 25-02-2005 03:07:55 -5.5 C 2.53 g/m*3 -5.5 C 0 km/h
83 25-02-2005 03:27:55 -5.9 C 2.46 g/m*3 -5.9 C 0 km/h
84 25-02-2005 03:47:56 -6.1 C 2.42 g/m*3 -6.1 C 0 km/h
85 25-02-2005 04:07:56 -6.2 C 2.43 g/m*3 -6.2 C 0 km/h
86 25-02-2005 04:27:56 -6.3 C 2.42 g/m*3 -6.3 C 0 km/h
87 25-02-2005 04:47:56 -6.3 C 2.45 g/m*3 -6.3 C 0 km/h
88 25-02-2005 05:07:56 -6.3 C 2.45 g/m*3 -6.3 C 0 km/h
89 25-02-2005 05:27:56 -6.5 C 2.41 g/m*3 -6.5 C 0 km/h
90 25-02-2005 05:47:56 -6.8 C 2.33 g/m*3 -6.8 C 0 km/h
91 25-02-2005 06:07:56 -7 C 2.24 g/m*3 -7 C 0 km/h
92 25-02-2005 06:27:56 -6.9 C 2.28 g/m*3 -6.9 C 0 km/h
93 25-02-2005 06:47:56 -7 C 2.24 g/m*3 -7 C 0 km/h
94 25-02-2005 07:07:56 -7 C 2.27 g/m*3 -7 C 0 km/h
95 25-02-2005 07:27:56 -7 C 2.27 g/m*3 -7 C 0 km/h
96 25-02-2005 07:47:56 -7 C 2.24 g/m*3 -7 C 0 km/h
97 25-02-2005 08:07:56 -7.1 C 2.22 g/m*3 -7.1 C 0 km/h
98 25-02-2005 08:27:56 -7 C 2.24 g/m*3 -7 C 0 km/h
99 25-02-2005 08:47:56 -6.9 C 2.25 g/m*3 -6.9 C 0 km/h
100 25-02-2005 09:07:56 -6.7 C 2.29 g/m*3 -6.7 C 0 km/h
Sensor: Nr:Datum:Temp:Abs-Feuchte:Windchill:Wind:
Aussen-T/F 101 25-02-2005 09:27:56 -6.3 C 2.35 g/m*3 -6.3 C 0 km/h
102 25-02-2005 09:47:56 -6 C 2.41 g/m*3 -6 C 0 km/h
103 25-02-2005 10:07:56 -5.6 C 2.48 g/m*3 -5.6 C 0 km/h
104 25-02-2005 10:27:56 -4.7 C 2.68 g/m*3 -4.7 C 0 km/h
105 25-02-2005 10:47:57 -3.9 C 2.84 g/m*3 -3.9 C 0 km/h
106 25-02-2005 11:07:57 -3.4 C 2.98 g/m*3 -3.4 C 0 km/h
107 25-02-2005 11:27:57 -2.6 C 3.07 g/m*3 -2.6 C 0 km/h
108 25-02-2005 11:47:57 -2 C 3.08 g/m*3 -2 C 0 km/h
109 25-02-2005 12:07:57 -1.1 C 3.05 g/m*3 -1.1 C 0 km/h
110 25-02-2005 12:27:57 -0.4 C 2.97 g/m*3 -0.4 C 0 km/h
111 25-02-2005 12:47:57 0.5 C 2.86 g/m*3 0.5 C 0 km/h
112 25-02-2005 13:07:57 1.4 C 2.77 g/m*3 1.4 C 0 km/h
113 25-02-2005 13:27:57 2.4 C 2.8 g/m*3 2.4 C 0 km/h
114 25-02-2005 13:47:57 2.5 C 2.7 g/m*3 2.5 C 0 km/h
115 25-02-2005 14:07:57 2.9 C 2.66 g/m*3 2.9 C 0 km/h
116 25-02-2005 14:27:57 3.5 C 2.71 g/m*3 3.5 C 0 km/h
117 25-02-2005 14:47:57 4.4 C 2.74 g/m*3 4.4 C 0 km/h
118 25-02-2005 15:07:57 4.9 C 2.63 g/m*3 4.9 C 0 km/h
119 25-02-2005 15:27:57 4.5 C 2.37 g/m*3 4.5 C 0 km/h
120 25-02-2005 15:47:57 5.1 C 2.53 g/m*3 5.1 C 0 km/h
121 25-02-2005 16:07:57 5.1 C 2.46 g/m*3 5.1 C 0 km/h
122 25-02-2005 16:27:57 4.9 C 2.7 g/m*3 4.9 C 0 km/h
123 25-02-2005 16:47:57 4.7 C 2.86 g/m*3 4.7 C 0 km/h
124 25-02-2005 17:07:57 4.2 C 2.77 g/m*3 4.2 C 0 km/h
125 25-02-2005 17:27:57 3 C 2.68 g/m*3 3 C 0 km/h
Sensor: Nr:Datum:Temp:Abs-Feuchte:Windchill:Wind:
Aussen-T/F 126 25-02-2005 17:47:58 2 C 2.5 g/m*3 2 C 0 km/h
127 25-02-2005 18:07:58 1.5 C 2.52 g/m*3 1.5 C 0 km/h
128 25-02-2005 18:27:58 0.6 C 2.83 g/m*3 0.6 C 0 km/h
129 25-02-2005 18:47:58 0.5 C 2.91 g/m*3 0.5 C 0 km/h
130 25-02-2005 19:07:58 0.5 C 3.01 g/m*3 0.5 C 0 km/h
131 25-02-2005 19:27:58 0.6 C 3.08 g/m*3 0.6 C 0 km/h
132 25-02-2005 19:47:58 0.7 C 3.1 g/m*3 0.7 C 0 km/h
133 25-02-2005 20:07:58 0.7 C 3.15 g/m*3 0.7 C 0 km/h
134 25-02-2005 20:27:58 0.7 C 3.15 g/m*3 0.7 C 0 km/h
135 25-02-2005 20:47:58 0.5 C 3.21 g/m*3 0.5 C 0 km/h
136 25-02-2005 21:07:58 -0.2 C 3.11 g/m*3 -0.2 C 0 km/h
137 25-02-2005 21:27:58 -0.8 C 3.07 g/m*3 -0.8 C 0 km/h
138 25-02-2005 21:47:58 -1.1 C 3.01 g/m*3 -1.1 C 0 km/h
139 25-02-2005 22:07:58 -1.7 C 2.97 g/m*3 -1.7 C 0 km/h
140 25-02-2005 22:27:58 -1.7 C 3.06 g/m*3 -1.7 C 0 km/h
141 25-02-2005 22:47:58 -2 C 3.03 g/m*3 -2 C 0 km/h
142 25-02-2005 23:07:58 -2.2 C 2.99 g/m*3 -2.2 C 0 km/h
143 25-02-2005 23:27:58 -2.5 C 2.97 g/m*3 -2.5 C 0 km/h
144 25-02-2005 23:47:58 -2.8 C 2.91 g/m*3 -2.8 C 0 km/h
145 26-02-2005 00:07:58 -3 C 2.91 g/m*3 -3 C 0 km/h
146 26-02-2005 00:27:58 -3.1 C 2.93 g/m*3 -3.1 C 0 km/h
147 26-02-2005 00:47:59 -2.7 C 3.01 g/m*3 -2.7 C 0 km/h
148 26-02-2005 01:07:59 -2.6 C 2.99 g/m*3 -2.6 C 0 km/h
149 26-02-2005 01:27:59 -2.3 C 3.05 g/m*3 -2.3 C 0 km/h
150 26-02-2005 01:47:59 -2.4 C 2.95 g/m*3 -2.4 C 0 km/h
Sensor: Nr:Datum:Temp:Abs-Feuchte:Windchill:Wind:
Aussen-T/F 151 26-02-2005 02:07:59 -2.3 C 2.97 g/m*3 -2.3 C 0 km/h
152 26-02-2005 02:27:59 -2.1 C 3.01 g/m*3 -2.1 C 0 km/h
153 26-02-2005 02:47:59 -2.4 C 2.95 g/m*3 -2.4 C 0 km/h
154 26-02-2005 03:07:59 -2.6 C 2.95 g/m*3 -2.6 C 0 km/h
155 26-02-2005 03:27:59 -2.7 C 2.89 g/m*3 -2.7 C 0 km/h
156 26-02-2005 03:47:59 -2.9 C 2.85 g/m*3 -2.9 C 0 km/h
157 26-02-2005 04:07:59 -3 C 2.83 g/m*3 -3 C 0 km/h
158 26-02-2005 04:27:59 -3 C 2.83 g/m*3 -3 C 0 km/h
159 26-02-2005 04:47:59 -3 C 2.83 g/m*3 -3 C 0 km/h
160 26-02-2005 05:06:59 -3.1 C 2.81 g/m*3 -3.1 C 0 km/h
161 26-02-2005 05:26:59 -3.1 C 2.81 g/m*3 -3.1 C 0 km/h
162 26-02-2005 05:46:59 -3.1 C 2.85 g/m*3 -3.1 C 0 km/h
163 26-02-2005 06:06:59 -3.1 C 2.85 g/m*3 -3.1 C 0 km/h
164 26-02-2005 06:26:59 -3.1 C 2.89 g/m*3 -3.1 C 0 km/h
165 26-02-2005 06:46:59 -3.1 C 2.89 g/m*3 -3.1 C 0 km/h
166 26-02-2005 07:06:59 -3 C 2.91 g/m*3 -3 C 0 km/h
167 26-02-2005 07:26:59 -3 C 2.87 g/m*3 -3 C 0 km/h
168 26-02-2005 07:46:59 -3 C 2.87 g/m*3 -3 C 0 km/h
169 26-02-2005 08:07:00 -2.8 C 2.91 g/m*3 -2.8 C 0 km/h
170 26-02-2005 08:27:00 -2.7 C 2.89 g/m*3 -2.7 C 0 km/h
171 26-02-2005 08:47:00 -2.5 C 2.89 g/m*3 -2.5 C 0 km/h
172 26-02-2005 09:07:00 -2.4 C 2.91 g/m*3 -2.4 C 0 km/h
173 26-02-2005 09:27:00 -2.1 C 2.93 g/m*3 -2.1 C 0 km/h
174 26-02-2005 09:47:00 -1.7 C 3.01 g/m*3 -1.7 C 0 km/h
175 26-02-2005 10:07:00 -1.2 C 3.03 g/m*3 -1.2 C 0 km/h
Sensor: Nr:Datum:Temp:Abs-Feuchte:Windchill:Wind:
Aussen-T/F 176 26-02-2005 10:27:00 -0.9 C 3 g/m*3 -0.9 C 0 km/h
177 26-02-2005 10:47:00 0 C 3.15 g/m*3 0 C 0 km/h
178 26-02-2005 11:07:00 0.3 C 3.22 g/m*3 0.3 C 0 km/h
179 26-02-2005 11:27:00 1.1 C 3.34 g/m*3 1.1 C 0 km/h
180 26-02-2005 11:47:00 1.5 C 3.38 g/m*3 1.5 C 0 km/h
181 26-02-2005 12:07:00 2.6 C 3.53 g/m*3 2.6 C 0 km/h
182 26-02-2005 12:27:00 2.9 C 3.54 g/m*3 2.9 C 0 km/h
183 26-02-2005 12:47:00 2.9 C 3.66 g/m*3 2.9 C 0 km/h
184 26-02-2005 13:07:00 2.8 C 3.7 g/m*3 2.8 C 0 km/h
185 26-02-2005 13:27:00 2.7 C 3.73 g/m*3 2.7 C 0 km/h
186 26-02-2005 13:47:00 2.6 C 3.82 g/m*3 2.6 C 0 km/h
187 26-02-2005 14:07:00 2.5 C 3.79 g/m*3 2.5 C 0 km/h
188 26-02-2005 14:27:00 2 C 3.72 g/m*3 2 C 0 km/h
189 26-02-2005 14:47:00 1.8 C 3.84 g/m*3 1.8 C 0 km/h
190 26-02-2005 15:07:01 1.9 C 3.92 g/m*3 1.9 C 0 km/h
191 26-02-2005 15:27:01 1.7 C 4.03 g/m*3 1.7 C 0 km/h
192 26-02-2005 15:47:01 1.7 C 4.14 g/m*3 1.7 C 0 km/h
193 26-02-2005 16:07:01 1.5 C 4.08 g/m*3 1.5 C 0 km/h
194 26-02-2005 16:27:01 1.5 C 4.14 g/m*3 1.5 C 0 km/h
195 26-02-2005 16:47:01 1.2 C 4 g/m*3 1.2 C 0 km/h
196 26-02-2005 17:07:01 1.2 C 4.05 g/m*3 1.2 C 0 km/h
197 26-02-2005 17:27:01 1.1 C 4.02 g/m*3 1.1 C 0 km/h
198 26-02-2005 17:47:01 1.1 C 4.02 g/m*3 1.1 C 0 km/h
199 26-02-2005 18:07:01 0.9 C 4.07 g/m*3 0.9 C 0 km/h
200 26-02-2005 18:27:01 0.8 C 4.1 g/m*3 0.8 C 0 km/h
Sensor: Nr:Datum:Temp:Abs-Feuchte:Windchill:Wind:
Aussen-T/F 201 26-02-2005 18:47:01 0.8 C 4.15 g/m*3 0.8 C 0 km/h
202 26-02-2005 19:07:01 0.8 C 4.15 g/m*3 0.8 C 0 km/h
203 26-02-2005 19:27:01 0.8 C 4.15 g/m*3 0.8 C 0 km/h
204 26-02-2005 19:47:01 0.8 C 4.15 g/m*3 0.8 C 0 km/h
205 26-02-2005 20:07:01 0.6 C 4.09 g/m*3 0.6 C 0 km/h
206 26-02-2005 20:27:01 0.5 C 4.06 g/m*3 0.5 C 0 km/h
207 26-02-2005 20:47:01 0.4 C 4.08 g/m*3 0.4 C 0 km/h
208 26-02-2005 21:07:01 0.4 C 4.13 g/m*3 0.4 C 0 km/h
209 26-02-2005 21:27:01 0.4 C 4.18 g/m*3 0.4 C 0 km/h
210 26-02-2005 21:47:01 0.4 C 4.18 g/m*3 0.4 C 0 km/h
211 26-02-2005 22:07:01 0.4 C 4.23 g/m*3 0.4 C 0 km/h
212 26-02-2005 22:27:02 0.4 C 4.23 g/m*3 0.4 C 0 km/h
213 26-02-2005 22:47:02 0.4 C 4.23 g/m*3 0.4 C 0 km/h
214 26-02-2005 23:07:02 0.2 C 4.22 g/m*3 0.2 C 0 km/h
215 26-02-2005 23:27:02 0.2 C 4.22 g/m*3 0.2 C 0 km/h
216 26-02-2005 23:47:02 0.2 C 4.22 g/m*3 0.2 C 0 km/h
217 27-02-2005 00:07:02 0.1 C 4.2 g/m*3 0.1 C 0 km/h
218 27-02-2005 00:27:02 0.1 C 4.2 g/m*3 0.1 C 0 km/h
219 27-02-2005 00:47:02 0 C 4.17 g/m*3 0 C 0 km/h
220 27-02-2005 01:07:02 0 C 4.22 g/m*3 0 C 0 km/h
221 27-02-2005 01:27:02 -0.1 C 4.14 g/m*3 -0.1 C 0 km/h
222 27-02-2005 01:47:02 -0.2 C 4.11 g/m*3 -0.2 C 0 km/h
223 27-02-2005 02:07:02 -0.5 C 3.93 g/m*3 -0.5 C 0 km/h
224 27-02-2005 02:27:02 -0.8 C 3.67 g/m*3 -0.8 C 0 km/h
225 27-02-2005 02:47:02 -0.9 C 3.69 g/m*3 -0.9 C 0 km/h
Sensor: Nr:Datum:Temp:Abs-Feuchte:Windchill:Wind:
Aussen-T/F 226 27-02-2005 03:07:02 -1.1 C 3.64 g/m*3 -1.1 C 0 km/h
227 27-02-2005 03:27:02 -1.7 C 3.36 g/m*3 -1.7 C 0 km/h
228 27-02-2005 03:47:02 -2.2 C 3.12 g/m*3 -2.2 C 0 km/h
229 27-02-2005 04:07:02 -2.5 C 2.97 g/m*3 -2.5 C 0 km/h
230 27-02-2005 04:27:02 -2.7 C 2.73 g/m*3 -2.7 C 0 km/h
231 27-02-2005 04:47:02 -3 C 2.71 g/m*3 -3 C 0 km/h
232 27-02-2005 05:07:02 -3.2 C 2.59 g/m*3 -3.2 C 0 km/h
233 27-02-2005 05:27:03 -4 C 2.16 g/m*3 -4 C 0 km/h
234 27-02-2005 05:47:03 -4.5 C 2.01 g/m*3 -4.5 C 0 km/h
235 27-02-2005 06:07:03 -4.8 C 1.97 g/m*3 -4.8 C 0 km/h
236 27-02-2005 06:27:03 -5.2 C 1.98 g/m*3 -5.2 C 0 km/h
237 27-02-2005 06:47:03 -5.5 C 1.97 g/m*3 -5.5 C 0 km/h
238 27-02-2005 07:07:03 -5.7 C 1.97 g/m*3 -5.7 C 0 km/h
239 27-02-2005 07:27:03 -5.7 C 1.94 g/m*3 -5.7 C 0 km/h
240 27-02-2005 07:47:03 -6 C 1.93 g/m*3 -6 C 0 km/h
241 27-02-2005 08:07:03 -6 C 1.93 g/m*3 -6 C 0 km/h
242 27-02-2005 08:27:03 -5.8 C 1.99 g/m*3 -5.8 C 0 km/h
243 27-02-2005 08:47:03 -5.6 C 1.99 g/m*3 -5.6 C 0 km/h
244 27-02-2005 09:07:03 -5.4 C 2.02 g/m*3 -5.4 C 0 km/h
245 27-02-2005 09:27:03 -5.3 C 2.03 g/m*3 -5.3 C 0 km/h
246 27-02-2005 09:47:03 -5 C 2.04 g/m*3 -5 C 0 km/h
247 27-02-2005 10:07:03 -4.4 C 2.1 g/m*3 -4.4 C 0 km/h
248 27-02-2005 10:27:03 -3.9 C 2.06 g/m*3 -3.9 C 0 km/h
249 27-02-2005 10:47:03 -3.5 C 2.09 g/m*3 -3.5 C 0 km/h
250 27-02-2005 11:07:03 -3.1 C 2.15 g/m*3 -3.1 C 0 km/h
Sensor: Nr:Datum:Temp:Abs-Feuchte:Windchill:Wind:
Aussen-T/F 251 27-02-2005 11:27:03 -2.5 C 2.16 g/m*3 -2.5 C 0 km/h
252 27-02-2005 11:47:03 -1.7 C 2.15 g/m*3 -1.7 C 0 km/h
253 27-02-2005 12:07:03 -1.5 C 2.1 g/m*3 -1.5 C 0 km/h
254 27-02-2005 12:27:04 -1.4 C 1.98 g/m*3 -1.4 C 0 km/h
255 27-02-2005 12:47:04 -0.9 C 2.09 g/m*3 -0.9 C 0 km/h
256 27-02-2005 13:07:04 -1.3 C 1.95 g/m*3 -1.3 C 0 km/h
257 27-02-2005 13:27:04 -1.5 C 1.88 g/m*3 -1.5 C 0 km/h
258 27-02-2005 13:47:04 -1.8 C 2.18 g/m*3 -1.8 C 0 km/h
259 27-02-2005 14:07:04 -1.6 C 2.08 g/m*3 -1.6 C 0 km/h
260 27-02-2005 14:27:04 -1.8 C 2.31 g/m*3 -1.8 C 0 km/h
261 27-02-2005 14:47:04 -1.3 C 2.39 g/m*3 -1.3 C 0 km/h
262 27-02-2005 15:07:04 -1.3 C 2.3 g/m*3 -1.3 C 0 km/h
263 27-02-2005 15:27:04 -1.1 C 2.33 g/m*3 -1.1 C 0 km/h
264 27-02-2005 15:47:04 -0.5 C 2.34 g/m*3 -0.5 C 0 km/h
265 27-02-2005 16:07:04 -1.8 C 2.39 g/m*3 -1.8 C 0 km/h
266 27-02-2005 16:27:04 -2.9 C 2.37 g/m*3 -2.9 C 0 km/h
267 27-02-2005 16:47:04 -3 C 2.24 g/m*3 -3 C 0 km/h
268 27-02-2005 17:07:04 -3.2 C 2.21 g/m*3 -3.2 C 0 km/h
269 27-02-2005 17:27:04 -2.9 C 2.02 g/m*3 -2.9 C 0 km/h
270 27-02-2005 17:47:04 -3.1 C 1.87 g/m*3 -3.1 C 0 km/h
271 27-02-2005 18:07:04 -3.8 C 1.67 g/m*3 -3.8 C 0 km/h
272 27-02-2005 18:27:04 -3.9 C 1.69 g/m*3 -3.9 C 0 km/h
273 27-02-2005 18:47:04 -4.5 C 1.62 g/m*3 -4.5 C 0 km/h
274 27-02-2005 19:07:04 -4.7 C 1.7 g/m*3 -4.7 C 0 km/h
275 27-02-2005 19:27:05 -5.1 C 1.76 g/m*3 -5.1 C 0 km/h
Sensor: Nr:Datum:Temp:Abs-Feuchte:Windchill:Wind:
Aussen-T/F 276 27-02-2005 19:47:05 -5.4 C 1.75 g/m*3 -5.4 C 0 km/h
277 27-02-2005 20:07:05 -5.7 C 1.78 g/m*3 -5.7 C 0 km/h
278 27-02-2005 20:27:05 -6.1 C 1.73 g/m*3 -6.1 C 0 km/h
279 27-02-2005 20:47:05 -6.7 C 1.72 g/m*3 -6.7 C 0 km/h
280 27-02-2005 21:07:05 -6.9 C 1.72 g/m*3 -6.9 C 0 km/h
281 27-02-2005 21:27:05 -7.3 C 1.7 g/m*3 -7.3 C 0 km/h
282 27-02-2005 21:47:05 -7.5 C 1.7 g/m*3 -7.5 C 0 km/h
283 27-02-2005 22:07:05 -7.6 C 1.69 g/m*3 -7.6 C 0 km/h
284 27-02-2005 22:27:05 -7.9 C 1.68 g/m*3 -7.9 C 0 km/h
285 27-02-2005 22:47:05 -8.1 C 1.68 g/m*3 -8.1 C 0 km/h
286 27-02-2005 23:07:05 -8.3 C 1.69 g/m*3 -8.3 C 0 km/h
287 27-02-2005 23:27:05 -8.4 C 1.7 g/m*3 -8.4 C 0 km/h
288 27-02-2005 23:47:05 -8.6 C 1.7 g/m*3 -8.6 C 0 km/h
289 28-02-2005 00:07:05 -8.6 C 1.7 g/m*3 -8.6 C 0 km/h
290 28-02-2005 00:27:05 -9 C 1.68 g/m*3 -9 C 0 km/h
291 28-02-2005 00:47:05 -9.2 C 1.65 g/m*3 -9.2 C 0 km/h
292 28-02-2005 01:07:05 -9.4 C 1.65 g/m*3 -9.4 C 0 km/h
293 28-02-2005 01:27:05 -9.7 C 1.61 g/m*3 -9.7 C 0 km/h
294 28-02-2005 01:47:05 -10.1 C 1.57 g/m*3 -10.1 C 0 km/h
295 28-02-2005 02:07:05 -10.1 C 1.59 g/m*3 -10.1 C 0 km/h
296 28-02-2005 02:27:05 -10.3 C 1.57 g/m*3 -10.3 C 0 km/h
297 28-02-2005 02:47:06 -10.4 C 1.6 g/m*3 -10.4 C 0 km/h
298 28-02-2005 03:07:06 -10.4 C 1.6 g/m*3 -10.4 C 0 km/h
299 28-02-2005 03:27:06 -10.8 C 1.55 g/m*3 -10.8 C 0 km/h
300 28-02-2005 03:47:06 -10.9 C 1.56 g/m*3 -10.9 C 0 km/h
Sensor: Nr:Datum:Temp:Abs-Feuchte:Windchill:Wind:
Aussen-T/F 301 28-02-2005 04:07:06 -11.2 C 1.53 g/m*3 -11.2 C 0 km/h
302 28-02-2005 04:27:06 -11.2 C 1.55 g/m*3 -11.2 C 0 km/h
303 28-02-2005 04:47:06 -11.2 C 1.55 g/m*3 -11.2 C 0 km/h
304 28-02-2005 05:07:06 -11.4 C 1.53 g/m*3 -11.4 C 0 km/h
305 28-02-2005 05:27:06 -11.4 C 1.53 g/m*3 -11.4 C 0 km/h
306 28-02-2005 05:47:06 -11.5 C 1.51 g/m*3 -11.5 C 0 km/h
307 28-02-2005 06:07:06 -11.8 C 1.46 g/m*3 -11.8 C 0 km/h
308 28-02-2005 06:27:06 -12 C 1.44 g/m*3 -12 C 0 km/h
309 28-02-2005 06:47:06 -12.1 C 1.43 g/m*3 -12.1 C 0 km/h
310 28-02-2005 07:07:06 -12.2 C 1.41 g/m*3 -12.2 C 0 km/h
311 28-02-2005 07:27:06 -12.4 C 1.37 g/m*3 -12.4 C 0 km/h
312 28-02-2005 07:47:06 -12.5 C 1.36 g/m*3 -12.5 C 0 km/h
313 28-02-2005 08:07:06 -12.4 C 1.37 g/m*3 -12.4 C 0 km/h
314 28-02-2005 08:27:06 -12.3 C 1.38 g/m*3 -12.3 C 0 km/h
315 28-02-2005 08:47:06 -12.1 C 1.39 g/m*3 -12.1 C 0 km/h
316 28-02-2005 09:07:06 -11.9 C 1.41 g/m*3 -11.9 C 0 km/h
317 28-02-2005 09:27:06 -11.7 C 1.43 g/m*3 -11.7 C 0 km/h
318 28-02-2005 09:47:07 -11.2 C 1.51 g/m*3 -11.2 C 0 km/h
319 28-02-2005 10:07:07 -10.3 C 1.63 g/m*3 -10.3 C 0 km/h
320 28-02-2005 10:27:07 -9 C 1.85 g/m*3 -9 C 0 km/h
321 28-02-2005 10:47:07 -8 C 2 g/m*3 -8 C 0 km/h
322 28-02-2005 11:07:07 -7.1 C 2.07 g/m*3 -7.1 C 0 km/h
323 28-02-2005 11:27:07 -6.3 C 2.08 g/m*3 -6.3 C 0 km/h
324 28-02-2005 11:47:07 -5.7 C 2.14 g/m*3 -5.7 C 0 km/h
325 28-02-2005 12:07:07 -5 C 2.15 g/m*3 -5 C 0 km/h
Sensor: Nr:Datum:Temp:Abs-Feuchte:Windchill:Wind:
Aussen-T/F 326 28-02-2005 12:27:07 -4.4 C 1.99 g/m*3 -4.4 C 0 km/h
327 28-02-2005 12:47:07 -3.4 C 1.87 g/m*3 -3.4 C 0 km/h
328 28-02-2005 13:07:07 -2.4 C 2.05 g/m*3 -2.4 C 0 km/h
329 28-02-2005 13:27:07 -1.5 C 1.83 g/m*3 -1.5 C 0 km/h
330 28-02-2005 13:47:07 -1.3 C 1.51 g/m*3 -1.3 C 0 km/h
331 28-02-2005 14:07:07 -1 C 1.27 g/m*3 -1 C 0 km/h
332 28-02-2005 14:27:07 -0.2 C 1.1 g/m*3 -0.2 C 0 km/h
333 28-02-2005 14:47:07 1 C 1.4 g/m*3 1 C 0 km/h
334 28-02-2005 15:07:07 1 C 1.09 g/m*3 1 C 0 km/h
335 28-02-2005 15:27:07 2 C 1.11 g/m*3 2 C 0 km/h
336 28-02-2005 15:47:07 -0.1 C 0.96 g/m*3 -0.1 C 0 km/h
337 28-02-2005 16:07:07 0.6 C 1.01 g/m*3 0.6 C 0 km/h
338 28-02-2005 16:27:07 0.8 C 1.28 g/m*3 0.8 C 0 km/h
339 28-02-2005 16:47:07 0.4 C 1 g/m*3 0.4 C 0 km/h
340 28-02-2005 17:07:08 0.4 C 1.25 g/m*3 0.4 C 0 km/h
341 28-02-2005 17:27:08 0.2 C 1.33 g/m*3 0.2 C 0 km/h
342 28-02-2005 17:47:08 -0.9 C 1.18 g/m*3 -0.9 C 0 km/h
343 28-02-2005 18:07:08 -1.8 C 1.54 g/m*3 -1.8 C 0 km/h
344 28-02-2005 18:27:08 -3.3 C 1.62 g/m*3 -3.3 C 0 km/h
345 28-02-2005 18:47:08 -4.2 C 1.59 g/m*3 -4.2 C 0 km/h
346 28-02-2005 19:07:08 -4.7 C 1.57 g/m*3 -4.7 C 0 km/h
347 28-02-2005 19:27:08 -5.3 C 1.53 g/m*3 -5.3 C 0 km/h
348 28-02-2005 19:47:08 -5.7 C 1.59 g/m*3 -5.7 C 0 km/h
349 28-02-2005 20:07:08 -6 C 1.62 g/m*3 -6 C 0 km/h
350 28-02-2005 20:27:08 -6.2 C 1.59 g/m*3 -6.2 C 0 km/h
Sensor: Nr:Datum:Temp:Abs-Feuchte:Windchill:Wind:
Aussen-T/F 351 28-02-2005 20:47:08 -6.4 C 1.57 g/m*3 -6.4 C 0 km/h
352 28-02-2005 21:07:08 -6.8 C 1.58 g/m*3 -6.8 C 0 km/h
353 28-02-2005 21:27:08 -7 C 1.59 g/m*3 -7 C 0 km/h
354 28-02-2005 21:47:08 -7.3 C 1.56 g/m*3 -7.3 C 0 km/h
355 28-02-2005 22:07:08 -7.2 C 1.57 g/m*3 -7.2 C 0 km/h
356 28-02-2005 22:27:08 -7.2 C 1.57 g/m*3 -7.2 C 0 km/h
357 28-02-2005 22:47:08 -7.4 C 1.54 g/m*3 -7.4 C 0 km/h
358 28-02-2005 23:07:08 -7.5 C 1.53 g/m*3 -7.5 C 0 km/h
359 28-02-2005 23:27:08 -7.7 C 1.51 g/m*3 -7.7 C 0 km/h
360 28-02-2005 23:47:08 -8 C 1.48 g/m*3 -8 C 0 km/h
361 01-03-2005 00:07:09 -8.4 C 1.46 g/m*3 -8.4 C 0 km/h
362 01-03-2005 00:27:09 -8.8 C 1.44 g/m*3 -8.8 C 0 km/h
363 01-03-2005 00:47:09 -9.1 C 1.41 g/m*3 -9.1 C 0 km/h
364 01-03-2005 01:07:09 -9.3 C 1.44 g/m*3 -9.3 C 0 km/h
365 01-03-2005 01:27:09 -9.7 C 1.4 g/m*3 -9.7 C 0 km/h
366 01-03-2005 01:47:09 -9.8 C 1.36 g/m*3 -9.8 C 0 km/h
367 01-03-2005 02:07:09 -9.8 C 1.36 g/m*3 -9.8 C 0 km/h
368 01-03-2005 02:27:09 -9.9 C 1.35 g/m*3 -9.9 C 0 km/h
369 01-03-2005 02:47:09 -10.2 C 1.32 g/m*3 -10.2 C 0 km/h
370 01-03-2005 03:07:09 -10.3 C 1.34 g/m*3 -10.3 C 0 km/h
371 01-03-2005 03:27:09 -10.4 C 1.33 g/m*3 -10.4 C 0 km/h
372 01-03-2005 03:47:09 -10.4 C 1.35 g/m*3 -10.4 C 0 km/h
373 01-03-2005 04:07:09 -10.5 C 1.34 g/m*3 -10.5 C 0 km/h
374 01-03-2005 04:27:09 -10.8 C 1.33 g/m*3 -10.8 C 0 km/h
375 01-03-2005 04:47:09 -10.8 C 1.33 g/m*3 -10.8 C 0 km/h
Sensor: Nr:Datum:Temp:Abs-Feuchte:Windchill:Wind:
Aussen-T/F 376 01-03-2005 05:07:09 -10.8 C 1.33 g/m*3 -10.8 C 0 km/h
377 01-03-2005 05:27:09 -10.6 C 1.31 g/m*3 -10.6 C 0 km/h
378 01-03-2005 05:47:09 -10.5 C 1.29 g/m*3 -10.5 C 0 km/h
379 01-03-2005 06:07:09 -10.6 C 1.26 g/m*3 -10.6 C 0 km/h
380 01-03-2005 06:27:09 -10.9 C 1.21 g/m*3 -10.9 C 0 km/h
381 01-03-2005 06:47:09 -11.1 C 1.21 g/m*3 -11.1 C 0 km/h
382 01-03-2005 07:07:10 -10.4 C 1.26 g/m*3 -10.4 C 0 km/h
383 01-03-2005 07:27:10 -10.6 C 1.26 g/m*3 -10.6 C 0 km/h
384 01-03-2005 07:47:10 -10.7 C 1.25 g/m*3 -10.7 C 0 km/h
385 01-03-2005 08:07:10 -10.6 C 1.28 g/m*3 -10.6 C 0 km/h
386 01-03-2005 08:27:10 -9.9 C 1.35 g/m*3 -9.9 C 0 km/h
387 01-03-2005 08:47:10 -9.2 C 1.4 g/m*3 -9.2 C 0 km/h
388 01-03-2005 09:07:10 -8.2 C 1.37 g/m*3 -8.2 C 0 km/h
389 01-03-2005 09:27:10 -7.4 C 1.43 g/m*3 -7.4 C 0 km/h
390 01-03-2005 09:47:10 -6.8 C 1.37 g/m*3 -6.8 C 0 km/h
391 01-03-2005 10:07:10 -6 C 1.39 g/m*3 -6 C 0 km/h
392 01-03-2005 10:27:10 -4.9 C 1.27 g/m*3 -4.9 C 0 km/h
393 01-03-2005 10:47:10 -4.6 C 1.23 g/m*3 -4.6 C 0 km/h
394 01-03-2005 11:07:10 -4.3 C 1.29 g/m*3 -4.3 C 0 km/h
395 01-03-2005 11:27:10 -4 C 1.21 g/m*3 -4 C 0 km/h
396 01-03-2005 11:47:10 -3.7 C 1.2 g/m*3 -3.7 C 0 km/h
397 01-03-2005 12:07:10 -3.4 C 1.18 g/m*3 -3.4 C 0 km/h
398 01-03-2005 12:27:10 -3 C 1.18 g/m*3 -3 C 0 km/h
399 01-03-2005 12:47:10 -2.7 C 1.16 g/m*3 -2.7 C 0 km/h
400 01-03-2005 13:07:10 -2.3 C 1.24 g/m*3 -2.3 C 0 km/h
Sensor: Nr:Datum:Temp:Abs-Feuchte:Windchill:Wind:
Aussen-T/F 401 01-03-2005 13:27:10 -1.9 C 1.1 g/m*3 -1.9 C 0 km/h
402 01-03-2005 13:47:10 -1.7 C 1.12 g/m*3 -1.7 C 0 km/h
403 01-03-2005 14:07:11 -1.8 C 1.07 g/m*3 -1.8 C 0 km/h
404 01-03-2005 14:27:11 -1.6 C 1.26 g/m*3 -1.6 C 0 km/h
405 01-03-2005 14:47:11 -1 C 1.36 g/m*3 -1 C 0 km/h
406 01-03-2005 15:07:11 -0.9 C 1.27 g/m*3 -0.9 C 0 km/h
407 01-03-2005 15:27:11 -0.6 C 1.3 g/m*3 -0.6 C 0 km/h
408 01-03-2005 15:47:11 -1 C 1.36 g/m*3 -1 C 0 km/h
409 01-03-2005 16:07:11 -1.2 C 1.43 g/m*3 -1.2 C 0 km/h
410 01-03-2005 16:27:11 -1.2 C 1.47 g/m*3 -1.2 C 0 km/h
411 01-03-2005 16:47:11 -1 C 1.49 g/m*3 -1 C 0 km/h
412 01-03-2005 17:07:11 -1.2 C 1.38 g/m*3 -1.2 C 0 km/h
413 01-03-2005 17:27:11 -1.3 C 1.33 g/m*3 -1.3 C 0 km/h
414 01-03-2005 17:47:11 -1.7 C 1.29 g/m*3 -1.7 C 0 km/h
415 01-03-2005 18:07:11 -1.9 C 1.36 g/m*3 -1.9 C 0 km/h
416 01-03-2005 18:27:11 -2.1 C 1.38 g/m*3 -2.1 C 0 km/h
417 01-03-2005 18:47:11 -2.3 C 1.36 g/m*3 -2.3 C 0 km/h
418 01-03-2005 19:07:11 -2.7 C 1.36 g/m*3 -2.7 C 0 km/h
419 01-03-2005 19:27:11 -3 C 1.41 g/m*3 -3 C 0 km/h
420 01-03-2005 19:47:11 -3.3 C 1.38 g/m*3 -3.3 C 0 km/h
421 01-03-2005 20:07:11 -3.8 C 1.34 g/m*3 -3.8 C 0 km/h
422 01-03-2005 20:27:11 -4.2 C 1.37 g/m*3 -4.2 C 0 km/h
423 01-03-2005 20:47:11 -4.5 C 1.41 g/m*3 -4.5 C 0 km/h
424 01-03-2005 21:07:12 -4.8 C 1.42 g/m*3 -4.8 C 0 km/h
425 01-03-2005 21:27:12 -5.1 C 1.49 g/m*3 -5.1 C 0 km/h
Sensor: Nr:Datum:Temp:Abs-Feuchte:Windchill:Wind:
Aussen-T/F 426 01-03-2005 21:47:12 -5 C 1.46 g/m*3 -5 C 0 km/h
427 01-03-2005 22:07:12 -5.6 C 1.47 g/m*3 -5.6 C 0 km/h
428 01-03-2005 22:27:12 -5.8 C 1.48 g/m*3 -5.8 C 0 km/h
429 01-03-2005 22:47:12 -5.7 C 1.42 g/m*3 -5.7 C 0 km/h
430 01-03-2005 23:07:12 -5.6 C 1.4 g/m*3 -5.6 C 0 km/h
431 01-03-2005 23:27:12 -5.2 C 1.38 g/m*3 -5.2 C 0 km/h
432 01-03-2005 23:47:12 -5.4 C 1.36 g/m*3 -5.4 C 0 km/h
433 02-03-2005 00:07:12 -5.4 C 1.36 g/m*3 -5.4 C 0 km/h
434 02-03-2005 00:27:12 -5.4 C 1.32 g/m*3 -5.4 C 0 km/h
435 02-03-2005 00:47:12 -5.3 C 1.33 g/m*3 -5.3 C 0 km/h
436 02-03-2005 01:07:12 -5.8 C 1.35 g/m*3 -5.8 C 0 km/h
437 02-03-2005 01:27:12 -6.5 C 1.4 g/m*3 -6.5 C 0 km/h
438 02-03-2005 01:47:12 -6.7 C 1.44 g/m*3 -6.7 C 0 km/h
439 02-03-2005 02:07:12 -6.6 C 1.52 g/m*3 -6.6 C 0 km/h
440 02-03-2005 02:27:12 -6 C 1.55 g/m*3 -6 C 0 km/h
441 02-03-2005 02:47:12 -5.8 C 1.57 g/m*3 -5.8 C 0 km/h
442 02-03-2005 03:07:12 -5.4 C 1.52 g/m*3 -5.4 C 0 km/h
443 02-03-2005 03:27:12 -5.3 C 1.53 g/m*3 -5.3 C 0 km/h
444 02-03-2005 03:47:12 -5.2 C 1.48 g/m*3 -5.2 C 0 km/h
445 02-03-2005 04:07:13 -5 C 1.5 g/m*3 -5 C 0 km/h
446 02-03-2005 04:27:13 -5 C 1.57 g/m*3 -5 C 0 km/h
447 02-03-2005 04:47:13 -5 C 1.57 g/m*3 -5 C 0 km/h
448 02-03-2005 05:07:13 -4.9 C 1.61 g/m*3 -4.9 C 0 km/h
449 02-03-2005 05:27:13 -4.9 C 1.65 g/m*3 -4.9 C 0 km/h
450 02-03-2005 05:47:13 -5.2 C 1.58 g/m*3 -5.2 C 0 km/h
Sensor: Nr:Datum:Temp:Abs-Feuchte:Windchill:Wind:
Aussen-T/F 451 02-03-2005 06:07:13 -5.6 C 1.56 g/m*3 -5.6 C 0 km/h
452 02-03-2005 06:27:13 -6 C 1.58 g/m*3 -6 C 0 km/h
453 02-03-2005 06:47:13 -6.1 C 1.6 g/m*3 -6.1 C 0 km/h
454 02-03-2005 07:07:13 -6.4 C 1.57 g/m*3 -6.4 C 0 km/h
455 02-03-2005 07:27:13 -6.2 C 1.62 g/m*3 -6.2 C 0 km/h
456 02-03-2005 07:47:13 -5.8 C 1.64 g/m*3 -5.8 C 0 km/h
457 02-03-2005 08:07:13 -5.2 C 1.75 g/m*3 -5.2 C 0 km/h
458 02-03-2005 08:27:13 -4.5 C 1.84 g/m*3 -4.5 C 0 km/h
459 02-03-2005 08:47:13 -3.5 C 1.74 g/m*3 -3.5 C 0 km/h
460 02-03-2005 09:07:13 -3 C 1.65 g/m*3 -3 C 0 km/h
461 02-03-2005 09:27:13 -2.3 C 1.65 g/m*3 -2.3 C 0 km/h
462 02-03-2005 09:47:13 -1.7 C 1.68 g/m*3 -1.7 C 0 km/h
463 02-03-2005 10:07:13 -0.8 C 1.83 g/m*3 -0.8 C 0 km/h
464 02-03-2005 10:27:13 -0.4 C 1.65 g/m*3 -0.4 C 0 km/h
465 02-03-2005 10:47:14 0.3 C 1.73 g/m*3 0.3 C 0 km/h
466 02-03-2005 11:07:14 0 C 1.55 g/m*3 0 C 0 km/h
467 02-03-2005 11:27:14 0.1 C 1.51 g/m*3 0.1 C 0 km/h
468 02-03-2005 11:47:14 0.5 C 1.6 g/m*3 0.5 C 0 km/h
469 02-03-2005 12:07:14 0.9 C 1.6 g/m*3 0.9 C 0 km/h
470 02-03-2005 12:27:14 1.3 C 1.59 g/m*3 1.3 C 0 km/h
471 02-03-2005 12:47:14 2.3 C 1.7 g/m*3 2.3 C 0 km/h
472 02-03-2005 13:07:14 2.3 C 1.7 g/m*3 2.3 C 0 km/h
473 02-03-2005 13:27:14 2.8 C 1.76 g/m*3 2.8 C 0 km/h
474 02-03-2005 13:47:14 3.8 C 1.63 g/m*3 3.8 C 0 km/h
475 02-03-2005 14:07:14 4.5 C 1.51 g/m*3 4.5 C 0 km/h
Sensor: Nr:Datum:Temp:Abs-Feuchte:Windchill:Wind:
Aussen-T/F 476 02-03-2005 14:27:14 3.9 C 1.26 g/m*3 3.9 C 0 km/h
477 02-03-2005 14:47:14 3.9 C 1.26 g/m*3 3.9 C 0 km/h
478 02-03-2005 15:07:14 2.8 C 1.17 g/m*3 2.8 C 0 km/h
479 02-03-2005 15:27:14 3.1 C 1.2 g/m*3 3.1 C 0 km/h
480 02-03-2005 15:47:14 3.6 C 1.24 g/m*3 3.6 C 0 km/h
481 02-03-2005 16:07:14 3.6 C 1.42 g/m*3 3.6 C 0 km/h
482 02-03-2005 16:27:14 3.5 C 1.6 g/m*3 3.5 C 0 km/h
483 02-03-2005 16:47:14 3.5 C 1.6 g/m*3 3.5 C 0 km/h
484 02-03-2005 17:07:14 2.7 C 1.75 g/m*3 2.7 C 0 km/h
485 02-03-2005 17:27:14 2 C 1.83 g/m*3 2 C 0 km/h
486 02-03-2005 17:47:15 1.5 C 1.93 g/m*3 1.5 C 0 km/h
487 02-03-2005 18:07:15 1 C 1.92 g/m*3 1 C 0 km/h
488 02-03-2005 18:27:15 0.7 C 2.14 g/m*3 0.7 C 0 km/h
489 02-03-2005 18:47:15 0.4 C 2.04 g/m*3 0.4 C 0 km/h
490 02-03-2005 19:07:15 0.4 C 2.09 g/m*3 0.4 C 0 km/h
491 02-03-2005 19:27:15 0.4 C 2.09 g/m*3 0.4 C 0 km/h
492 02-03-2005 19:47:15 0.3 C 2.13 g/m*3 0.3 C 0 km/h
493 02-03-2005 20:07:15 0.3 C 2.08 g/m*3 0.3 C 0 km/h
494 02-03-2005 20:27:15 0.3 C 2.08 g/m*3 0.3 C 0 km/h
495 02-03-2005 20:47:15 0.3 C 2.08 g/m*3 0.3 C 0 km/h
496 02-03-2005 21:07:15 0.1 C 2.1 g/m*3 0.1 C 0 km/h
497 02-03-2005 21:27:15 0.3 C 2.13 g/m*3 0.3 C 0 km/h
498 02-03-2005 21:47:15 0 C 2.13 g/m*3 0 C 0 km/h
499 02-03-2005 22:07:15 -0.3 C 2.14 g/m*3 -0.3 C 0 km/h
500 02-03-2005 22:27:15 -0.5 C 2.15 g/m*3 -0.5 C 0 km/h
Sensor: Nr:Datum:Temp:Abs-Feuchte:Windchill:Wind:
Aussen-T/F 501 02-03-2005 22:47:15 -1.2 C 2.27 g/m*3 -1.2 C 0 km/h
502 02-03-2005 23:07:15 -1.6 C 2.3 g/m*3 -1.6 C 0 km/h
503 02-03-2005 23:27:15 -1.7 C 2.37 g/m*3 -1.7 C 0 km/h
504 02-03-2005 23:47:15 -1.8 C 2.35 g/m*3 -1.8 C 0 km/h
505 03-03-2005 00:07:15 -1.7 C 2.32 g/m*3 -1.7 C 0 km/h
506 03-03-2005 00:27:16 -1.6 C 2.34 g/m*3 -1.6 C 0 km/h
507 03-03-2005 00:47:16 -1.4 C 2.24 g/m*3 -1.4 C 0 km/h
508 03-03-2005 01:07:16 -1.6 C 2.25 g/m*3 -1.6 C 0 km/h
509 03-03-2005 01:27:16 -1.8 C 2.31 g/m*3 -1.8 C 0 km/h
510 03-03-2005 01:47:16 -2 C 2.23 g/m*3 -2 C 0 km/h
511 03-03-2005 02:07:16 -2.5 C 2.24 g/m*3 -2.5 C 0 km/h
512 03-03-2005 02:27:16 -2.5 C 2.24 g/m*3 -2.5 C 0 km/h
513 03-03-2005 02:47:16 -2.7 C 2.25 g/m*3 -2.7 C 0 km/h
514 03-03-2005 03:07:16 -2.7 C 2.21 g/m*3 -2.7 C 0 km/h
515 03-03-2005 03:27:16 -2.8 C 2.19 g/m*3 -2.8 C 0 km/h
516 03-03-2005 03:47:16 -3.2 C 2.13 g/m*3 -3.2 C 0 km/h
517 03-03-2005 04:07:16 -3.3 C 2.11 g/m*3 -3.3 C 0 km/h
518 03-03-2005 04:27:16 -3.5 C 2.09 g/m*3 -3.5 C 0 km/h
519 03-03-2005 04:47:16 -3.8 C 2 g/m*3 -3.8 C 0 km/h
520 03-03-2005 05:07:16 -4 C 1.87 g/m*3 -4 C 0 km/h
521 03-03-2005 05:27:16 -4.4 C 1.96 g/m*3 -4.4 C 0 km/h
522 03-03-2005 05:47:16 -4.6 C 1.96 g/m*3 -4.6 C 0 km/h
523 03-03-2005 06:07:16 -4.6 C 1.89 g/m*3 -4.6 C 0 km/h
524 03-03-2005 06:27:16 -4.7 C 1.91 g/m*3 -4.7 C 0 km/h
525 03-03-2005 06:47:16 -4.8 C 1.93 g/m*3 -4.8 C 0 km/h
Sensor: Nr:Datum:Temp:Abs-Feuchte:Windchill:Wind:
Aussen-T/F 526 03-03-2005 07:07:17 -4.9 C 1.95 g/m*3 -4.9 C 0 km/h
527 03-03-2005 07:27:17 -5 C 1.94 g/m*3 -5 C 0 km/h
528 03-03-2005 07:47:17 -4.9 C 1.95 g/m*3 -4.9 C 0 km/h
529 03-03-2005 08:07:17 -4.8 C 1.97 g/m*3 -4.8 C 0 km/h
530 03-03-2005 08:27:17 -4 C 2.09 g/m*3 -4 C 0 km/h
531 03-03-2005 08:47:17 -3.1 C 2.07 g/m*3 -3.1 C 0 km/h
532 03-03-2005 09:07:17 -2.6 C 2.06 g/m*3 -2.6 C 0 km/h
533 03-03-2005 09:27:17 -1.7 C 2.07 g/m*3 -1.7 C 0 km/h
534 03-03-2005 09:47:17 -0.9 C 1.96 g/m*3 -0.9 C 0 km/h
535 03-03-2005 10:07:17 -0.2 C 1.86 g/m*3 -0.2 C 0 km/h
536 03-03-2005 10:27:17 0.2 C 1.92 g/m*3 0.2 C 0 km/h
537 03-03-2005 10:47:17 1 C 1.97 g/m*3 1 C 0 km/h
538 03-03-2005 11:07:17 1.2 C 1.84 g/m*3 1.2 C 0 km/h
539 03-03-2005 11:27:17 1.7 C 1.91 g/m*3 1.7 C 0 km/h
540 03-03-2005 11:47:17 2.1 C 1.68 g/m*3 2.1 C 0 km/h
541 03-03-2005 12:07:17 2.7 C 1.81 g/m*3 2.7 C 0 km/h
542 03-03-2005 12:27:17 3.2 C 1.81 g/m*3 3.2 C 0 km/h
543 03-03-2005 12:47:17 4 C 1.78 g/m*3 4 C 0 km/h
544 03-03-2005 13:07:17 4.3 C 1.69 g/m*3 4.3 C 0 km/h
545 03-03-2005 13:27:17 4.9 C 1.69 g/m*3 4.9 C 0 km/h
546 03-03-2005 13:47:17 5.4 C 1.4 g/m*3 5.4 C 0 km/h
547 03-03-2005 14:07:18 5.6 C 1.41 g/m*3 5.6 C 0 km/h
548 03-03-2005 14:27:18 5.7 C 1.42 g/m*3 5.7 C 0 km/h
549 03-03-2005 14:47:18 6.6 C 1.51 g/m*3 6.6 C 0 km/h
550 03-03-2005 15:07:18 7 C 1.55 g/m*3 7 C 0 km/h
Sensor: Nr:Datum:Temp:Abs-Feuchte:Windchill:Wind:
Aussen-T/F 551 03-03-2005 15:27:18 6.3 C 1.48 g/m*3 6.3 C 0 km/h
552 03-03-2005 15:47:18 6 C 1.45 g/m*3 6 C 0 km/h
553 03-03-2005 16:07:18 5.7 C 1.49 g/m*3 5.7 C 0 km/h
554 03-03-2005 16:27:18 6.1 C 1.53 g/m*3 6.1 C 0 km/h
555 03-03-2005 16:47:18 5.7 C 1.64 g/m*3 5.7 C 0 km/h
556 03-03-2005 17:07:18 4.4 C 1.5 g/m*3 4.4 C 0 km/h
557 03-03-2005 17:27:18 3.8 C 1.69 g/m*3 3.8 C 0 km/h
558 03-03-2005 17:47:18 3.3 C 2.18 g/m*3 3.3 C 0 km/h
559 03-03-2005 18:07:18 2.4 C 2.4 g/m*3 2.4 C 0 km/h
560 03-03-2005 18:27:18 1.5 C 2.47 g/m*3 1.5 C 0 km/h
561 03-03-2005 18:47:18 0.9 C 2.47 g/m*3 0.9 C 0 km/h
562 03-03-2005 19:07:18 0.7 C 2.44 g/m*3 0.7 C 0 km/h
563 03-03-2005 19:27:18 0.5 C 2.56 g/m*3 0.5 C 0 km/h
564 03-03-2005 19:47:18 0.3 C 2.57 g/m*3 0.3 C 0 km/h
565 03-03-2005 20:07:18 0 C 2.47 g/m*3 0 C 0 km/h
566 03-03-2005 20:27:18 -0.5 C 2.53 g/m*3 -0.5 C 0 km/h
567 03-03-2005 20:47:19 -0.8 C 2.52 g/m*3 -0.8 C 0 km/h
568 03-03-2005 21:07:19 -1 C 2.49 g/m*3 -1 C 0 km/h
569 03-03-2005 21:27:19 -1.2 C 2.5 g/m*3 -1.2 C 0 km/h
570 03-03-2005 21:47:19 -1.4 C 2.55 g/m*3 -1.4 C 0 km/h
571 03-03-2005 22:07:19 -1.6 C 2.6 g/m*3 -1.6 C 0 km/h
572 03-03-2005 22:27:19 -1.8 C 2.61 g/m*3 -1.8 C 0 km/h
573 03-03-2005 22:47:19 -1.9 C 2.72 g/m*3 -1.9 C 0 km/h
574 03-03-2005 23:07:19 -2 C 2.74 g/m*3 -2 C 0 km/h
575 03-03-2005 23:27:19 -2.2 C 2.78 g/m*3 -2.2 C 0 km/h
Sensor: Nr:Datum:Temp:Abs-Feuchte:Windchill:Wind:
Aussen-T/F 576 03-03-2005 23:47:19 -2.4 C 2.75 g/m*3 -2.4 C 0 km/h
577 04-03-2005 00:07:19 -2.5 C 2.77 g/m*3 -2.5 C 0 km/h
578 04-03-2005 00:27:19 -2.1 C 2.89 g/m*3 -2.1 C 0 km/h
579 04-03-2005 00:47:19 -2 C 2.87 g/m*3 -2 C 0 km/h
580 04-03-2005 01:07:19 -2.4 C 2.79 g/m*3 -2.4 C 0 km/h
581 04-03-2005 01:27:19 -2.6 C 2.79 g/m*3 -2.6 C 0 km/h
582 04-03-2005 01:47:19 -2.7 C 2.77 g/m*3 -2.7 C 0 km/h
583 04-03-2005 02:07:19 -2.4 C 2.83 g/m*3 -2.4 C 0 km/h
584 04-03-2005 02:27:19 -2.6 C 2.75 g/m*3 -2.6 C 0 km/h
585 04-03-2005 02:47:19 -2.7 C 2.81 g/m*3 -2.7 C 0 km/h
586 04-03-2005 03:07:19 -2.8 C 2.79 g/m*3 -2.8 C 0 km/h
587 04-03-2005 03:27:20 -2.5 C 2.85 g/m*3 -2.5 C 0 km/h
588 04-03-2005 03:47:20 -2.2 C 2.91 g/m*3 -2.2 C 0 km/h
589 04-03-2005 04:07:20 -2.5 C 2.81 g/m*3 -2.5 C 0 km/h
590 04-03-2005 04:27:20 -2.3 C 2.85 g/m*3 -2.3 C 0 km/h
591 04-03-2005 04:47:20 -2.3 C 2.85 g/m*3 -2.3 C 0 km/h
592 04-03-2005 05:07:20 -2.3 C 2.85 g/m*3 -2.3 C 0 km/h
593 04-03-2005 05:27:20 -2.1 C 2.89 g/m*3 -2.1 C 0 km/h
594 04-03-2005 05:47:20 -2 C 2.91 g/m*3 -2 C 0 km/h
595 04-03-2005 06:07:20 -2 C 2.91 g/m*3 -2 C 0 km/h
596 04-03-2005 06:27:20 -1.9 C 2.93 g/m*3 -1.9 C 0 km/h
597 04-03-2005 06:47:20 -1.9 C 2.97 g/m*3 -1.9 C 0 km/h
598 04-03-2005 07:07:20 -1.9 C 2.97 g/m*3 -1.9 C 0 km/h
599 04-03-2005 07:27:20 -1.9 C 2.93 g/m*3 -1.9 C 0 km/h
600 04-03-2005 07:47:20 -1.8 C 2.95 g/m*3 -1.8 C 0 km/h
Sensor: Nr:Datum:Temp:Abs-Feuchte:Windchill:Wind:
Aussen-T/F 601 04-03-2005 08:07:20 -1.6 C 2.99 g/m*3 -1.6 C 0 km/h
602 04-03-2005 08:27:20 -1.4 C 3.03 g/m*3 -1.4 C 0 km/h
603 04-03-2005 08:47:20 -1.1 C 3.1 g/m*3 -1.1 C 0 km/h
604 04-03-2005 09:07:20 -0.7 C 3.18 g/m*3 -0.7 C 0 km/h
605 04-03-2005 09:27:20 -0.6 C 3.16 g/m*3 -0.6 C 0 km/h
606 04-03-2005 09:47:20 -0.4 C 3.2 g/m*3 -0.4 C 0 km/h
607 04-03-2005 10:07:20 0.2 C 3.19 g/m*3 0.2 C 0 km/h
608 04-03-2005 10:17:02 0.7 C 3.36 g/m*3 0.7 C 0 km/h
609 04-03-2005 10:27:02 0.7 C 3.15 g/m*3 0.7 C 0 km/h
610 04-03-2005 10:37:04 1 C 3.17 g/m*3 1 C 0 km/h
611 04-03-2005 10:47:03 0.6 C 3.13 g/m*3 0.6 C 0 km/h
612 04-03-2005 10:57:03 0.8 C 3.23 g/m*3 0.8 C 0 km/h
613 04-03-2005 11:07:03 1.2 C 3.16 g/m*3 1.2 C 0 km/h
614 04-03-2005 11:17:03 1.6 C 3.08 g/m*3 1.6 C 0 km/h
615 04-03-2005 11:27:03 1.6 C 2.97 g/m*3 1.6 C 0 km/h
616 04-03-2005 11:37:03 1.6 C 2.87 g/m*3 1.6 C 0 km/h
617 04-03-2005 11:47:02 1.6 C 2.81 g/m*3 1.6 C 0 km/h
618 04-03-2005 11:57:02 1.4 C 2.72 g/m*3 1.4 C 0 km/h
619 04-03-2005 12:07:03 1 C 2.75 g/m*3 1 C 0 km/h
620 04-03-2005 12:17:02 1.3 C 2.75 g/m*3 1.3 C 0 km/h
621 04-03-2005 12:27:02 1.7 C 2.67 g/m*3 1.7 C 0 km/h
622 04-03-2005 12:37:09 1.7 C 2.61 g/m*3 1.7 C 0 km/h
623 04-03-2005 12:47:16 1.7 C 2.5 g/m*3 1.7 C 0 km/h
624 04-03-2005 12:57:16 1.8 C 2.52 g/m*3 1.8 C 0 km/h
625 04-03-2005 13:07:06 2.3 C 2.55 g/m*3 2.3 C 0 km/h
Sensor: Nr:Datum:Temp:Abs-Feuchte:Windchill:Wind:
Aussen-T/F 626 04-03-2005 13:17:06 2.1 C 2.41 g/m*3 2.1 C 0 km/h
627 04-03-2005 13:27:06 2.2 C 2.31 g/m*3 2.2 C 0 km/h
628 04-03-2005 13:37:14 2.4 C 2.4 g/m*3 2.4 C 0 km/h
629 04-03-2005 13:47:10 2.5 C 2.41 g/m*3 2.5 C 0 km/h
630 04-03-2005 13:57:10 2.4 C 2.34 g/m*3 2.4 C 0 km/h
631 04-03-2005 14:07:11 2.2 C 2.2 g/m*3 2.2 C 0 km/h
632 04-03-2005 14:17:13 2.4 C 2.28 g/m*3 2.4 C 0 km/h
633 04-03-2005 14:27:13 2.2 C 2.25 g/m*3 2.2 C 0 km/h
634 04-03-2005 14:37:13 2.4 C 2.23 g/m*3 2.4 C 0 km/h
635 04-03-2005 14:47:02 2.1 C 2.24 g/m*3 2.1 C 0 km/h
636 04-03-2005 14:57:02 1.9 C 2.32 g/m*3 1.9 C 0 km/h
637 04-03-2005 15:07:03 1.9 C 2.37 g/m*3 1.9 C 0 km/h
638 04-03-2005 15:17:03 1.7 C 2.34 g/m*3 1.7 C 0 km/h
639 04-03-2005 15:27:03 1.9 C 2.48 g/m*3 1.9 C 0 km/h
640 04-03-2005 15:37:03 1.9 C 2.43 g/m*3 1.9 C 0 km/h
641 04-03-2005 15:47:02 2 C 2.39 g/m*3 2 C 0 km/h
642 04-03-2005 15:57:02 2 C 2.39 g/m*3 2 C 0 km/h
643 04-03-2005 16:07:02 1.9 C 2.43 g/m*3 1.9 C 0 km/h
644 04-03-2005 16:17:03 1.7 C 2.4 g/m*3 1.7 C 0 km/h
645 04-03-2005 16:27:03 1.7 C 2.45 g/m*3 1.7 C 0 km/h
646 04-03-2005 16:37:02 1.5 C 2.42 g/m*3 1.5 C 0 km/h
647 04-03-2005 16:47:02 1.6 C 2.43 g/m*3 1.6 C 0 km/h
648 04-03-2005 16:57:02 1.5 C 2.42 g/m*3 1.5 C 0 km/h
649 04-03-2005 17:07:03 1.4 C 2.45 g/m*3 1.4 C 0 km/h
650 04-03-2005 17:17:03 1.3 C 2.38 g/m*3 1.3 C 0 km/h
Sensor: Nr:Datum:Temp:Abs-Feuchte:Windchill:Wind:
Aussen-T/F 651 04-03-2005 17:27:03 1.3 C 2.38 g/m*3 1.3 C 0 km/h
652 04-03-2005 17:37:02 1.1 C 2.4 g/m*3 1.1 C 0 km/h
653 04-03-2005 17:47:01 0.9 C 2.53 g/m*3 0.9 C 0 km/h
654 04-03-2005 17:57:01 0.8 C 2.46 g/m*3 0.8 C 0 km/h
655 04-03-2005 18:07:02 0.6 C 2.47 g/m*3 0.6 C 0 km/h
656 04-03-2005 18:17:02 0.5 C 2.56 g/m*3 0.5 C 0 km/h
657 04-03-2005 18:27:02 0.3 C 2.47 g/m*3 0.3 C 0 km/h
658 04-03-2005 18:37:01 0 C 2.52 g/m*3 0 C 0 km/h
659 04-03-2005 18:47:01 -0.4 C 2.45 g/m*3 -0.4 C 0 km/h
660 04-03-2005 18:57:01 -0.7 C 2.49 g/m*3 -0.7 C 0 km/h
661 04-03-2005 19:07:01 -1 C 2.49 g/m*3 -1 C 0 km/h
662 04-03-2005 19:17:02 -1.1 C 2.47 g/m*3 -1.1 C 0 km/h
663 04-03-2005 19:27:02 -1.2 C 2.45 g/m*3 -1.2 C 0 km/h
664 04-03-2005 19:37:02 -1.4 C 2.46 g/m*3 -1.4 C 0 km/h
665 04-03-2005 19:47:01 -1.6 C 2.47 g/m*3 -1.6 C 0 km/h
666 04-03-2005 19:57:01 -1.7 C 2.45 g/m*3 -1.7 C 0 km/h
667 04-03-2005 20:07:02 -1.9 C 2.42 g/m*3 -1.9 C 0 km/h
668 04-03-2005 20:17:02 -1.9 C 2.42 g/m*3 -1.9 C 0 km/h
669 04-03-2005 20:27:02 -1.7 C 2.37 g/m*3 -1.7 C 0 km/h
670 04-03-2005 20:37:02 -1.8 C 2.39 g/m*3 -1.8 C 0 km/h
671 04-03-2005 20:47:01 -1.8 C 2.44 g/m*3 -1.8 C 0 km/h
672 04-03-2005 20:57:01 -1.6 C 2.43 g/m*3 -1.6 C 0 km/h
673 04-03-2005 21:07:01 -1.6 C 2.38 g/m*3 -1.6 C 0 km/h
674 04-03-2005 21:17:01 -1.7 C 2.41 g/m*3 -1.7 C 0 km/h
675 04-03-2005 21:27:01 -1.6 C 2.38 g/m*3 -1.6 C 0 km/h
Sensor: Nr:Datum:Temp:Abs-Feuchte:Windchill:Wind:
Aussen-T/F 676 04-03-2005 21:37:02 -1.5 C 2.4 g/m*3 -1.5 C 0 km/h
677 04-03-2005 21:47:02 -1.6 C 2.38 g/m*3 -1.6 C 0 km/h
678 04-03-2005 21:57:02 -1.7 C 2.37 g/m*3 -1.7 C 0 km/h
679 04-03-2005 22:07:02 -1.6 C 2.34 g/m*3 -1.6 C 0 km/h
680 04-03-2005 22:17:02 -1.5 C 2.31 g/m*3 -1.5 C 0 km/h
681 04-03-2005 22:27:02 -1.4 C 2.29 g/m*3 -1.4 C 0 km/h
682 04-03-2005 22:37:02 -1.4 C 2.29 g/m*3 -1.4 C 0 km/h
683 04-03-2005 22:47:01 -1.4 C 2.33 g/m*3 -1.4 C 0 km/h
684 04-03-2005 22:57:01 -1.6 C 2.3 g/m*3 -1.6 C 0 km/h
685 04-03-2005 23:07:02 -1.8 C 2.35 g/m*3 -1.8 C 0 km/h
686 04-03-2005 23:17:01 -1.8 C 2.35 g/m*3 -1.8 C 0 km/h
687 04-03-2005 23:27:01 -1.9 C 2.38 g/m*3 -1.9 C 0 km/h
688 04-03-2005 23:37:02 -2.1 C 2.34 g/m*3 -2.1 C 0 km/h
689 04-03-2005 23:47:02 -2.2 C 2.37 g/m*3 -2.2 C 0 km/h
690 04-03-2005 23:57:02 -2.3 C 2.35 g/m*3 -2.3 C 0 km/h
691 05-03-2005 00:07:03 -2.4 C 2.38 g/m*3 -2.4 C 0 km/h
692 05-03-2005 00:17:03 -2.3 C 2.44 g/m*3 -2.3 C 0 km/h
693 05-03-2005 00:27:03 -2.1 C 2.47 g/m*3 -2.1 C 0 km/h
694 05-03-2005 00:37:03 -1.9 C 2.5 g/m*3 -1.9 C 0 km/h
695 05-03-2005 00:47:02 -1.8 C 2.52 g/m*3 -1.8 C 0 km/h
696 05-03-2005 00:57:02 -1.8 C 2.56 g/m*3 -1.8 C 0 km/h
697 05-03-2005 01:07:01 -1.9 C 2.5 g/m*3 -1.9 C 0 km/h
698 05-03-2005 01:17:02 -1.9 C 2.55 g/m*3 -1.9 C 0 km/h
699 05-03-2005 01:27:02 -1.9 C 2.59 g/m*3 -1.9 C 0 km/h
700 05-03-2005 01:37:02 -1.8 C 2.61 g/m*3 -1.8 C 0 km/h
Sensor: Nr:Datum:Temp:Abs-Feuchte:Windchill:Wind:
Aussen-T/F 701 05-03-2005 01:47:02 -1.7 C 2.67 g/m*3 -1.7 C 0 km/h
702 05-03-2005 01:57:02 -1.7 C 2.67 g/m*3 -1.7 C 0 km/h
703 05-03-2005 02:07:02 -1.7 C 2.71 g/m*3 -1.7 C 0 km/h
704 05-03-2005 02:17:02 -1.6 C 2.73 g/m*3 -1.6 C 0 km/h
705 05-03-2005 02:27:02 -1.6 C 2.73 g/m*3 -1.6 C 0 km/h
706 05-03-2005 02:37:01 -1.6 C 2.77 g/m*3 -1.6 C 0 km/h
707 05-03-2005 02:48:03 -1.6 C 2.77 g/m*3 -1.6 C 0 km/h
708 05-03-2005 02:58:03 -1.7 C 2.76 g/m*3 -1.7 C 0 km/h
709 05-03-2005 03:08:04 -1.7 C 2.76 g/m*3 -1.7 C 0 km/h
710 05-03-2005 03:18:03 -1.7 C 2.76 g/m*3 -1.7 C 0 km/h
711 05-03-2005 03:28:03 -1.7 C 2.76 g/m*3 -1.7 C 0 km/h
712 05-03-2005 03:38:03 -1.7 C 2.8 g/m*3 -1.7 C 0 km/h
713 05-03-2005 03:48:03 -1.8 C 2.78 g/m*3 -1.8 C 0 km/h
714 05-03-2005 03:58:03 -1.8 C 2.78 g/m*3 -1.8 C 0 km/h
715 05-03-2005 04:08:03 -1.8 C 2.86 g/m*3 -1.8 C 0 km/h
716 05-03-2005 04:18:03 -1.8 C 2.86 g/m*3 -1.8 C 0 km/h
717 05-03-2005 04:28:03 -1.8 C 2.91 g/m*3 -1.8 C 0 km/h
718 05-03-2005 04:38:02 -1.8 C 2.91 g/m*3 -1.8 C 0 km/h
719 05-03-2005 04:48:02 -1.9 C 2.89 g/m*3 -1.9 C 0 km/h
720 05-03-2005 04:58:02 -1.9 C 2.93 g/m*3 -1.9 C 0 km/h
721 05-03-2005 05:08:03 -1.9 C 2.97 g/m*3 -1.9 C 0 km/h
722 05-03-2005 05:18:02 -1.9 C 3.01 g/m*3 -1.9 C 0 km/h
723 05-03-2005 05:28:02 -2 C 3.03 g/m*3 -2 C 0 km/h
724 05-03-2005 05:38:02 -2.1 C 3.01 g/m*3 -2.1 C 0 km/h
725 05-03-2005 05:48:02 -2 C 3.03 g/m*3 -2 C 0 km/h
Sensor: Nr:Datum:Temp:Abs-Feuchte:Windchill:Wind:
Aussen-T/F 726 05-03-2005 05:58:02 -2 C 3.08 g/m*3 -2 C 0 km/h
727 05-03-2005 06:08:02 -2.2 C 3.03 g/m*3 -2.2 C 0 km/h
728 05-03-2005 06:18:03 -2.3 C 3.05 g/m*3 -2.3 C 0 km/h
729 05-03-2005 06:28:03 -2.5 C 3.01 g/m*3 -2.5 C 0 km/h
730 05-03-2005 06:38:02 -2.5 C 3.01 g/m*3 -2.5 C 0 km/h
731 05-03-2005 06:48:02 -2.6 C 2.99 g/m*3 -2.6 C 0 km/h
732 05-03-2005 06:58:02 -2.7 C 2.97 g/m*3 -2.7 C 0 km/h
733 05-03-2005 07:08:02 -2.8 C 2.95 g/m*3 -2.8 C 0 km/h
734 05-03-2005 07:18:03 -2.8 C 2.99 g/m*3 -2.8 C 0 km/h
735 05-03-2005 07:28:03 -2.6 C 3.03 g/m*3 -2.6 C 0 km/h
736 05-03-2005 07:38:02 -2.4 C 3.07 g/m*3 -2.4 C 0 km/h
737 05-03-2005 07:48:02 -2 C 3.16 g/m*3 -2 C 0 km/h
738 05-03-2005 07:58:02 -1.8 C 3.21 g/m*3 -1.8 C 0 km/h
739 05-03-2005 08:08:01 -1.7 C 3.19 g/m*3 -1.7 C 0 km/h
740 05-03-2005 08:18:02 -1.5 C 3.23 g/m*3 -1.5 C 0 km/h
741 05-03-2005 08:28:02 -1.4 C 3.21 g/m*3 -1.4 C 0 km/h
742 05-03-2005 08:38:01 -1.2 C 3.21 g/m*3 -1.2 C 0 km/h
743 05-03-2005 08:48:02 -1.2 C 3.21 g/m*3 -1.2 C 0 km/h
744 05-03-2005 08:58:02 -1 C 3.25 g/m*3 -1 C 0 km/h
745 05-03-2005 09:08:02 -0.8 C 3.25 g/m*3 -0.8 C 0 km/h
746 05-03-2005 09:18:03 -0.5 C 3.32 g/m*3 -0.5 C 0 km/h
747 05-03-2005 09:28:04 -0.4 C 3.3 g/m*3 -0.4 C 0 km/h
748 05-03-2005 09:38:02 -0.2 C 3.3 g/m*3 -0.2 C 0 km/h
749 05-03-2005 09:48:03 0.2 C 3.34 g/m*3 0.2 C 0 km/h
750 05-03-2005 09:58:03 0.3 C 3.31 g/m*3 0.3 C 0 km/h
Sensor: Nr:Datum:Temp:Abs-Feuchte:Windchill:Wind:
Aussen-T/F 751 05-03-2005 10:08:03 0.8 C 3.43 g/m*3 0.8 C 0 km/h
752 05-03-2005 10:18:02 0.8 C 3.33 g/m*3 0.8 C 0 km/h
753 05-03-2005 10:28:02 1.1 C 3.34 g/m*3 1.1 C 0 km/h
754 05-03-2005 10:38:04 1.6 C 3.41 g/m*3 1.6 C 0 km/h
755 05-03-2005 10:48:03 1.7 C 3.27 g/m*3 1.7 C 0 km/h
756 05-03-2005 10:58:03 1.9 C 3.31 g/m*3 1.9 C 0 km/h
757 05-03-2005 11:08:02 2 C 3.28 g/m*3 2 C 0 km/h
758 05-03-2005 11:18:02 2.1 C 3.24 g/m*3 2.1 C 0 km/h
759 05-03-2005 11:28:03 2.4 C 3.25 g/m*3 2.4 C 0 km/h
760 05-03-2005 11:38:03 2.7 C 3.26 g/m*3 2.7 C 0 km/h
761 05-03-2005 11:48:03 3.1 C 3.35 g/m*3 3.1 C 0 km/h
762 05-03-2005 11:58:03 3.2 C 3.31 g/m*3 3.2 C 0 km/h
763 05-03-2005 12:08:05 3.4 C 3.24 g/m*3 3.4 C 0 km/h
764 05-03-2005 12:18:04 3.4 C 3.05 g/m*3 3.4 C 0 km/h
765 05-03-2005 12:28:04 3.6 C 3.03 g/m*3 3.6 C 0 km/h
766 05-03-2005 12:38:05 3.3 C 3.03 g/m*3 3.3 C 0 km/h
767 05-03-2005 12:48:03 3 C 2.91 g/m*3 3 C 0 km/h
768 05-03-2005 12:58:03 3 C 2.97 g/m*3 3 C 0 km/h
769 05-03-2005 13:08:04 3 C 3.03 g/m*3 3 C 0 km/h
770 05-03-2005 13:18:07 3 C 2.97 g/m*3 3 C 0 km/h
771 05-03-2005 13:28:07 2.8 C 2.99 g/m*3 2.8 C 0 km/h
772 05-03-2005 13:38:09 3.1 C 2.99 g/m*3 3.1 C 0 km/h
773 05-03-2005 13:48:02 3.2 C 3.01 g/m*3 3.2 C 0 km/h
774 05-03-2005 13:58:02 3.2 C 3.07 g/m*3 3.2 C 0 km/h
775 05-03-2005 14:08:02 2.9 C 3.07 g/m*3 2.9 C 0 km/h
Sensor: Nr:Datum:Temp:Abs-Feuchte:Windchill:Wind:
Aussen-T/F 776 05-03-2005 14:18:02 2.5 C 3.22 g/m*3 2.5 C 0 km/h
777 05-03-2005 14:28:02 2.4 C 3.43 g/m*3 2.4 C 0 km/h
778 05-03-2005 14:38:02 2.5 C 3.33 g/m*3 2.5 C 0 km/h
779 05-03-2005 14:48:01 2.5 C 3.28 g/m*3 2.5 C 0 km/h
780 05-03-2005 14:58:01 2.4 C 3.25 g/m*3 2.4 C 0 km/h
781 05-03-2005 15:08:01 2.6 C 3.3 g/m*3 2.6 C 0 km/h
782 05-03-2005 15:18:01 2.6 C 3.36 g/m*3 2.6 C 0 km/h
783 05-03-2005 15:28:01 2.4 C 3.37 g/m*3 2.4 C 0 km/h
784 05-03-2005 15:38:01 2.1 C 3.47 g/m*3 2.1 C 0 km/h
785 05-03-2005 15:48:02 1.8 C 3.62 g/m*3 1.8 C 0 km/h
786 05-03-2005 15:58:02 1.6 C 3.68 g/m*3 1.6 C 0 km/h
787 05-03-2005 16:08:03 1.4 C 3.68 g/m*3 1.4 C 0 km/h
788 05-03-2005 16:18:03 1.3 C 3.55 g/m*3 1.3 C 0 km/h
789 05-03-2005 16:28:03 1.4 C 3.57 g/m*3 1.4 C 0 km/h
790 05-03-2005 16:38:02 1.5 C 3.54 g/m*3 1.5 C 0 km/h
791 05-03-2005 16:48:02 1.5 C 3.44 g/m*3 1.5 C 0 km/h
792 05-03-2005 16:58:02 1.6 C 3.46 g/m*3 1.6 C 0 km/h
793 05-03-2005 17:08:02 1.6 C 3.46 g/m*3 1.6 C 0 km/h
794 05-03-2005 17:18:02 1.6 C 3.46 g/m*3 1.6 C 0 km/h
795 05-03-2005 17:28:02 1.5 C 3.49 g/m*3 1.5 C 0 km/h
796 05-03-2005 17:38:04 1.4 C 3.52 g/m*3 1.4 C 0 km/h
797 05-03-2005 17:48:02 1.3 C 3.55 g/m*3 1.3 C 0 km/h
798 05-03-2005 17:58:02 1.1 C 3.61 g/m*3 1.1 C 0 km/h
799 05-03-2005 18:08:04 1 C 3.63 g/m*3 1 C 0 km/h
800 05-03-2005 18:18:03 0.7 C 3.71 g/m*3 0.7 C 0 km/h
Sensor: Nr:Datum:Temp:Abs-Feuchte:Windchill:Wind:
Aussen-T/F 801 05-03-2005 18:28:03 0.5 C 3.66 g/m*3 0.5 C 0 km/h
802 05-03-2005 18:38:03 0.5 C 3.71 g/m*3 0.5 C 0 km/h
803 05-03-2005 18:48:01 0.4 C 3.64 g/m*3 0.4 C 0 km/h
804 05-03-2005 18:58:01 0.3 C 3.61 g/m*3 0.3 C 0 km/h
805 05-03-2005 19:08:02 0.3 C 3.61 g/m*3 0.3 C 0 km/h
806 05-03-2005 19:18:01 0.3 C 3.56 g/m*3 0.3 C 0 km/h
807 05-03-2005 19:28:01 0.3 C 3.56 g/m*3 0.3 C 0 km/h
808 05-03-2005 19:38:02 0.2 C 3.54 g/m*3 0.2 C 0 km/h
809 05-03-2005 19:48:02 0.1 C 3.56 g/m*3 0.1 C 0 km/h
810 05-03-2005 19:58:02 0.1 C 3.56 g/m*3 0.1 C 0 km/h
811 05-03-2005 20:08:02 0 C 3.59 g/m*3 0 C 0 km/h
812 05-03-2005 20:18:02 -0.1 C 3.61 g/m*3 -0.1 C 0 km/h
813 05-03-2005 20:28:02 -0.1 C 3.61 g/m*3 -0.1 C 0 km/h
814 05-03-2005 20:38:02 -0.1 C 3.61 g/m*3 -0.1 C 0 km/h
815 05-03-2005 20:48:01 -0.2 C 3.58 g/m*3 -0.2 C 0 km/h
816 05-03-2005 20:58:01 -0.2 C 3.58 g/m*3 -0.2 C 0 km/h
817 05-03-2005 21:08:02 -0.2 C 3.58 g/m*3 -0.2 C 0 km/h
818 05-03-2005 21:18:02 -0.3 C 3.51 g/m*3 -0.3 C 0 km/h
819 05-03-2005 21:28:02 -0.4 C 3.49 g/m*3 -0.4 C 0 km/h
820 05-03-2005 21:38:02 -0.4 C 3.44 g/m*3 -0.4 C 0 km/h
821 05-03-2005 21:48:02 -0.5 C 3.42 g/m*3 -0.5 C 0 km/h
822 05-03-2005 21:58:02 -0.6 C 3.35 g/m*3 -0.6 C 0 km/h
823 05-03-2005 22:08:02 -0.8 C 3.35 g/m*3 -0.8 C 0 km/h
824 05-03-2005 22:18:02 -0.8 C 3.35 g/m*3 -0.8 C 0 km/h
825 05-03-2005 22:28:02 -0.9 C 3.32 g/m*3 -0.9 C 0 km/h
Sensor: Nr:Datum:Temp:Abs-Feuchte:Windchill:Wind:
Aussen-T/F 826 05-03-2005 22:38:03 -0.7 C 3.37 g/m*3 -0.7 C 0 km/h
827 05-03-2005 22:48:02 -0.7 C 3.32 g/m*3 -0.7 C 0 km/h
828 05-03-2005 22:58:02 -0.8 C 3.3 g/m*3 -0.8 C 0 km/h
829 05-03-2005 23:08:02 -1 C 3.25 g/m*3 -1 C 0 km/h
830 05-03-2005 23:18:02 -1.2 C 3.17 g/m*3 -1.2 C 0 km/h
831 05-03-2005 23:28:02 -1.5 C 3.01 g/m*3 -1.5 C 0 km/h
832 05-03-2005 23:38:02 -1.7 C 2.97 g/m*3 -1.7 C 0 km/h
833 05-03-2005 23:48:02 -1.8 C 2.91 g/m*3 -1.8 C 0 km/h
834 05-03-2005 23:58:02 -1.8 C 2.95 g/m*3 -1.8 C 0 km/h
835 06-03-2005 00:08:01 -1.7 C 2.93 g/m*3 -1.7 C 0 km/h
836 06-03-2005 00:18:02 -1.8 C 2.82 g/m*3 -1.8 C 0 km/h
837 06-03-2005 00:28:02 -1.7 C 2.76 g/m*3 -1.7 C 0 km/h
838 06-03-2005 00:38:03 -1.6 C 2.73 g/m*3 -1.6 C 0 km/h
839 06-03-2005 00:48:02 -1.7 C 2.63 g/m*3 -1.7 C 0 km/h
840 06-03-2005 00:58:02 -1.6 C 2.6 g/m*3 -1.6 C 0 km/h
841 06-03-2005 01:08:02 -1.7 C 2.58 g/m*3 -1.7 C 0 km/h
842 06-03-2005 01:18:02 -1.6 C 2.51 g/m*3 -1.6 C 0 km/h
843 06-03-2005 01:28:02 -1.7 C 2.5 g/m*3 -1.7 C 0 km/h
844 06-03-2005 01:38:02 -1.7 C 2.5 g/m*3 -1.7 C 0 km/h
845 06-03-2005 01:48:02 -1.8 C 2.48 g/m*3 -1.8 C 0 km/h
846 06-03-2005 01:58:02 -2 C 2.4 g/m*3 -2 C 0 km/h
847 06-03-2005 02:08:02 -2.3 C 2.39 g/m*3 -2.3 C 0 km/h
848 06-03-2005 02:18:03 -2.5 C 2.4 g/m*3 -2.5 C 0 km/h
849 06-03-2005 02:28:03 -2.4 C 2.38 g/m*3 -2.4 C 0 km/h
850 06-03-2005 02:38:02 -2.5 C 2.4 g/m*3 -2.5 C 0 km/h
Sensor: Nr:Datum:Temp:Abs-Feuchte:Windchill:Wind:
Aussen-T/F 851 06-03-2005 02:49:03 -2.4 C 2.46 g/m*3 -2.4 C 0 km/h
852 06-03-2005 02:59:03 -2.3 C 2.48 g/m*3 -2.3 C 0 km/h
853 06-03-2005 03:09:03 -2.2 C 2.41 g/m*3 -2.2 C 0 km/h
854 06-03-2005 03:19:04 -2.2 C 2.41 g/m*3 -2.2 C 0 km/h
855 06-03-2005 03:29:04 -2.2 C 2.37 g/m*3 -2.2 C 0 km/h
856 06-03-2005 03:39:02 -2.4 C 2.34 g/m*3 -2.4 C 0 km/h
857 06-03-2005 03:49:02 -2.5 C 2.4 g/m*3 -2.5 C 0 km/h
858 06-03-2005 03:59:02 -2.6 C 2.38 g/m*3 -2.6 C 0 km/h
859 06-03-2005 04:09:02 -2.9 C 2.33 g/m*3 -2.9 C 0 km/h
860 06-03-2005 04:19:02 -3.2 C 2.32 g/m*3 -3.2 C 0 km/h
861 06-03-2005 04:29:02 -3.2 C 2.32 g/m*3 -3.2 C 0 km/h
862 06-03-2005 04:39:02 -3.1 C 2.34 g/m*3 -3.1 C 0 km/h
863 06-03-2005 04:49:02 -3.4 C 2.29 g/m*3 -3.4 C 0 km/h
864 06-03-2005 04:59:02 -3.7 C 2.28 g/m*3 -3.7 C 0 km/h
865 06-03-2005 05:09:02 -3.8 C 2.3 g/m*3 -3.8 C 0 km/h
866 06-03-2005 05:19:02 -4.1 C 2.29 g/m*3 -4.1 C 0 km/h
867 06-03-2005 05:29:02 -4.2 C 2.27 g/m*3 -4.2 C 0 km/h
868 06-03-2005 05:39:02 -4.4 C 2.24 g/m*3 -4.4 C 0 km/h
869 06-03-2005 05:49:02 -4.6 C 2.21 g/m*3 -4.6 C 0 km/h
870 06-03-2005 05:59:02 -4.8 C 2.25 g/m*3 -4.8 C 0 km/h
871 06-03-2005 06:09:02 -5 C 2.25 g/m*3 -5 C 0 km/h
872 06-03-2005 06:19:02 -5.1 C 2.26 g/m*3 -5.1 C 0 km/h
873 06-03-2005 06:29:02 -5.2 C 2.25 g/m*3 -5.2 C 0 km/h
874 06-03-2005 06:39:01 -5.3 C 2.23 g/m*3 -5.3 C 0 km/h
875 06-03-2005 06:49:01 -5.4 C 2.22 g/m*3 -5.4 C 0 km/h
Sensor: Nr:Datum:Temp:Abs-Feuchte:Windchill:Wind:
Aussen-T/F 876 06-03-2005 06:59:01 -5.6 C 2.22 g/m*3 -5.6 C 0 km/h
877 06-03-2005 07:09:02 -5.7 C 2.2 g/m*3 -5.7 C 0 km/h
878 06-03-2005 07:19:02 -5.6 C 2.22 g/m*3 -5.6 C 0 km/h
879 06-03-2005 07:29:02 -5.7 C 2.2 g/m*3 -5.7 C 0 km/h
880 06-03-2005 07:39:01 -5.6 C 2.22 g/m*3 -5.6 C 0 km/h
881 06-03-2005 07:49:01 -5.3 C 2.23 g/m*3 -5.3 C 0 km/h
882 06-03-2005 07:59:01 -5.3 C 2.2 g/m*3 -5.3 C 0 km/h
883 06-03-2005 08:09:02 -5 C 2.25 g/m*3 -5 C 0 km/h
884 06-03-2005 08:19:02 -4.6 C 2.24 g/m*3 -4.6 C 0 km/h
885 06-03-2005 08:29:02 -4.6 C 2.17 g/m*3 -4.6 C 0 km/h
886 06-03-2005 08:39:01 -4.2 C 2.24 g/m*3 -4.2 C 0 km/h
887 06-03-2005 08:49:01 -4.2 C 2.2 g/m*3 -4.2 C 0 km/h
888 06-03-2005 08:59:01 -4.2 C 2.2 g/m*3 -4.2 C 0 km/h
889 06-03-2005 09:09:02 -4.1 C 2.18 g/m*3 -4.1 C 0 km/h
890 06-03-2005 09:19:02 -3.8 C 2.19 g/m*3 -3.8 C 0 km/h
891 06-03-2005 09:29:02 -3.5 C 2.24 g/m*3 -3.5 C 0 km/h
892 06-03-2005 09:39:06 -3.3 C 2.23 g/m*3 -3.3 C 0 km/h
893 06-03-2005 09:49:03 -3.2 C 2.17 g/m*3 -3.2 C 0 km/h
894 06-03-2005 09:59:03 -3 C 2.2 g/m*3 -3 C 0 km/h
895 06-03-2005 10:09:02 -2.6 C 2.26 g/m*3 -2.6 C 0 km/h
896 06-03-2005 10:19:02 -2.5 C 2.24 g/m*3 -2.5 C 0 km/h
897 06-03-2005 10:29:02 -2 C 2.32 g/m*3 -2 C 0 km/h
898 06-03-2005 10:39:02 -1.9 C 2.29 g/m*3 -1.9 C 0 km/h
899 06-03-2005 10:49:01 -1.9 C 2.25 g/m*3 -1.9 C 0 km/h
900 06-03-2005 10:59:01 -1.6 C 2.25 g/m*3 -1.6 C 0 km/h
Sensor: Nr:Datum:Temp:Abs-Feuchte:Windchill:Wind:
Aussen-T/F 901 06-03-2005 11:09:02 -1.3 C 2.3 g/m*3 -1.3 C 0 km/h
902 06-03-2005 11:19:02 -1.3 C 2.17 g/m*3 -1.3 C 0 km/h
903 06-03-2005 11:29:02 -0.9 C 2.28 g/m*3 -0.9 C 0 km/h
904 06-03-2005 11:39:02 -1.1 C 2.11 g/m*3 -1.1 C 0 km/h
905 06-03-2005 11:49:02 -1.1 C 2.07 g/m*3 -1.1 C 0 km/h
906 06-03-2005 11:59:02 -0.8 C 2.11 g/m*3 -0.8 C 0 km/h
907 06-03-2005 12:09:02 -0.5 C 2.01 g/m*3 -0.5 C 0 km/h
908 06-03-2005 12:19:02 0 C 2.08 g/m*3 0 C 0 km/h
909 06-03-2005 12:29:02 -0.8 C 2.11 g/m*3 -0.8 C 0 km/h
910 06-03-2005 12:39:03 -1.1 C 2.24 g/m*3 -1.1 C 0 km/h
911 06-03-2005 12:49:02 -1.1 C 2.24 g/m*3 -1.1 C 0 km/h
912 06-03-2005 12:59:02 0.6 C 2.27 g/m*3 0.6 C 0 km/h
913 06-03-2005 13:09:02 0.1 C 2.15 g/m*3 0.1 C 0 km/h
914 06-03-2005 13:19:02 0.1 C 2.15 g/m*3 0.1 C 0 km/h
915 06-03-2005 13:29:02 0.2 C 2.21 g/m*3 0.2 C 0 km/h
916 06-03-2005 13:39:01 -0.1 C 2.07 g/m*3 -0.1 C 0 km/h
917 06-03-2005 13:49:01 0.6 C 2.17 g/m*3 0.6 C 0 km/h
918 06-03-2005 13:59:01 0.5 C 2.01 g/m*3 0.5 C 0 km/h
919 06-03-2005 14:09:02 0.4 C 1.99 g/m*3 0.4 C 0 km/h
920 06-03-2005 14:19:02 1.1 C 1.93 g/m*3 1.1 C 0 km/h
921 06-03-2005 14:29:03 1.2 C 1.95 g/m*3 1.2 C 0 km/h
922 06-03-2005 14:39:02 2.1 C 2.01 g/m*3 2.1 C 0 km/h
923 06-03-2005 14:49:01 2.3 C 1.81 g/m*3 2.3 C 0 km/h
924 06-03-2005 14:59:01 1.4 C 1.87 g/m*3 1.4 C 0 km/h
925 06-03-2005 15:09:01 0.5 C 2.01 g/m*3 0.5 C 0 km/h
Sensor: Nr:Datum:Temp:Abs-Feuchte:Windchill:Wind:
Aussen-T/F 926 06-03-2005 15:19:01 0.4 C 2.04 g/m*3 0.4 C 0 km/h
927 06-03-2005 15:29:01 -0.2 C 2.34 g/m*3 -0.2 C 0 km/h
928 06-03-2005 15:39:02 0.5 C 2.36 g/m*3 0.5 C 0 km/h
929 06-03-2005 15:49:02 0.5 C 2.31 g/m*3 0.5 C 0 km/h
930 06-03-2005 15:59:02 1 C 2.08 g/m*3 1 C 0 km/h
931 06-03-2005 16:09:02 1.5 C 1.88 g/m*3 1.5 C 0 km/h
932 06-03-2005 16:19:02 2.1 C 1.9 g/m*3 2.1 C 0 km/h
933 06-03-2005 16:29:02 2.5 C 1.78 g/m*3 2.5 C 0 km/h
934 06-03-2005 16:39:02 2.5 C 1.72 g/m*3 2.5 C 0 km/h
935 06-03-2005 16:49:02 2.2 C 1.75 g/m*3 2.2 C 0 km/h
936 06-03-2005 16:59:02 2.4 C 1.77 g/m*3 2.4 C 0 km/h
937 06-03-2005 17:09:03 1.9 C 1.77 g/m*3 1.9 C 0 km/h
938 06-03-2005 17:19:02 1.7 C 1.85 g/m*3 1.7 C 0 km/h
939 06-03-2005 17:29:02 1.8 C 1.92 g/m*3 1.8 C 0 km/h
940 06-03-2005 17:39:03 1.3 C 1.85 g/m*3 1.3 C 0 km/h
941 06-03-2005 17:49:02 1.2 C 1.89 g/m*3 1.2 C 0 km/h
942 06-03-2005 17:59:02 1 C 1.97 g/m*3 1 C 0 km/h
943 06-03-2005 18:09:01 0.5 C 2.06 g/m*3 0.5 C 0 km/h
944 06-03-2005 18:19:02 0 C 1.99 g/m*3 0 C 0 km/h
945 06-03-2005 18:29:02 -0.6 C 2.09 g/m*3 -0.6 C 0 km/h
946 06-03-2005 18:39:02 -0.9 C 2.09 g/m*3 -0.9 C 0 km/h
947 06-03-2005 18:49:03 -1.3 C 2.08 g/m*3 -1.3 C 0 km/h
948 06-03-2005 18:59:03 -1.7 C 2.11 g/m*3 -1.7 C 0 km/h
949 06-03-2005 19:09:03 -1.9 C 2.08 g/m*3 -1.9 C 0 km/h
950 06-03-2005 19:19:04 -2.1 C 2.09 g/m*3 -2.1 C 0 km/h
Sensor: Nr:Datum:Temp:Abs-Feuchte:Windchill:Wind:
Aussen-T/F 951 06-03-2005 19:29:04 -2.3 C 2.02 g/m*3 -2.3 C 0 km/h
952 06-03-2005 19:39:04 -2.6 C 2.06 g/m*3 -2.6 C 0 km/h
953 06-03-2005 19:49:02 -2.6 C 2.14 g/m*3 -2.6 C 0 km/h
954 06-03-2005 19:59:02 -2.4 C 2.13 g/m*3 -2.4 C 0 km/h
955 06-03-2005 20:09:02 -2.3 C 2.15 g/m*3 -2.3 C 0 km/h
956 06-03-2005 20:19:02 -2.1 C 2.18 g/m*3 -2.1 C 0 km/h
957 06-03-2005 20:29:02 -2.1 C 2.18 g/m*3 -2.1 C 0 km/h
958 06-03-2005 20:39:02 -2.4 C 2.17 g/m*3 -2.4 C 0 km/h
959 06-03-2005 20:49:02 -2.6 C 2.26 g/m*3 -2.6 C 0 km/h
960 06-03-2005 20:59:02 -2.6 C 2.38 g/m*3 -2.6 C 0 km/h
961 06-03-2005 21:09:02 -2.2 C 2.58 g/m*3 -2.2 C 0 km/h
962 06-03-2005 21:19:02 -2.2 C 2.49 g/m*3 -2.2 C 0 km/h
963 06-03-2005 21:29:02 -1.8 C 2.56 g/m*3 -1.8 C 0 km/h
964 06-03-2005 21:39:03 -2 C 2.53 g/m*3 -2 C 0 km/h
965 06-03-2005 21:49:02 -2 C 2.53 g/m*3 -2 C 0 km/h
966 06-03-2005 21:59:02 -1.9 C 2.55 g/m*3 -1.9 C 0 km/h
967 06-03-2005 22:09:02 -1.9 C 2.55 g/m*3 -1.9 C 0 km/h
968 06-03-2005 22:19:02 -1.8 C 2.65 g/m*3 -1.8 C 0 km/h
969 06-03-2005 22:29:02 -1.8 C 2.78 g/m*3 -1.8 C 0 km/h
970 06-03-2005 22:39:02 -1.7 C 2.8 g/m*3 -1.7 C 0 km/h
971 06-03-2005 22:49:01 -1.8 C 2.74 g/m*3 -1.8 C 0 km/h
972 06-03-2005 22:59:01 -1.9 C 2.67 g/m*3 -1.9 C 0 km/h
973 06-03-2005 23:09:01 -1.9 C 2.67 g/m*3 -1.9 C 0 km/h
974 06-03-2005 23:19:01 -1.9 C 2.67 g/m*3 -1.9 C 0 km/h
975 06-03-2005 23:29:01 -1.8 C 2.74 g/m*3 -1.8 C 0 km/h
Sensor: Nr:Datum:Temp:Abs-Feuchte:Windchill:Wind:
Aussen-T/F 976 06-03-2005 23:39:02 -1.9 C 2.72 g/m*3 -1.9 C 0 km/h
977 06-03-2005 23:49:02 -1.9 C 2.72 g/m*3 -1.9 C 0 km/h
978 06-03-2005 23:59:02 -2.1 C 2.68 g/m*3 -2.1 C 0 km/h
979 07-03-2005 00:09:03 -2.1 C 2.72 g/m*3 -2.1 C 0 km/h
980 07-03-2005 00:19:04 -1.9 C 2.72 g/m*3 -1.9 C 0 km/h
981 07-03-2005 00:29:04 -1.9 C 2.67 g/m*3 -1.9 C 0 km/h
982 07-03-2005 00:39:03 -1.9 C 2.67 g/m*3 -1.9 C 0 km/h
983 07-03-2005 00:49:03 -1.9 C 2.72 g/m*3 -1.9 C 0 km/h
984 07-03-2005 00:59:03 -1.9 C 2.67 g/m*3 -1.9 C 0 km/h
985 07-03-2005 01:09:02 -1.9 C 2.72 g/m*3 -1.9 C 0 km/h
986 07-03-2005 01:19:03 -1.9 C 2.72 g/m*3 -1.9 C 0 km/h
987 07-03-2005 01:29:03 -1.9 C 2.76 g/m*3 -1.9 C 0 km/h
988 07-03-2005 01:39:02 -1.9 C 2.76 g/m*3 -1.9 C 0 km/h
989 07-03-2005 01:49:02 -1.9 C 2.76 g/m*3 -1.9 C 0 km/h
990 07-03-2005 01:59:02 -1.9 C 2.8 g/m*3 -1.9 C 0 km/h
991 07-03-2005 02:09:02 -2.1 C 2.76 g/m*3 -2.1 C 0 km/h
992 07-03-2005 02:19:02 -2.2 C 2.78 g/m*3 -2.2 C 0 km/h
993 07-03-2005 02:29:02 -2.1 C 2.76 g/m*3 -2.1 C 0 km/h
994 07-03-2005 02:39:02 -2.3 C 2.77 g/m*3 -2.3 C 0 km/h
995 07-03-2005 02:50:03 -2.3 C 2.77 g/m*3 -2.3 C 0 km/h
996 07-03-2005 03:00:03 -2.3 C 2.81 g/m*3 -2.3 C 0 km/h
997 07-03-2005 03:10:04 -2.3 C 2.81 g/m*3 -2.3 C 0 km/h
998 07-03-2005 03:20:04 -2.2 C 2.83 g/m*3 -2.2 C 0 km/h
999 07-03-2005 03:30:04 -2.2 C 2.83 g/m*3 -2.2 C 0 km/h
1000 07-03-2005 03:40:02 -2.2 C 2.83 g/m*3 -2.2 C 0 km/h
Sensor: Nr:Datum:Temp:Abs-Feuchte:Windchill:Wind:
Aussen-T/F 1001 07-03-2005 03:50:02 -2.1 C 2.85 g/m*3 -2.1 C 0 km/h
1002 07-03-2005 04:00:02 -2.1 C 2.89 g/m*3 -2.1 C 0 km/h
1003 07-03-2005 04:10:02 -1.9 C 2.93 g/m*3 -1.9 C 0 km/h
1004 07-03-2005 04:20:03 -2.2 C 2.87 g/m*3 -2.2 C 0 km/h
1005 07-03-2005 04:30:03 -2.2 C 2.87 g/m*3 -2.2 C 0 km/h
1006 07-03-2005 04:40:02 -2.1 C 2.93 g/m*3 -2.1 C 0 km/h
1007 07-03-2005 04:50:02 -2 C 2.95 g/m*3 -2 C 0 km/h
1008 07-03-2005 05:00:02 -2 C 2.95 g/m*3 -2 C 0 km/h
1009 07-03-2005 05:10:03 -2 C 2.95 g/m*3 -2 C 0 km/h
1010 07-03-2005 05:20:03 -2 C 2.95 g/m*3 -2 C 0 km/h
1011 07-03-2005 05:30:03 -2 C 2.95 g/m*3 -2 C 0 km/h
1012 07-03-2005 05:40:02 -2 C 2.95 g/m*3 -2 C 0 km/h
1013 07-03-2005 05:50:01 -2 C 2.95 g/m*3 -2 C 0 km/h
1014 07-03-2005 06:00:01 -2 C 2.99 g/m*3 -2 C 0 km/h
1015 07-03-2005 06:10:02 -2 C 2.99 g/m*3 -2 C 0 km/h
1016 07-03-2005 06:20:02 -2 C 2.99 g/m*3 -2 C 0 km/h
1017 07-03-2005 06:30:02 -1.9 C 3.01 g/m*3 -1.9 C 0 km/h
1018 07-03-2005 06:40:01 -1.9 C 3.01 g/m*3 -1.9 C 0 km/h
1019 07-03-2005 06:50:02 -1.9 C 3.01 g/m*3 -1.9 C 0 km/h
1020 07-03-2005 07:00:02 -1.8 C 3.04 g/m*3 -1.8 C 0 km/h
1021 07-03-2005 07:10:02 -1.9 C 3.01 g/m*3 -1.9 C 0 km/h
1022 07-03-2005 07:20:02 -1.9 C 3.06 g/m*3 -1.9 C 0 km/h
1023 07-03-2005 07:30:02 -1.8 C 3.08 g/m*3 -1.8 C 0 km/h
1024 07-03-2005 07:40:02 -1.8 C 3.08 g/m*3 -1.8 C 0 km/h
1025 07-03-2005 07:50:02 -1.7 C 3.1 g/m*3 -1.7 C 0 km/h
Sensor: Nr:Datum:Temp:Abs-Feuchte:Windchill:Wind:
Aussen-T/F 1026 07-03-2005 08:00:02 -1.6 C 3.08 g/m*3 -1.6 C 0 km/h
1027 07-03-2005 08:10:02 -1.5 C 3.1 g/m*3 -1.5 C 0 km/h
1028 07-03-2005 08:20:02 -1.3 C 3.14 g/m*3 -1.3 C 0 km/h
1029 07-03-2005 08:30:03 -1.1 C 3.14 g/m*3 -1.1 C 0 km/h
1030 07-03-2005 08:40:01 -1.1 C 3.14 g/m*3 -1.1 C 0 km/h
1031 07-03-2005 08:50:01 -0.9 C 3.19 g/m*3 -0.9 C 0 km/h
1032 07-03-2005 09:00:01 -0.6 C 3.21 g/m*3 -0.6 C 0 km/h
1033 07-03-2005 09:10:02 -0.5 C 3.23 g/m*3 -0.5 C 0 km/h
1034 07-03-2005 09:20:01 -0.2 C 3.25 g/m*3 -0.2 C 0 km/h
1035 07-03-2005 09:30:01 0.1 C 3.32 g/m*3 0.1 C 0 km/h
1036 07-03-2005 09:40:03 0.1 C 3.37 g/m*3 0.1 C 0 km/h
1037 07-03-2005 09:50:02 0.7 C 3.56 g/m*3 0.7 C 0 km/h
1038 07-03-2005 10:00:02 0.8 C 3.48 g/m*3 0.8 C 0 km/h
1039 07-03-2005 10:10:02 1 C 3.53 g/m*3 1 C 0 km/h
1040 07-03-2005 10:20:02 1.5 C 3.54 g/m*3 1.5 C 0 km/h
1041 07-03-2005 10:30:02 1.8 C 3.56 g/m*3 1.8 C 0 km/h
1042 07-03-2005 10:40:02 2.2 C 3.55 g/m*3 2.2 C 0 km/h
1043 07-03-2005 10:50:01 2.3 C 3.57 g/m*3 2.3 C 0 km/h
1044 07-03-2005 11:00:01 2.4 C 3.54 g/m*3 2.4 C 0 km/h
1045 07-03-2005 11:10:02 2.4 C 3.6 g/m*3 2.4 C 0 km/h
1046 07-03-2005 11:20:02 2.8 C 3.75 g/m*3 2.8 C 0 km/h
1047 07-03-2005 11:30:02 3.4 C 3.73 g/m*3 3.4 C 0 km/h
1048 07-03-2005 11:40:01 3.5 C 3.63 g/m*3 3.5 C 0 km/h
1049 07-03-2005 11:50:02 3.5 C 3.57 g/m*3 3.5 C 0 km/h
1050 07-03-2005 12:00:02 3.9 C 3.54 g/m*3 3.9 C 0 km/h
Sensor: Nr:Datum:Temp:Abs-Feuchte:Windchill:Wind:
Aussen-T/F 1051 07-03-2005 12:10:02 4 C 3.5 g/m*3 4 C 0 km/h
1052 07-03-2005 12:20:02 4 C 3.56 g/m*3 4 C 0 km/h
1053 07-03-2005 12:30:02 4 C 3.5 g/m*3 4 C 0 km/h
1054 07-03-2005 12:40:02 3.6 C 3.59 g/m*3 3.6 C 0 km/h
1055 07-03-2005 12:50:03 3.5 C 3.75 g/m*3 3.5 C 0 km/h
1056 07-03-2005 13:00:03 3.3 C 3.82 g/m*3 3.3 C 0 km/h
1057 07-03-2005 13:10:03 3.3 C 3.82 g/m*3 3.3 C 0 km/h
1058 07-03-2005 13:20:02 3.4 C 3.91 g/m*3 3.4 C 0 km/h
1059 07-03-2005 13:30:02 3.6 C 3.9 g/m*3 3.6 C 0 km/h
1060 07-03-2005 13:40:02 3.5 C 3.94 g/m*3 3.5 C 0 km/h
1061 07-03-2005 13:50:01 3.6 C 4.02 g/m*3 3.6 C 0 km/h
1062 07-03-2005 14:00:01 4 C 3.94 g/m*3 4 C 0 km/h
1063 07-03-2005 14:10:02 4.2 C 3.99 g/m*3 4.2 C 0 km/h
1064 07-03-2005 14:20:01 4.3 C 3.89 g/m*3 4.3 C 0 km/h
1065 07-03-2005 14:30:01 4.7 C 3.86 g/m*3 4.7 C 0 km/h
1066 07-03-2005 14:40:02 4.7 C 3.8 g/m*3 4.7 C 0 km/h
1067 07-03-2005 14:50:01 4.5 C 3.75 g/m*3 4.5 C 0 km/h
1068 07-03-2005 15:00:01 5.2 C 3.72 g/m*3 5.2 C 0 km/h
1069 07-03-2005 15:10:02 4.9 C 3.71 g/m*3 4.9 C 0 km/h
1070 07-03-2005 15:20:01 4.3 C 3.63 g/m*3 4.3 C 0 km/h
1071 07-03-2005 15:30:01 4.1 C 3.65 g/m*3 4.1 C 0 km/h
1072 07-03-2005 15:40:01 3.3 C 3.94 g/m*3 3.3 C 0 km/h
1073 07-03-2005 15:50:02 3 C 4.1 g/m*3 3 C 0 km/h
1074 07-03-2005 16:00:02 3.1 C 4.19 g/m*3 3.1 C 0 km/h
1075 07-03-2005 16:10:03 3.2 C 4.16 g/m*3 3.2 C 0 km/h
Sensor: Nr:Datum:Temp:Abs-Feuchte:Windchill:Wind:
Aussen-T/F 1076 07-03-2005 16:20:02 3.3 C 4.13 g/m*3 3.3 C 0 km/h
1077 07-03-2005 16:30:02 3.3 C 4.06 g/m*3 3.3 C 0 km/h
1078 07-03-2005 16:40:03 3.4 C 4.03 g/m*3 3.4 C 0 km/h
1079 07-03-2005 16:50:02 3.4 C 4.03 g/m*3 3.4 C 0 km/h
1080 07-03-2005 17:00:02 3.2 C 4.16 g/m*3 3.2 C 0 km/h
1081 07-03-2005 17:10:02 3.1 C 4.25 g/m*3 3.1 C 0 km/h
1082 07-03-2005 17:20:02 3 C 4.28 g/m*3 3 C 0 km/h
1083 07-03-2005 17:30:02 3 C 4.34 g/m*3 3 C 0 km/h
1084 07-03-2005 17:40:02 3 C 4.4 g/m*3 3 C 0 km/h
1085 07-03-2005 17:50:02 2.9 C 4.43 g/m*3 2.9 C 0 km/h
1086 07-03-2005 18:00:02 2.8 C 4.46 g/m*3 2.8 C 0 km/h
1087 07-03-2005 18:10:02 2.7 C 4.43 g/m*3 2.7 C 0 km/h
1088 07-03-2005 18:20:02 2.7 C 4.43 g/m*3 2.7 C 0 km/h
1089 07-03-2005 18:30:02 2.8 C 4.46 g/m*3 2.8 C 0 km/h
1090 07-03-2005 18:40:03 2.9 C 4.43 g/m*3 2.9 C 0 km/h
1091 07-03-2005 18:50:02 3 C 4.34 g/m*3 3 C 0 km/h
1092 07-03-2005 19:00:02 3 C 4.28 g/m*3 3 C 0 km/h
1093 07-03-2005 19:10:02 3 C 4.22 g/m*3 3 C 0 km/h
1094 07-03-2005 19:20:03 3 C 4.22 g/m*3 3 C 0 km/h
1095 07-03-2005 19:30:03 3.1 C 4.19 g/m*3 3.1 C 0 km/h
1096 07-03-2005 19:40:02 3.1 C 4.19 g/m*3 3.1 C 0 km/h
1097 07-03-2005 19:50:02 3.1 C 4.19 g/m*3 3.1 C 0 km/h
1098 07-03-2005 20:00:02 3 C 4.16 g/m*3 3 C 0 km/h
1099 07-03-2005 20:10:02 3 C 4.16 g/m*3 3 C 0 km/h
1100 07-03-2005 20:20:02 2.8 C 4.16 g/m*3 2.8 C 0 km/h
Sensor: Nr:Datum:Temp:Abs-Feuchte:Windchill:Wind:
Aussen-T/F 1101 07-03-2005 20:30:02 2.8 C 4.16 g/m*3 2.8 C 0 km/h
1102 07-03-2005 20:40:03 2.9 C 4.19 g/m*3 2.9 C 0 km/h
1103 07-03-2005 20:50:02 3 C 4.1 g/m*3 3 C 0 km/h
1104 07-03-2005 21:00:02 3.2 C 4.1 g/m*3 3.2 C 0 km/h
1105 07-03-2005 21:10:02 3.2 C 4.04 g/m*3 3.2 C 0 km/h
1106 07-03-2005 21:20:03 3.2 C 4.04 g/m*3 3.2 C 0 km/h
1107 07-03-2005 21:30:03 3.3 C 4.06 g/m*3 3.3 C 0 km/h
1108 07-03-2005 21:40:02 3.2 C 4.04 g/m*3 3.2 C 0 km/h
1109 07-03-2005 21:50:02 2.9 C 4.31 g/m*3 2.9 C 0 km/h
1110 07-03-2005 22:00:02 2.7 C 4.31 g/m*3 2.7 C 0 km/h
1111 07-03-2005 22:10:02 2.6 C 4.4 g/m*3 2.6 C 0 km/h
1112 07-03-2005 22:20:02 2.5 C 4.43 g/m*3 2.5 C 0 km/h
1113 07-03-2005 22:30:02 2.4 C 4.45 g/m*3 2.4 C 0 km/h
1114 07-03-2005 22:40:02 2.4 C 4.51 g/m*3 2.4 C 0 km/h
1115 07-03-2005 22:50:02 2.3 C 4.48 g/m*3 2.3 C 0 km/h
1116 07-03-2005 23:00:02 2.3 C 4.54 g/m*3 2.3 C 0 km/h
1117 07-03-2005 23:10:02 2.4 C 4.57 g/m*3 2.4 C 0 km/h
1118 07-03-2005 23:20:02 2.4 C 4.57 g/m*3 2.4 C 0 km/h
1119 07-03-2005 23:30:02 2.6 C 4.69 g/m*3 2.6 C 0 km/h
1120 07-03-2005 23:40:02 2.8 C 4.69 g/m*3 2.8 C 0 km/h
1121 07-03-2005 23:50:02 2.8 C 4.69 g/m*3 2.8 C 0 km/h
1122 08-03-2005 00:00:02 3 C 4.64 g/m*3 3 C 0 km/h
1123 08-03-2005 00:10:03 3 C 4.64 g/m*3 3 C 0 km/h
1124 08-03-2005 00:20:03 3 C 4.64 g/m*3 3 C 0 km/h
1125 08-03-2005 00:30:03 3.1 C 4.61 g/m*3 3.1 C 0 km/h
Sensor: Nr:Datum:Temp:Abs-Feuchte:Windchill:Wind:
Aussen-T/F 1126 08-03-2005 00:40:03 3.1 C 4.61 g/m*3 3.1 C 0 km/h
1127 08-03-2005 00:50:02 3.1 C 4.61 g/m*3 3.1 C 0 km/h
1128 08-03-2005 01:00:02 3.2 C 4.64 g/m*3 3.2 C 0 km/h
1129 08-03-2005 01:10:02 3.2 C 4.7 g/m*3 3.2 C 0 km/h
1130 08-03-2005 01:20:02 3.2 C 4.64 g/m*3 3.2 C 0 km/h
1131 08-03-2005 01:30:02 3.3 C 4.67 g/m*3 3.3 C 0 km/h
1132 08-03-2005 01:40:03 3.3 C 4.67 g/m*3 3.3 C 0 km/h
1133 08-03-2005 01:50:02 3.2 C 4.64 g/m*3 3.2 C 0 km/h
1134 08-03-2005 02:00:02 3.2 C 4.7 g/m*3 3.2 C 0 km/h
1135 08-03-2005 02:10:02 3.1 C 4.67 g/m*3 3.1 C 0 km/h
1136 08-03-2005 02:20:02 2.9 C 4.67 g/m*3 2.9 C 0 km/h
1137 08-03-2005 02:30:02 2.7 C 4.66 g/m*3 2.7 C 0 km/h
1138 08-03-2005 02:40:03 2.6 C 4.69 g/m*3 2.6 C 0 km/h
1139 08-03-2005 02:51:04 2.6 C 4.8 g/m*3 2.6 C 0 km/h
1140 08-03-2005 03:01:04 2.6 C 4.8 g/m*3 2.6 C 0 km/h
1141 08-03-2005 03:11:04 2.7 C 4.84 g/m*3 2.7 C 0 km/h
1142 08-03-2005 03:21:04 2.7 C 4.89 g/m*3 2.7 C 0 km/h
1143 08-03-2005 03:31:03 2.8 C 4.87 g/m*3 2.8 C 0 km/h
1144 08-03-2005 03:41:03 3 C 4.88 g/m*3 3 C 0 km/h
1145 08-03-2005 03:51:03 3 C 4.82 g/m*3 3 C 0 km/h
1146 08-03-2005 04:01:02 3 C 4.76 g/m*3 3 C 0 km/h
1147 08-03-2005 04:11:02 2.8 C 4.75 g/m*3 2.8 C 0 km/h
1148 08-03-2005 04:21:03 2.7 C 4.72 g/m*3 2.7 C 0 km/h
1149 08-03-2005 04:31:03 2.7 C 4.78 g/m*3 2.7 C 0 km/h
1150 08-03-2005 04:41:03 2.6 C 4.8 g/m*3 2.6 C 0 km/h
Sensor: Nr:Datum:Temp:Abs-Feuchte:Windchill:Wind:
Aussen-T/F 1151 08-03-2005 04:51:03 2.5 C 4.77 g/m*3 2.5 C 0 km/h
1152 08-03-2005 05:01:03 2.6 C 4.86 g/m*3 2.6 C 0 km/h
1153 08-03-2005 05:11:03 2.7 C 4.89 g/m*3 2.7 C 0 km/h
1154 08-03-2005 05:21:03 2.8 C 4.93 g/m*3 2.8 C 0 km/h
1155 08-03-2005 05:31:02 2.8 C 4.93 g/m*3 2.8 C 0 km/h
1156 08-03-2005 05:41:02 2.8 C 4.87 g/m*3 2.8 C 0 km/h
1157 08-03-2005 05:51:03 2.7 C 4.84 g/m*3 2.7 C 0 km/h
1158 08-03-2005 06:01:02 2.8 C 4.87 g/m*3 2.8 C 0 km/h
1159 08-03-2005 06:11:02 2.8 C 4.93 g/m*3 2.8 C 0 km/h
1160 08-03-2005 06:21:02 2.9 C 4.9 g/m*3 2.9 C 0 km/h
1161 08-03-2005 06:31:02 3 C 4.88 g/m*3 3 C 0 km/h
1162 08-03-2005 06:41:02 3 C 4.82 g/m*3 3 C 0 km/h
1163 08-03-2005 06:51:01 3.1 C 4.79 g/m*3 3.1 C 0 km/h
1164 08-03-2005 07:01:02 3.1 C 4.79 g/m*3 3.1 C 0 km/h
1165 08-03-2005 07:11:02 3.1 C 4.79 g/m*3 3.1 C 0 km/h
1166 08-03-2005 07:21:02 3.1 C 4.79 g/m*3 3.1 C 0 km/h
1167 08-03-2005 07:31:01 3.2 C 4.76 g/m*3 3.2 C 0 km/h
1168 08-03-2005 07:41:01 3.2 C 4.76 g/m*3 3.2 C 0 km/h
1169 08-03-2005 07:51:01 3.3 C 4.79 g/m*3 3.3 C 0 km/h
1170 08-03-2005 08:01:02 3.3 C 4.79 g/m*3 3.3 C 0 km/h
1171 08-03-2005 08:11:02 3.4 C 4.76 g/m*3 3.4 C 0 km/h
1172 08-03-2005 08:21:01 3.4 C 4.76 g/m*3 3.4 C 0 km/h
1173 08-03-2005 08:31:02 3.5 C 4.8 g/m*3 3.5 C 0 km/h
1174 08-03-2005 08:41:02 3.4 C 4.76 g/m*3 3.4 C 0 km/h
1175 08-03-2005 08:51:01 3.3 C 4.73 g/m*3 3.3 C 0 km/h
Sensor: Nr:Datum:Temp:Abs-Feuchte:Windchill:Wind:
Aussen-T/F 1176 08-03-2005 09:01:01 3.2 C 4.76 g/m*3 3.2 C 0 km/h
1177 08-03-2005 09:11:02 3.2 C 4.88 g/m*3 3.2 C 0 km/h
1178 08-03-2005 09:21:01 3.2 C 4.88 g/m*3 3.2 C 0 km/h
1179 08-03-2005 09:31:01 3.3 C 4.97 g/m*3 3.3 C 0 km/h
1180 08-03-2005 09:41:01 3.3 C 4.97 g/m*3 3.3 C 0 km/h
1181 08-03-2005 09:51:01 3.4 C 5.01 g/m*3 3.4 C 0 km/h
1182 08-03-2005 10:01:01 3.4 C 4.95 g/m*3 3.4 C 0 km/h
1183 08-03-2005 10:11:01 3.3 C 4.91 g/m*3 3.3 C 0 km/h
1184 08-03-2005 10:21:01 3.2 C 4.88 g/m*3 3.2 C 0 km/h
1185 08-03-2005 10:31:02 3.3 C 4.97 g/m*3 3.3 C 0 km/h
1186 08-03-2005 10:41:02 3.6 C 5.14 g/m*3 3.6 C 0 km/h
1187 08-03-2005 10:51:02 4.1 C 5.12 g/m*3 4.1 C 0 km/h
1188 08-03-2005 11:01:02 4.3 C 5.06 g/m*3 4.3 C 0 km/h
1189 08-03-2005 11:11:02 4.6 C 5.16 g/m*3 4.6 C 0 km/h
1190 08-03-2005 11:21:02 4.7 C 5.06 g/m*3 4.7 C 0 km/h
1191 08-03-2005 11:31:01 4.5 C 4.93 g/m*3 4.5 C 0 km/h
1192 08-03-2005 11:41:01 4.6 C 4.83 g/m*3 4.6 C 0 km/h
1193 08-03-2005 11:51:02 4.7 C 4.8 g/m*3 4.7 C 0 km/h
1194 08-03-2005 12:01:02 5 C 4.82 g/m*3 5 C 0 km/h
1195 08-03-2005 12:11:02 5.1 C 4.72 g/m*3 5.1 C 0 km/h
1196 08-03-2005 12:21:02 5.3 C 4.78 g/m*3 5.3 C 0 km/h
1197 08-03-2005 12:31:01 5.2 C 4.68 g/m*3 5.2 C 0 km/h
1198 08-03-2005 12:41:01 5.1 C 4.58 g/m*3 5.1 C 0 km/h
1199 08-03-2005 12:51:02 5.1 C 4.58 g/m*3 5.1 C 0 km/h
1200 08-03-2005 13:01:02 5.4 C 4.54 g/m*3 5.4 C 0 km/h
Sensor: Nr:Datum:Temp:Abs-Feuchte:Windchill:Wind:
Aussen-T/F 1201 08-03-2005 13:11:02 5.5 C 4.57 g/m*3 5.5 C 0 km/h
1202 08-03-2005 13:21:02 5.4 C 4.47 g/m*3 5.4 C 0 km/h
1203 08-03-2005 13:31:02 5.5 C 4.49 g/m*3 5.5 C 0 km/h
1204 08-03-2005 13:41:02 5.2 C 4.61 g/m*3 5.2 C 0 km/h
1205 08-03-2005 13:51:03 5.1 C 4.58 g/m*3 5.1 C 0 km/h
1206 08-03-2005 14:01:03 5.1 C 4.72 g/m*3 5.1 C 0 km/h
1207 08-03-2005 14:11:03 4.8 C 4.83 g/m*3 4.8 C 0 km/h
1208 08-03-2005 14:21:02 5 C 4.76 g/m*3 5 C 0 km/h
1209 08-03-2005 14:31:03 5.2 C 4.75 g/m*3 5.2 C 0 km/h
1210 08-03-2005 14:41:03 5.3 C 4.78 g/m*3 5.3 C 0 km/h
1211 08-03-2005 14:51:02 5.3 C 4.57 g/m*3 5.3 C 0 km/h
1212 08-03-2005 15:01:03 5.2 C 4.41 g/m*3 5.2 C 0 km/h
1213 08-03-2005 15:11:03 5.1 C 4.45 g/m*3 5.1 C 0 km/h
1214 08-03-2005 15:21:02 5 C 4.42 g/m*3 5 C 0 km/h
1215 08-03-2005 15:31:02 5.1 C 4.58 g/m*3 5.1 C 0 km/h
1216 08-03-2005 15:41:02 5.1 C 4.58 g/m*3 5.1 C 0 km/h
1217 08-03-2005 15:51:01 4.9 C 4.73 g/m*3 4.9 C 0 km/h
1218 08-03-2005 16:01:02 4.9 C 4.59 g/m*3 4.9 C 0 km/h
1219 08-03-2005 16:11:02 5 C 4.48 g/m*3 5 C 0 km/h
1220 08-03-2005 16:21:02 5 C 4.55 g/m*3 5 C 0 km/h
1221 08-03-2005 16:31:01 4.8 C 4.63 g/m*3 4.8 C 0 km/h
1222 08-03-2005 16:41:01 4.7 C 4.66 g/m*3 4.7 C 0 km/h
1223 08-03-2005 16:51:02 4.7 C 4.66 g/m*3 4.7 C 0 km/h
1224 08-03-2005 17:01:02 4.6 C 4.7 g/m*3 4.6 C 0 km/h
1225 08-03-2005 17:11:02 4.6 C 4.7 g/m*3 4.6 C 0 km/h
Sensor: Nr:Datum:Temp:Abs-Feuchte:Windchill:Wind:
Aussen-T/F 1226 08-03-2005 17:21:01 4.7 C 4.73 g/m*3 4.7 C 0 km/h
1227 08-03-2005 17:31:01 4.7 C 4.66 g/m*3 4.7 C 0 km/h
1228 08-03-2005 17:41:01 4.7 C 4.6 g/m*3 4.7 C 0 km/h
1229 08-03-2005 17:51:01 4.7 C 4.6 g/m*3 4.7 C 0 km/h
1230 08-03-2005 18:01:01 4.7 C 4.53 g/m*3 4.7 C 0 km/h
1231 08-03-2005 18:11:01 4.7 C 4.6 g/m*3 4.7 C 0 km/h
1232 08-03-2005 18:21:01 4.7 C 4.6 g/m*3 4.7 C 0 km/h
1233 08-03-2005 18:31:02 4.5 C 4.54 g/m*3 4.5 C 0 km/h
1234 08-03-2005 18:41:02 4.5 C 4.54 g/m*3 4.5 C 0 km/h
1235 08-03-2005 18:51:01 4.5 C 4.47 g/m*3 4.5 C 0 km/h
1236 08-03-2005 19:01:02 4.6 C 4.43 g/m*3 4.6 C 0 km/h
1237 08-03-2005 19:11:02 4.7 C 4.4 g/m*3 4.7 C 0 km/h
1238 08-03-2005 19:21:02 4.7 C 4.4 g/m*3 4.7 C 0 km/h
1239 08-03-2005 19:31:01 4.8 C 4.43 g/m*3 4.8 C 0 km/h
1240 08-03-2005 19:41:01 4.9 C 4.39 g/m*3 4.9 C 0 km/h
1241 08-03-2005 19:51:02 4.8 C 4.36 g/m*3 4.8 C 0 km/h
1242 08-03-2005 20:01:02 4.8 C 4.36 g/m*3 4.8 C 0 km/h
1243 08-03-2005 20:11:02 4.8 C 4.36 g/m*3 4.8 C 0 km/h
1244 08-03-2005 20:21:02 4.8 C 4.36 g/m*3 4.8 C 0 km/h
1245 08-03-2005 20:31:02 4.8 C 4.36 g/m*3 4.8 C 0 km/h
1246 08-03-2005 20:41:02 4.8 C 4.43 g/m*3 4.8 C 0 km/h
1247 08-03-2005 20:51:01 4.8 C 4.43 g/m*3 4.8 C 0 km/h
1248 08-03-2005 21:01:02 4.7 C 4.53 g/m*3 4.7 C 0 km/h
1249 08-03-2005 21:11:02 4.2 C 4.7 g/m*3 4.2 C 0 km/h
1250 08-03-2005 21:21:02 4.1 C 4.74 g/m*3 4.1 C 0 km/h
Sensor: Nr:Datum:Temp:Abs-Feuchte:Windchill:Wind:
Aussen-T/F 1251 08-03-2005 21:31:02 3.8 C 4.71 g/m*3 3.8 C 0 km/h
1252 08-03-2005 21:41:02 3.7 C 4.67 g/m*3 3.7 C 0 km/h
1253 08-03-2005 21:51:01 3.7 C 4.67 g/m*3 3.7 C 0 km/h
1254 08-03-2005 22:01:02 3.7 C 4.61 g/m*3 3.7 C 0 km/h
1255 08-03-2005 22:11:02 3.7 C 4.61 g/m*3 3.7 C 0 km/h
1256 08-03-2005 22:21:02 3.6 C 4.64 g/m*3 3.6 C 0 km/h
1257 08-03-2005 22:31:02 3.5 C 4.67 g/m*3 3.5 C 0 km/h
1258 08-03-2005 22:41:02 3.6 C 4.64 g/m*3 3.6 C 0 km/h
1259 08-03-2005 22:51:02 3.8 C 4.58 g/m*3 3.8 C 0 km/h
1260 08-03-2005 23:01:02 3.9 C 4.55 g/m*3 3.9 C 0 km/h
1261 08-03-2005 23:11:02 3.8 C 4.52 g/m*3 3.8 C 0 km/h
1262 08-03-2005 23:21:02 3.8 C 4.58 g/m*3 3.8 C 0 km/h
1263 08-03-2005 23:31:02 3.6 C 4.64 g/m*3 3.6 C 0 km/h
1264 08-03-2005 23:41:02 3.5 C 4.73 g/m*3 3.5 C 0 km/h
1265 08-03-2005 23:51:02 3.4 C 4.76 g/m*3 3.4 C 0 km/h
1266 09-03-2005 00:01:02 3.3 C 4.79 g/m*3 3.3 C 0 km/h
1267 09-03-2005 00:11:02 3.3 C 4.85 g/m*3 3.3 C 0 km/h
1268 09-03-2005 00:21:04 3.2 C 4.88 g/m*3 3.2 C 0 km/h
1269 09-03-2005 00:31:02 3.2 C 4.94 g/m*3 3.2 C 0 km/h
1270 09-03-2005 00:41:03 3.2 C 5 g/m*3 3.2 C 0 km/h
1271 09-03-2005 00:51:02 3.2 C 5 g/m*3 3.2 C 0 km/h
1272 09-03-2005 01:01:01 3.2 C 5 g/m*3 3.2 C 0 km/h
1273 09-03-2005 01:11:01 3.2 C 5 g/m*3 3.2 C 0 km/h
1274 09-03-2005 01:21:01 3.2 C 4.94 g/m*3 3.2 C 0 km/h
1275 09-03-2005 01:31:01 3.2 C 4.94 g/m*3 3.2 C 0 km/h
Sensor: Nr:Datum:Temp:Abs-Feuchte:Windchill:Wind:
Aussen-T/F 1276 09-03-2005 01:41:01 3.3 C 4.97 g/m*3 3.3 C 0 km/h
1277 09-03-2005 01:51:03 3.1 C 4.91 g/m*3 3.1 C 0 km/h
1278 09-03-2005 02:01:03 3.1 C 4.91 g/m*3 3.1 C 0 km/h
1279 09-03-2005 02:11:03 3.1 C 4.97 g/m*3 3.1 C 0 km/h
1280 09-03-2005 02:21:02 3.2 C 5.06 g/m*3 3.2 C 0 km/h
1281 09-03-2005 02:31:03 3.2 C 5.06 g/m*3 3.2 C 0 km/h
1282 09-03-2005 02:41:03 3.2 C 5 g/m*3 3.2 C 0 km/h
1283 09-03-2005 02:52:03 3.2 C 5 g/m*3 3.2 C 0 km/h
1284 09-03-2005 03:02:04 3.2 C 4.94 g/m*3 3.2 C 0 km/h
1285 09-03-2005 03:12:04 3.3 C 4.91 g/m*3 3.3 C 0 km/h
1286 09-03-2005 03:22:05 3.3 C 4.85 g/m*3 3.3 C 0 km/h
1287 09-03-2005 03:32:02 3.2 C 4.76 g/m*3 3.2 C 0 km/h
1288 09-03-2005 03:42:02 3.2 C 4.76 g/m*3 3.2 C 0 km/h
1289 09-03-2005 03:52:02 3.1 C 4.73 g/m*3 3.1 C 0 km/h
1290 09-03-2005 04:02:02 3.3 C 4.61 g/m*3 3.3 C 0 km/h
1291 09-03-2005 04:12:02 3.3 C 4.49 g/m*3 3.3 C 0 km/h
1292 09-03-2005 04:22:02 3.4 C 4.52 g/m*3 3.4 C 0 km/h
1293 09-03-2005 04:32:02 3.3 C 4.49 g/m*3 3.3 C 0 km/h
1294 09-03-2005 04:42:02 3.3 C 4.55 g/m*3 3.3 C 0 km/h
1295 09-03-2005 04:52:02 3.4 C 4.52 g/m*3 3.4 C 0 km/h
1296 09-03-2005 05:02:02 3.3 C 4.55 g/m*3 3.3 C 0 km/h
1297 09-03-2005 05:12:02 3.2 C 4.58 g/m*3 3.2 C 0 km/h
1298 09-03-2005 05:22:03 3.2 C 4.58 g/m*3 3.2 C 0 km/h
1299 09-03-2005 05:32:02 3.1 C 4.61 g/m*3 3.1 C 0 km/h
1300 09-03-2005 05:42:02 3 C 4.64 g/m*3 3 C 0 km/h
Sensor: Nr:Datum:Temp:Abs-Feuchte:Windchill:Wind:
Aussen-T/F 1301 09-03-2005 05:52:02 2.9 C 4.72 g/m*3 2.9 C 0 km/h
1302 09-03-2005 06:02:02 2.8 C 4.75 g/m*3 2.8 C 0 km/h
1303 09-03-2005 06:12:03 2.8 C 4.81 g/m*3 2.8 C 0 km/h
1304 09-03-2005 06:22:02 2.7 C 4.78 g/m*3 2.7 C 0 km/h
1305 09-03-2005 06:32:02 2.7 C 4.78 g/m*3 2.7 C 0 km/h
1306 09-03-2005 06:42:02 2.7 C 4.84 g/m*3 2.7 C 0 km/h
1307 09-03-2005 06:52:02 2.8 C 4.87 g/m*3 2.8 C 0 km/h
1308 09-03-2005 07:02:03 2.8 C 4.87 g/m*3 2.8 C 0 km/h
1309 09-03-2005 07:12:03 2.8 C 4.93 g/m*3 2.8 C 0 km/h
1310 09-03-2005 07:22:02 2.9 C 4.96 g/m*3 2.9 C 0 km/h
1311 09-03-2005 07:32:02 2.9 C 4.96 g/m*3 2.9 C 0 km/h
1312 09-03-2005 07:42:03 2.9 C 4.96 g/m*3 2.9 C 0 km/h
1313 09-03-2005 07:52:02 3 C 4.93 g/m*3 3 C 0 km/h
1314 09-03-2005 08:02:02 3 C 4.93 g/m*3 3 C 0 km/h
1315 09-03-2005 08:12:02 3.2 C 4.94 g/m*3 3.2 C 0 km/h
1316 09-03-2005 08:22:02 3.4 C 5.01 g/m*3 3.4 C 0 km/h
1317 09-03-2005 08:32:01 3.6 C 5.01 g/m*3 3.6 C 0 km/h
1318 09-03-2005 08:42:01 3.7 C 4.92 g/m*3 3.7 C 0 km/h
1319 09-03-2005 08:52:02 3.8 C 4.89 g/m*3 3.8 C 0 km/h
1320 09-03-2005 09:02:02 3.8 C 4.77 g/m*3 3.8 C 0 km/h
1321 09-03-2005 09:12:02 3.9 C 4.74 g/m*3 3.9 C 0 km/h
1322 09-03-2005 09:22:02 3.9 C 4.74 g/m*3 3.9 C 0 km/h
1323 09-03-2005 09:32:02 3.8 C 4.83 g/m*3 3.8 C 0 km/h
1324 09-03-2005 09:42:02 3.7 C 4.86 g/m*3 3.7 C 0 km/h
1325 09-03-2005 09:52:02 3.8 C 4.89 g/m*3 3.8 C 0 km/h
Sensor: Nr:Datum:Temp:Abs-Feuchte:Windchill:Wind:
Aussen-T/F 1326 09-03-2005 10:02:03 4 C 4.77 g/m*3 4 C 0 km/h
1327 09-03-2005 10:12:03 4.1 C 4.8 g/m*3 4.1 C 0 km/h
1328 09-03-2005 10:22:03 3.8 C 4.83 g/m*3 3.8 C 0 km/h
1329 09-03-2005 10:32:02 3.8 C 4.83 g/m*3 3.8 C 0 km/h
1330 09-03-2005 10:42:02 4.2 C 4.96 g/m*3 4.2 C 0 km/h
1331 09-03-2005 10:52:02 4.1 C 4.86 g/m*3 4.1 C 0 km/h
1332 09-03-2005 11:02:02 4 C 4.9 g/m*3 4 C 0 km/h
1333 09-03-2005 11:12:02 3.8 C 4.96 g/m*3 3.8 C 0 km/h
1334 09-03-2005 11:22:02 3.9 C 5.05 g/m*3 3.9 C 0 km/h
1335 09-03-2005 11:32:01 4.1 C 5.12 g/m*3 4.1 C 0 km/h
1336 09-03-2005 11:42:01 4.1 C 5.12 g/m*3 4.1 C 0 km/h
1337 09-03-2005 11:52:02 4.2 C 5.09 g/m*3 4.2 C 0 km/h
1338 09-03-2005 12:02:02 4 C 4.96 g/m*3 4 C 0 km/h
1339 09-03-2005 12:12:02 4 C 5.02 g/m*3 4 C 0 km/h
1340 09-03-2005 12:22:02 4.2 C 5.03 g/m*3 4.2 C 0 km/h
1341 09-03-2005 12:32:02 4.4 C 5.03 g/m*3 4.4 C 0 km/h
1342 09-03-2005 12:42:02 5.1 C 5.06 g/m*3 5.1 C 0 km/h
1343 09-03-2005 12:52:02 5.4 C 5.02 g/m*3 5.4 C 0 km/h
1344 09-03-2005 13:02:03 5.9 C 5.05 g/m*3 5.9 C 0 km/h
1345 09-03-2005 13:12:03 6.1 C 4.89 g/m*3 6.1 C 0 km/h
1346 09-03-2005 13:22:02 6.1 C 4.82 g/m*3 6.1 C 0 km/h
1347 09-03-2005 13:32:02 5.5 C 4.64 g/m*3 5.5 C 0 km/h
1348 09-03-2005 13:42:02 5.1 C 4.86 g/m*3 5.1 C 0 km/h
1349 09-03-2005 13:52:01 5.1 C 4.92 g/m*3 5.1 C 0 km/h
1350 09-03-2005 14:02:02 5.1 C 4.99 g/m*3 5.1 C 0 km/h
Sensor: Nr:Datum:Temp:Abs-Feuchte:Windchill:Wind:
Aussen-T/F 1351 09-03-2005 14:12:02 4.9 C 4.93 g/m*3 4.9 C 0 km/h
1352 09-03-2005 14:22:02 4.7 C 5 g/m*3 4.7 C 0 km/h
1353 09-03-2005 14:32:02 4.5 C 4.93 g/m*3 4.5 C 0 km/h
1354 09-03-2005 14:42:02 4.4 C 4.9 g/m*3 4.4 C 0 km/h
1355 09-03-2005 14:52:02 4.4 C 4.9 g/m*3 4.4 C 0 km/h
1356 09-03-2005 15:02:03 4.6 C 4.96 g/m*3 4.6 C 0 km/h
1357 09-03-2005 15:12:03 5 C 4.89 g/m*3 5 C 0 km/h
1358 09-03-2005 15:22:03 5.2 C 4.89 g/m*3 5.2 C 0 km/h
1359 09-03-2005 15:32:03 5.1 C 4.86 g/m*3 5.1 C 0 km/h
1360 09-03-2005 15:42:03 5.1 C 4.86 g/m*3 5.1 C 0 km/h
1361 09-03-2005 15:52:02 5.2 C 4.82 g/m*3 5.2 C 0 km/h
1362 09-03-2005 16:02:02 5.3 C 4.85 g/m*3 5.3 C 0 km/h
1363 09-03-2005 16:12:02 5.2 C 4.82 g/m*3 5.2 C 0 km/h
1364 09-03-2005 16:22:02 5.1 C 4.79 g/m*3 5.1 C 0 km/h
1365 09-03-2005 16:32:02 5 C 4.82 g/m*3 5 C 0 km/h
1366 09-03-2005 16:42:02 4.8 C 4.83 g/m*3 4.8 C 0 km/h
1367 09-03-2005 16:52:01 4.5 C 4.86 g/m*3 4.5 C 0 km/h
1368 09-03-2005 17:02:02 4.2 C 5.03 g/m*3 4.2 C 0 km/h
1369 09-03-2005 17:12:02 4.2 C 5.09 g/m*3 4.2 C 0 km/h
1370 09-03-2005 17:22:02 4.2 C 5.15 g/m*3 4.2 C 0 km/h
1371 09-03-2005 17:32:01 4.2 C 5.15 g/m*3 4.2 C 0 km/h
1372 09-03-2005 17:42:01 4.2 C 5.22 g/m*3 4.2 C 0 km/h
1373 09-03-2005 17:52:01 4.1 C 5.18 g/m*3 4.1 C 0 km/h
1374 09-03-2005 18:02:01 4.1 C 5.18 g/m*3 4.1 C 0 km/h
1375 09-03-2005 18:12:01 4.2 C 5.22 g/m*3 4.2 C 0 km/h
Sensor: Nr:Datum:Temp:Abs-Feuchte:Windchill:Wind:
Aussen-T/F 1376 09-03-2005 18:22:01 4.2 C 5.22 g/m*3 4.2 C 0 km/h
1377 09-03-2005 18:32:01 4.2 C 5.15 g/m*3 4.2 C 0 km/h
1378 09-03-2005 18:42:01 4.2 C 5.09 g/m*3 4.2 C 0 km/h
1379 09-03-2005 18:52:03 4.2 C 5.03 g/m*3 4.2 C 0 km/h
1380 09-03-2005 19:02:03 4.2 C 4.96 g/m*3 4.2 C 0 km/h
1381 09-03-2005 19:12:03 4.2 C 4.96 g/m*3 4.2 C 0 km/h
1382 09-03-2005 19:22:02 4.2 C 4.9 g/m*3 4.2 C 0 km/h
1383 09-03-2005 19:32:02 4.2 C 4.9 g/m*3 4.2 C 0 km/h
1384 09-03-2005 19:42:02 4.1 C 4.93 g/m*3 4.1 C 0 km/h
1385 09-03-2005 19:52:02 4 C 4.9 g/m*3 4 C 0 km/h
1386 09-03-2005 20:02:03 3.9 C 4.99 g/m*3 3.9 C 0 km/h
1387 09-03-2005 20:12:03 4 C 4.96 g/m*3 4 C 0 km/h
1388 09-03-2005 20:22:02 4 C 4.96 g/m*3 4 C 0 km/h
1389 09-03-2005 20:32:02 4 C 4.96 g/m*3 4 C 0 km/h
1390 09-03-2005 20:42:02 4 C 4.96 g/m*3 4 C 0 km/h
1391 09-03-2005 20:52:02 4 C 4.96 g/m*3 4 C 0 km/h
1392 09-03-2005 21:02:02 3.8 C 4.96 g/m*3 3.8 C 0 km/h
1393 09-03-2005 21:12:02 3.8 C 4.96 g/m*3 3.8 C 0 km/h
1394 09-03-2005 21:22:01 3.5 C 4.86 g/m*3 3.5 C 0 km/h
1395 09-03-2005 21:32:02 3.3 C 4.79 g/m*3 3.3 C 0 km/h
1396 09-03-2005 21:42:03 3.1 C 4.79 g/m*3 3.1 C 0 km/h
1397 09-03-2005 21:52:02 2.9 C 4.84 g/m*3 2.9 C 0 km/h
1398 09-03-2005 22:02:01 2.8 C 4.87 g/m*3 2.8 C 0 km/h
1399 09-03-2005 22:12:01 3 C 4.93 g/m*3 3 C 0 km/h
1400 09-03-2005 22:22:02 2.9 C 4.96 g/m*3 2.9 C 0 km/h
Sensor: Nr:Datum:Temp:Abs-Feuchte:Windchill:Wind:
Aussen-T/F 1401 09-03-2005 22:32:02 2.9 C 4.96 g/m*3 2.9 C 0 km/h
1402 09-03-2005 22:42:02 3 C 4.99 g/m*3 3 C 0 km/h
1403 09-03-2005 22:52:02 3 C 4.99 g/m*3 3 C 0 km/h
1404 09-03-2005 23:02:02 2.9 C 4.96 g/m*3 2.9 C 0 km/h
1405 09-03-2005 23:12:02 2.8 C 4.93 g/m*3 2.8 C 0 km/h
1406 09-03-2005 23:22:02 2.8 C 4.99 g/m*3 2.8 C 0 km/h
1407 09-03-2005 23:32:02 2.7 C 4.95 g/m*3 2.7 C 0 km/h
1408 09-03-2005 23:42:02 2.8 C 4.99 g/m*3 2.8 C 0 km/h
1409 09-03-2005 23:52:02 2.8 C 4.99 g/m*3 2.8 C 0 km/h
1410 10-03-2005 00:02:02 2.8 C 4.99 g/m*3 2.8 C 0 km/h
1411 10-03-2005 00:12:02 2.8 C 4.99 g/m*3 2.8 C 0 km/h
1412 10-03-2005 00:22:04 2.9 C 5.02 g/m*3 2.9 C 0 km/h
1413 10-03-2005 00:32:02 2.9 C 4.96 g/m*3 2.9 C 0 km/h
1414 10-03-2005 00:42:02 2.8 C 4.93 g/m*3 2.8 C 0 km/h
1415 10-03-2005 00:52:02 2.9 C 4.96 g/m*3 2.9 C 0 km/h
1416 10-03-2005 01:02:02 2.9 C 4.96 g/m*3 2.9 C 0 km/h
1417 10-03-2005 01:12:02 3 C 4.93 g/m*3 3 C 0 km/h
1418 10-03-2005 01:22:02 3 C 4.93 g/m*3 3 C 0 km/h
1419 10-03-2005 01:32:02 3 C 4.93 g/m*3 3 C 0 km/h
1420 10-03-2005 01:42:02 3.1 C 4.91 g/m*3 3.1 C 0 km/h
1421 10-03-2005 01:52:02 3.2 C 4.88 g/m*3 3.2 C 0 km/h
1422 10-03-2005 02:02:02 3.1 C 4.79 g/m*3 3.1 C 0 km/h
1423 10-03-2005 02:12:02 3.1 C 4.79 g/m*3 3.1 C 0 km/h
1424 10-03-2005 02:22:02 3.1 C 4.79 g/m*3 3.1 C 0 km/h
1425 10-03-2005 02:32:02 3.1 C 4.73 g/m*3 3.1 C 0 km/h
Sensor: Nr:Datum:Temp:Abs-Feuchte:Windchill:Wind:
Aussen-T/F 1426 10-03-2005 02:42:02 3 C 4.7 g/m*3 3 C 0 km/h
1427 10-03-2005 02:53:03 2.8 C 4.63 g/m*3 2.8 C 0 km/h
1428 10-03-2005 03:03:03 2.7 C 4.66 g/m*3 2.7 C 0 km/h
1429 10-03-2005 03:13:03 2.8 C 4.69 g/m*3 2.8 C 0 km/h
1430 10-03-2005 03:23:03 2.7 C 4.6 g/m*3 2.7 C 0 km/h
1431 10-03-2005 03:33:03 2.5 C 4.6 g/m*3 2.5 C 0 km/h
1432 10-03-2005 03:43:03 2 C 4.45 g/m*3 2 C 0 km/h
1433 10-03-2005 03:53:03 1.7 C 4.46 g/m*3 1.7 C 0 km/h
1434 10-03-2005 04:03:03 1.4 C 4.37 g/m*3 1.4 C 0 km/h
1435 10-03-2005 04:13:03 1.3 C 4.4 g/m*3 1.3 C 0 km/h
1436 10-03-2005 04:23:03 1.4 C 4.48 g/m*3 1.4 C 0 km/h
1437 10-03-2005 04:33:02 1.4 C 4.48 g/m*3 1.4 C 0 km/h
1438 10-03-2005 04:43:02 1.4 C 4.53 g/m*3 1.4 C 0 km/h
1439 10-03-2005 04:53:03 1.4 C 4.53 g/m*3 1.4 C 0 km/h
1440 10-03-2005 05:03:02 1.3 C 4.45 g/m*3 1.3 C 0 km/h
1441 10-03-2005 05:13:02 1.2 C 4.42 g/m*3 1.2 C 0 km/h
1442 10-03-2005 05:23:02 1.1 C 4.39 g/m*3 1.1 C 0 km/h
1443 10-03-2005 05:33:02 1.1 C 4.39 g/m*3 1.1 C 0 km/h
1444 10-03-2005 05:43:02 1.1 C 4.44 g/m*3 1.1 C 0 km/h
1445 10-03-2005 05:53:02 0.7 C 4.32 g/m*3 0.7 C 0 km/h
1446 10-03-2005 06:03:02 0.6 C 4.29 g/m*3 0.6 C 0 km/h
1447 10-03-2005 06:13:02 0.5 C 4.26 g/m*3 0.5 C 0 km/h
1448 10-03-2005 06:23:02 0.5 C 4.26 g/m*3 0.5 C 0 km/h
1449 10-03-2005 06:33:02 0.9 C 4.43 g/m*3 0.9 C 0 km/h
1450 10-03-2005 06:43:02 1.1 C 4.49 g/m*3 1.1 C 0 km/h
Sensor: Nr:Datum:Temp:Abs-Feuchte:Windchill:Wind:
Aussen-T/F 1451 10-03-2005 06:53:02 1.2 C 4.53 g/m*3 1.2 C 0 km/h
1452 10-03-2005 07:03:03 1.2 C 4.53 g/m*3 1.2 C 0 km/h
1453 10-03-2005 07:13:03 1.1 C 4.49 g/m*3 1.1 C 0 km/h
1454 10-03-2005 07:23:02 1.1 C 4.44 g/m*3 1.1 C 0 km/h
1455 10-03-2005 07:33:02 1.2 C 4.47 g/m*3 1.2 C 0 km/h
1456 10-03-2005 07:43:02 1.3 C 4.5 g/m*3 1.3 C 0 km/h
1457 10-03-2005 07:53:03 1.3 C 4.45 g/m*3 1.3 C 0 km/h
1458 10-03-2005 08:03:02 1.4 C 4.43 g/m*3 1.4 C 0 km/h
1459 10-03-2005 08:13:02 1.3 C 4.29 g/m*3 1.3 C 0 km/h
1460 10-03-2005 08:23:02 1.2 C 4.21 g/m*3 1.2 C 0 km/h
1461 10-03-2005 08:33:02 1.3 C 4.19 g/m*3 1.3 C 0 km/h
1462 10-03-2005 08:43:02 1.4 C 4.21 g/m*3 1.4 C 0 km/h
1463 10-03-2005 08:53:02 1.7 C 4.25 g/m*3 1.7 C 0 km/h
1464 10-03-2005 09:03:02 1.6 C 4.16 g/m*3 1.6 C 0 km/h
1465 10-03-2005 09:13:02 1.5 C 4.14 g/m*3 1.5 C 0 km/h
1466 10-03-2005 09:23:03 1.5 C 4.14 g/m*3 1.5 C 0 km/h
1467 10-03-2005 09:33:02 1.6 C 4.16 g/m*3 1.6 C 0 km/h
1468 10-03-2005 09:43:02 1.6 C 4.11 g/m*3 1.6 C 0 km/h
1469 10-03-2005 09:53:01 1.8 C 4.11 g/m*3 1.8 C 0 km/h
1470 10-03-2005 10:03:01 1.8 C 4.11 g/m*3 1.8 C 0 km/h
1471 10-03-2005 10:13:01 1.9 C 4.19 g/m*3 1.9 C 0 km/h
1472 10-03-2005 10:23:01 2.3 C 4.25 g/m*3 2.3 C 0 km/h
1473 10-03-2005 10:33:01 2.4 C 4.23 g/m*3 2.4 C 0 km/h
1474 10-03-2005 10:43:01 2.4 C 4.23 g/m*3 2.4 C 0 km/h
1475 10-03-2005 10:53:02 2.2 C 4.17 g/m*3 2.2 C 0 km/h
Sensor: Nr:Datum:Temp:Abs-Feuchte:Windchill:Wind:
Aussen-T/F 1476 10-03-2005 11:03:02 2.6 C 4.22 g/m*3 2.6 C 0 km/h
1477 10-03-2005 11:13:02 3.3 C 4.19 g/m*3 3.3 C 0 km/h
1478 10-03-2005 11:23:02 4 C 3.88 g/m*3 4 C 0 km/h
1479 10-03-2005 11:33:02 4.3 C 3.76 g/m*3 4.3 C 0 km/h
1480 10-03-2005 11:43:02 4.9 C 3.65 g/m*3 4.9 C 0 km/h
1481 10-03-2005 11:53:02 5.8 C 3.72 g/m*3 5.8 C 0 km/h
1482 10-03-2005 12:03:02 6 C 3.63 g/m*3 6 C 0 km/h
1483 10-03-2005 12:13:02 5.9 C 3.61 g/m*3 5.9 C 0 km/h
1484 10-03-2005 12:23:02 6.5 C 3.3 g/m*3 6.5 C 0 km/h
1485 10-03-2005 12:33:02 6.4 C 3.13 g/m*3 6.4 C 0 km/h
1486 10-03-2005 12:43:02 6.2 C 3.09 g/m*3 6.2 C 0 km/h
1487 10-03-2005 12:53:01 5.7 C 3.2 g/m*3 5.7 C 0 km/h
1488 10-03-2005 13:03:01 6.3 C 3.18 g/m*3 6.3 C 0 km/h
1489 10-03-2005 13:13:02 7.1 C 3.04 g/m*3 7.1 C 0 km/h
1490 10-03-2005 13:23:01 7.9 C 3.12 g/m*3 7.9 C 0 km/h
1491 10-03-2005 13:33:01 9.1 C 3.11 g/m*3 9.1 C 0 km/h
1492 10-03-2005 13:43:01 9.7 C 3.04 g/m*3 9.7 C 0 km/h
1493 10-03-2005 13:53:01 10 C 2.91 g/m*3 10 C 0 km/h
1494 10-03-2005 14:03:02 9.5 C 3 g/m*3 9.5 C 0 km/h
1495 10-03-2005 14:13:02 9.5 C 3.19 g/m*3 9.5 C 0 km/h
1496 10-03-2005 14:23:02 8.9 C 2.72 g/m*3 8.9 C 0 km/h
1497 10-03-2005 14:33:01 9.2 C 2.86 g/m*3 9.2 C 0 km/h
1498 10-03-2005 14:43:01 9.6 C 2.93 g/m*3 9.6 C 0 km/h
1499 10-03-2005 14:53:01 9.5 C 2.64 g/m*3 9.5 C 0 km/h
1500 10-03-2005 15:03:02 9.3 C 2.79 g/m*3 9.3 C 0 km/h
Sensor: Nr:Datum:Temp:Abs-Feuchte:Windchill:Wind:
Aussen-T/F 1501 10-03-2005 15:13:02 10.2 C 2.85 g/m*3 10.2 C 0 km/h
1502 10-03-2005 15:23:02 10.7 C 2.95 g/m*3 10.7 C 0 km/h
1503 10-03-2005 15:33:02 10.7 C 2.95 g/m*3 10.7 C 0 km/h
1504 10-03-2005 15:43:02 10.7 C 2.75 g/m*3 10.7 C 0 km/h
1505 10-03-2005 15:53:02 11.1 C 3.02 g/m*3 11.1 C 0 km/h
1506 10-03-2005 16:03:03 11.5 C 2.79 g/m*3 11.5 C 0 km/h
1507 10-03-2005 16:13:03 11.7 C 2.82 g/m*3 11.7 C 0 km/h
1508 10-03-2005 16:23:03 12 C 2.77 g/m*3 12 C 0 km/h
1509 10-03-2005 16:33:03 11.8 C 2.95 g/m*3 11.8 C 0 km/h
1510 10-03-2005 16:43:03 11.4 C 2.67 g/m*3 11.4 C 0 km/h
1511 10-03-2005 16:53:02 10.7 C 2.65 g/m*3 10.7 C 0 km/h
1512 10-03-2005 17:03:02 11 C 3.1 g/m*3 11 C 0 km/h
1513 10-03-2005 17:13:02 10.4 C 2.7 g/m*3 10.4 C 0 km/h
1514 10-03-2005 17:23:02 9.5 C 2.73 g/m*3 9.5 C 0 km/h
1515 10-03-2005 17:33:03 9.6 C 2.93 g/m*3 9.6 C 0 km/h
1516 10-03-2005 17:43:03 9.5 C 3.19 g/m*3 9.5 C 0 km/h
1517 10-03-2005 17:53:02 9.1 C 3.28 g/m*3 9.1 C 0 km/h
1518 10-03-2005 18:03:02 8.4 C 3.31 g/m*3 8.4 C 0 km/h
1519 10-03-2005 18:13:02 7.3 C 3.4 g/m*3 7.3 C 0 km/h
1520 10-03-2005 18:23:02 6.4 C 3.35 g/m*3 6.4 C 0 km/h
1521 10-03-2005 18:33:02 5.7 C 3.27 g/m*3 5.7 C 0 km/h
1522 10-03-2005 18:43:02 4.9 C 3.24 g/m*3 4.9 C 0 km/h
1523 10-03-2005 18:53:02 4.5 C 3.35 g/m*3 4.5 C 0 km/h
1524 10-03-2005 19:03:02 4.2 C 3.48 g/m*3 4.2 C 0 km/h
1525 10-03-2005 19:13:02 3.9 C 3.66 g/m*3 3.9 C 0 km/h
Sensor: Nr:Datum:Temp:Abs-Feuchte:Windchill:Wind:
Aussen-T/F 1526 10-03-2005 19:23:02 3.7 C 3.74 g/m*3 3.7 C 0 km/h
1527 10-03-2005 19:33:01 3.4 C 3.66 g/m*3 3.4 C 0 km/h
1528 10-03-2005 19:43:01 3.3 C 3.7 g/m*3 3.3 C 0 km/h
1529 10-03-2005 19:53:02 3.1 C 3.65 g/m*3 3.1 C 0 km/h
1530 10-03-2005 20:03:02 3 C 3.57 g/m*3 3 C 0 km/h
1531 10-03-2005 20:13:02 2.7 C 3.55 g/m*3 2.7 C 0 km/h
1532 10-03-2005 20:23:02 2.5 C 3.62 g/m*3 2.5 C 0 km/h
1533 10-03-2005 20:33:02 2.5 C 3.62 g/m*3 2.5 C 0 km/h
1534 10-03-2005 20:43:02 2.2 C 3.6 g/m*3 2.2 C 0 km/h
1535 10-03-2005 20:53:02 1.9 C 3.59 g/m*3 1.9 C 0 km/h
1536 10-03-2005 21:03:02 1.8 C 3.56 g/m*3 1.8 C 0 km/h
1537 10-03-2005 21:13:03 1.6 C 3.57 g/m*3 1.6 C 0 km/h
1538 10-03-2005 21:23:03 1.6 C 3.57 g/m*3 1.6 C 0 km/h
1539 10-03-2005 21:33:02 1.5 C 3.54 g/m*3 1.5 C 0 km/h
1540 10-03-2005 21:43:02 1.3 C 3.55 g/m*3 1.3 C 0 km/h
1541 10-03-2005 21:53:02 1.6 C 3.62 g/m*3 1.6 C 0 km/h
1542 10-03-2005 22:03:01 1.6 C 3.51 g/m*3 1.6 C 0 km/h
1543 10-03-2005 22:13:01 1.6 C 3.51 g/m*3 1.6 C 0 km/h
1544 10-03-2005 22:23:01 1.5 C 3.49 g/m*3 1.5 C 0 km/h
1545 10-03-2005 22:33:02 1.5 C 3.49 g/m*3 1.5 C 0 km/h
1546 10-03-2005 22:43:02 1.6 C 3.51 g/m*3 1.6 C 0 km/h
1547 10-03-2005 22:53:01 1.4 C 3.47 g/m*3 1.4 C 0 km/h
1548 10-03-2005 23:03:02 1.3 C 3.44 g/m*3 1.3 C 0 km/h
1549 10-03-2005 23:13:02 1.2 C 3.47 g/m*3 1.2 C 0 km/h
1550 10-03-2005 23:23:02 1.1 C 3.45 g/m*3 1.1 C 0 km/h
Sensor: Nr:Datum:Temp:Abs-Feuchte:Windchill:Wind:
Aussen-T/F 1551 10-03-2005 23:33:02 1.1 C 3.5 g/m*3 1.1 C 0 km/h
1552 10-03-2005 23:43:02 1.2 C 3.53 g/m*3 1.2 C 0 km/h
1553 10-03-2005 23:53:02 1.2 C 3.47 g/m*3 1.2 C 0 km/h
1554 11-03-2005 00:03:02 1.1 C 3.45 g/m*3 1.1 C 0 km/h
1555 11-03-2005 00:13:02 0.8 C 3.48 g/m*3 0.8 C 0 km/h
1556 11-03-2005 00:23:03 0.6 C 3.48 g/m*3 0.6 C 0 km/h
1557 11-03-2005 00:33:02 0.4 C 3.49 g/m*3 0.4 C 0 km/h
1558 11-03-2005 00:43:02 0.2 C 3.44 g/m*3 0.2 C 0 km/h
1559 11-03-2005 00:53:02 0.1 C 3.46 g/m*3 0.1 C 0 km/h
1560 11-03-2005 01:03:01 0 C 3.44 g/m*3 0 C 0 km/h
1561 11-03-2005 01:13:01 0 C 3.44 g/m*3 0 C 0 km/h
1562 11-03-2005 01:23:02 -0.1 C 3.46 g/m*3 -0.1 C 0 km/h
1563 11-03-2005 01:33:02 -0.2 C 3.44 g/m*3 -0.2 C 0 km/h
1564 11-03-2005 01:43:02 -0.3 C 3.42 g/m*3 -0.3 C 0 km/h
1565 11-03-2005 01:53:03 -0.4 C 3.44 g/m*3 -0.4 C 0 km/h
1566 11-03-2005 02:03:03 -0.4 C 3.44 g/m*3 -0.4 C 0 km/h
1567 11-03-2005 02:13:03 -0.3 C 3.46 g/m*3 -0.3 C 0 km/h
1568 11-03-2005 02:23:03 -0.4 C 3.44 g/m*3 -0.4 C 0 km/h
1569 11-03-2005 02:33:03 -0.4 C 3.44 g/m*3 -0.4 C 0 km/h
1570 11-03-2005 02:43:03 -0.4 C 3.39 g/m*3 -0.4 C 0 km/h
1571 11-03-2005 02:54:04 -0.4 C 3.39 g/m*3 -0.4 C 0 km/h
1572 11-03-2005 03:04:04 -0.5 C 3.37 g/m*3 -0.5 C 0 km/h
1573 11-03-2005 03:14:04 -0.6 C 3.35 g/m*3 -0.6 C 0 km/h
1574 11-03-2005 03:24:04 -0.6 C 3.39 g/m*3 -0.6 C 0 km/h
1575 11-03-2005 03:34:02 -0.6 C 3.39 g/m*3 -0.6 C 0 km/h
Sensor: Nr:Datum:Temp:Abs-Feuchte:Windchill:Wind:
Aussen-T/F 1576 11-03-2005 03:44:02 -0.5 C 3.42 g/m*3 -0.5 C 0 km/h
1577 11-03-2005 03:54:02 -0.6 C 3.35 g/m*3 -0.6 C 0 km/h
1578 11-03-2005 04:04:01 -0.7 C 3.37 g/m*3 -0.7 C 0 km/h
1579 11-03-2005 04:14:01 -0.6 C 3.39 g/m*3 -0.6 C 0 km/h
1580 11-03-2005 04:24:02 -0.4 C 3.39 g/m*3 -0.4 C 0 km/h
1581 11-03-2005 04:34:02 -0.3 C 3.42 g/m*3 -0.3 C 0 km/h
1582 11-03-2005 04:44:02 -0.4 C 3.39 g/m*3 -0.4 C 0 km/h
1583 11-03-2005 04:54:02 -0.4 C 3.39 g/m*3 -0.4 C 0 km/h
1584 11-03-2005 05:04:01 -0.3 C 3.42 g/m*3 -0.3 C 0 km/h
1585 11-03-2005 05:14:01 0 C 3.39 g/m*3 0 C 0 km/h
1586 11-03-2005 05:24:01 0.1 C 3.42 g/m*3 0.1 C 0 km/h
1587 11-03-2005 05:34:02 0.3 C 3.41 g/m*3 0.3 C 0 km/h
1588 11-03-2005 05:44:02 0.4 C 3.39 g/m*3 0.4 C 0 km/h
1589 11-03-2005 05:54:02 0.5 C 3.36 g/m*3 0.5 C 0 km/h
1590 11-03-2005 06:04:02 0.4 C 3.34 g/m*3 0.4 C 0 km/h
1591 11-03-2005 06:14:02 0.5 C 3.31 g/m*3 0.5 C 0 km/h
1592 11-03-2005 06:24:02 0.6 C 3.28 g/m*3 0.6 C 0 km/h
1593 11-03-2005 06:34:01 0.8 C 3.28 g/m*3 0.8 C 0 km/h
1594 11-03-2005 06:44:01 0.9 C 3.25 g/m*3 0.9 C 0 km/h
1595 11-03-2005 06:54:02 0.7 C 3.25 g/m*3 0.7 C 0 km/h
1596 11-03-2005 07:04:02 0.6 C 3.28 g/m*3 0.6 C 0 km/h
1597 11-03-2005 07:14:02 0.6 C 3.28 g/m*3 0.6 C 0 km/h
1598 11-03-2005 07:24:02 0.9 C 3.3 g/m*3 0.9 C 0 km/h
1599 11-03-2005 07:34:02 1 C 3.22 g/m*3 1 C 0 km/h
1600 11-03-2005 07:44:02 1.3 C 3.23 g/m*3 1.3 C 0 km/h
Sensor: Nr:Datum:Temp:Abs-Feuchte:Windchill:Wind:
Aussen-T/F 1601 11-03-2005 07:54:02 1.6 C 3.24 g/m*3 1.6 C 0 km/h
1602 11-03-2005 08:04:02 1.7 C 3.21 g/m*3 1.7 C 0 km/h
1603 11-03-2005 08:14:02 1.7 C 3.21 g/m*3 1.7 C 0 km/h
1604 11-03-2005 08:24:02 1.9 C 3.26 g/m*3 1.9 C 0 km/h
1605 11-03-2005 08:34:02 2.2 C 3.21 g/m*3 2.2 C 0 km/h
1606 11-03-2005 08:44:02 2.2 C 3.21 g/m*3 2.2 C 0 km/h
1607 11-03-2005 08:54:01 2.3 C 3.23 g/m*3 2.3 C 0 km/h
1608 11-03-2005 09:04:02 2.4 C 3.25 g/m*3 2.4 C 0 km/h
1609 11-03-2005 09:14:02 2.5 C 3.28 g/m*3 2.5 C 0 km/h
1610 11-03-2005 09:24:02 2.6 C 3.3 g/m*3 2.6 C 0 km/h
1611 11-03-2005 09:34:02 3 C 3.39 g/m*3 3 C 0 km/h
1612 11-03-2005 09:44:02 3.3 C 3.4 g/m*3 3.3 C 0 km/h
1613 11-03-2005 09:54:02 3.6 C 3.4 g/m*3 3.6 C 0 km/h
1614 11-03-2005 10:04:02 3.6 C 3.4 g/m*3 3.6 C 0 km/h
1615 11-03-2005 10:14:02 3.6 C 3.4 g/m*3 3.6 C 0 km/h
1616 11-03-2005 10:24:02 3.7 C 3.49 g/m*3 3.7 C 0 km/h
1617 11-03-2005 10:34:02 4 C 3.5 g/m*3 4 C 0 km/h
1618 11-03-2005 10:44:02 4 C 3.56 g/m*3 4 C 0 km/h
1619 11-03-2005 10:54:01 4 C 3.56 g/m*3 4 C 0 km/h
1620 11-03-2005 11:04:01 4 C 3.62 g/m*3 4 C 0 km/h
1621 11-03-2005 11:14:01 4 C 3.62 g/m*3 4 C 0 km/h
1622 11-03-2005 11:24:01 4.2 C 3.74 g/m*3 4.2 C 0 km/h
1623 11-03-2005 11:34:02 4.4 C 3.72 g/m*3 4.4 C 0 km/h
1624 11-03-2005 11:44:02 4.4 C 3.72 g/m*3 4.4 C 0 km/h
1625 11-03-2005 11:54:02 4.4 C 3.79 g/m*3 4.4 C 0 km/h
Sensor: Nr:Datum:Temp:Abs-Feuchte:Windchill:Wind:
Aussen-T/F 1626 11-03-2005 12:04:02 4.5 C 3.81 g/m*3 4.5 C 0 km/h
1627 11-03-2005 12:14:02 4.5 C 3.81 g/m*3 4.5 C 0 km/h
1628 11-03-2005 12:24:02 4.5 C 3.81 g/m*3 4.5 C 0 km/h
1629 11-03-2005 12:34:02 4.6 C 3.9 g/m*3 4.6 C 0 km/h
1630 11-03-2005 12:44:02 4.7 C 3.93 g/m*3 4.7 C 0 km/h
1631 11-03-2005 12:54:02 4.7 C 3.93 g/m*3 4.7 C 0 km/h
1632 11-03-2005 13:04:02 4.7 C 3.93 g/m*3 4.7 C 0 km/h
1633 11-03-2005 13:14:02 4.8 C 3.96 g/m*3 4.8 C 0 km/h
1634 11-03-2005 13:24:02 4.8 C 4.02 g/m*3 4.8 C 0 km/h
1635 11-03-2005 13:34:02 4.9 C 4.05 g/m*3 4.9 C 0 km/h
1636 11-03-2005 13:44:02 4.9 C 4.12 g/m*3 4.9 C 0 km/h
1637 11-03-2005 13:54:01 4.9 C 4.12 g/m*3 4.9 C 0 km/h
1638 11-03-2005 14:04:02 4.9 C 4.12 g/m*3 4.9 C 0 km/h
1639 11-03-2005 14:14:02 4.9 C 4.19 g/m*3 4.9 C 0 km/h
1640 11-03-2005 14:24:02 4.9 C 4.19 g/m*3 4.9 C 0 km/h
1641 11-03-2005 14:34:02 4.9 C 4.25 g/m*3 4.9 C 0 km/h
1642 11-03-2005 14:44:02 4.9 C 4.25 g/m*3 4.9 C 0 km/h
1643 11-03-2005 14:54:02 5 C 4.28 g/m*3 5 C 0 km/h
1644 11-03-2005 15:04:03 5 C 4.28 g/m*3 5 C 0 km/h
1645 11-03-2005 15:14:03 5 C 4.21 g/m*3 5 C 0 km/h
1646 11-03-2005 15:24:02 5 C 4.28 g/m*3 5 C 0 km/h
1647 11-03-2005 15:34:03 4.9 C 4.39 g/m*3 4.9 C 0 km/h
1648 11-03-2005 15:44:03 5 C 4.35 g/m*3 5 C 0 km/h
1649 11-03-2005 15:54:02 4.9 C 4.46 g/m*3 4.9 C 0 km/h
1650 11-03-2005 16:04:03 5 C 4.42 g/m*3 5 C 0 km/h
Sensor: Nr:Datum:Temp:Abs-Feuchte:Windchill:Wind:
Aussen-T/F 1651 11-03-2005 16:14:03 5 C 4.42 g/m*3 5 C 0 km/h
1652 11-03-2005 16:24:02 4.9 C 4.52 g/m*3 4.9 C 0 km/h
1653 11-03-2005 16:34:03 4.9 C 4.52 g/m*3 4.9 C 0 km/h
1654 11-03-2005 16:44:04 4.8 C 4.56 g/m*3 4.8 C 0 km/h
1655 11-03-2005 16:54:02 4.8 C 4.63 g/m*3 4.8 C 0 km/h
1656 11-03-2005 17:04:02 4.8 C 4.69 g/m*3 4.8 C 0 km/h
1657 11-03-2005 17:14:02 4.7 C 4.73 g/m*3 4.7 C 0 km/h
1658 11-03-2005 17:24:02 4.8 C 4.69 g/m*3 4.8 C 0 km/h
1659 11-03-2005 17:34:02 5 C 4.62 g/m*3 5 C 0 km/h
1660 11-03-2005 17:44:02 4.9 C 4.73 g/m*3 4.9 C 0 km/h
1661 11-03-2005 17:54:02 4.6 C 4.76 g/m*3 4.6 C 0 km/h
1662 11-03-2005 18:04:02 4.7 C 4.86 g/m*3 4.7 C 0 km/h
1663 11-03-2005 18:14:02 4.7 C 4.86 g/m*3 4.7 C 0 km/h
1664 11-03-2005 18:24:02 4.5 C 4.93 g/m*3 4.5 C 0 km/h
1665 11-03-2005 18:34:02 4.4 C 4.96 g/m*3 4.4 C 0 km/h
1666 11-03-2005 18:44:02 4.6 C 4.9 g/m*3 4.6 C 0 km/h
1667 11-03-2005 18:54:01 4.5 C 4.8 g/m*3 4.5 C 0 km/h
1668 11-03-2005 19:04:02 4.6 C 4.83 g/m*3 4.6 C 0 km/h
1669 11-03-2005 19:14:02 4.5 C 4.8 g/m*3 4.5 C 0 km/h
1670 11-03-2005 19:24:02 4.8 C 4.9 g/m*3 4.8 C 0 km/h
1671 11-03-2005 19:34:02 5 C 4.76 g/m*3 5 C 0 km/h
1672 11-03-2005 19:44:02 5.1 C 4.65 g/m*3 5.1 C 0 km/h
1673 11-03-2005 19:54:02 5.1 C 4.65 g/m*3 5.1 C 0 km/h
1674 11-03-2005 20:04:02 5 C 4.76 g/m*3 5 C 0 km/h
1675 11-03-2005 20:14:02 4.8 C 4.83 g/m*3 4.8 C 0 km/h
Sensor: Nr:Datum:Temp:Abs-Feuchte:Windchill:Wind:
Aussen-T/F 1676 11-03-2005 20:24:02 4.9 C 4.79 g/m*3 4.9 C 0 km/h
1677 11-03-2005 20:34:02 5.2 C 4.61 g/m*3 5.2 C 0 km/h
1678 11-03-2005 20:44:02 5.1 C 4.51 g/m*3 5.1 C 0 km/h
1679 11-03-2005 20:54:02 5.1 C 4.51 g/m*3 5.1 C 0 km/h
1680 11-03-2005 21:04:03 5.1 C 4.45 g/m*3 5.1 C 0 km/h
1681 11-03-2005 21:14:03 5.1 C 4.45 g/m*3 5.1 C 0 km/h
1682 11-03-2005 21:24:03 5 C 4.48 g/m*3 5 C 0 km/h
1683 11-03-2005 21:34:03 5 C 4.48 g/m*3 5 C 0 km/h
1684 11-03-2005 21:44:03 4.8 C 4.56 g/m*3 4.8 C 0 km/h
1685 11-03-2005 21:54:02 4.7 C 4.53 g/m*3 4.7 C 0 km/h
1686 11-03-2005 22:04:02 4.7 C 4.53 g/m*3 4.7 C 0 km/h
1687 11-03-2005 22:14:02 4.7 C 4.53 g/m*3 4.7 C 0 km/h
1688 11-03-2005 22:24:02 4.5 C 4.6 g/m*3 4.5 C 0 km/h
1689 11-03-2005 22:34:02 4.5 C 4.6 g/m*3 4.5 C 0 km/h
1690 11-03-2005 22:44:02 4.4 C 4.64 g/m*3 4.4 C 0 km/h
1691 11-03-2005 22:54:02 4.3 C 4.67 g/m*3 4.3 C 0 km/h
1692 11-03-2005 23:04:03 4.3 C 4.74 g/m*3 4.3 C 0 km/h
1693 11-03-2005 23:14:03 4 C 4.83 g/m*3 4 C 0 km/h
1694 11-03-2005 23:24:02 3.9 C 4.93 g/m*3 3.9 C 0 km/h
1695 11-03-2005 23:34:02 3.8 C 4.96 g/m*3 3.8 C 0 km/h
1696 11-03-2005 23:44:02 3.8 C 4.96 g/m*3 3.8 C 0 km/h
1697 11-03-2005 23:54:01 3.9 C 4.93 g/m*3 3.9 C 0 km/h
1698 12-03-2005 00:04:01 4 C 4.83 g/m*3 4 C 0 km/h
1699 12-03-2005 00:14:01 4 C 4.83 g/m*3 4 C 0 km/h
1700 12-03-2005 00:24:03 4 C 4.83 g/m*3 4 C 0 km/h
Sensor: Nr:Datum:Temp:Abs-Feuchte:Windchill:Wind:
Aussen-T/F 1701 12-03-2005 00:34:01 2.1 C 4.31 g/m*3 2.1 C 0 km/h
1702 12-03-2005 00:44:01 1.4 C 4.32 g/m*3 1.4 C 0 km/h
1703 12-03-2005 00:54:02 1 C 4.31 g/m*3 1 C 0 km/h
1704 12-03-2005 01:04:01 0.9 C 4.38 g/m*3 0.9 C 0 km/h
1705 12-03-2005 01:14:01 0.9 C 4.43 g/m*3 0.9 C 0 km/h
1706 12-03-2005 01:24:02 1 C 4.46 g/m*3 1 C 0 km/h
1707 12-03-2005 01:34:02 1 C 4.46 g/m*3 1 C 0 km/h
1708 12-03-2005 01:44:02 1.1 C 4.49 g/m*3 1.1 C 0 km/h
1709 12-03-2005 01:54:02 1.1 C 4.55 g/m*3 1.1 C 0 km/h
1710 12-03-2005 02:04:02 1.1 C 4.55 g/m*3 1.1 C 0 km/h
1711 12-03-2005 02:14:02 1.1 C 4.55 g/m*3 1.1 C 0 km/h
1712 12-03-2005 02:24:02 1.2 C 4.63 g/m*3 1.2 C 0 km/h
1713 12-03-2005 02:34:02 1.4 C 4.64 g/m*3 1.4 C 0 km/h
1714 12-03-2005 02:44:02 1.3 C 4.56 g/m*3 1.3 C 0 km/h
1715 12-03-2005 02:55:04 1.4 C 4.53 g/m*3 1.4 C 0 km/h
1716 12-03-2005 03:05:04 1.4 C 4.48 g/m*3 1.4 C 0 km/h
1717 12-03-2005 03:15:04 1.4 C 4.43 g/m*3 1.4 C 0 km/h
1718 12-03-2005 03:25:04 1.5 C 4.46 g/m*3 1.5 C 0 km/h
1719 12-03-2005 03:35:02 1.5 C 4.46 g/m*3 1.5 C 0 km/h
1720 12-03-2005 03:45:02 1.4 C 4.48 g/m*3 1.4 C 0 km/h
1721 12-03-2005 03:55:02 1.4 C 4.48 g/m*3 1.4 C 0 km/h
1722 12-03-2005 04:05:02 1.4 C 4.43 g/m*3 1.4 C 0 km/h
1723 12-03-2005 04:15:02 1.3 C 4.34 g/m*3 1.3 C 0 km/h
1724 12-03-2005 04:25:02 1.2 C 4.31 g/m*3 1.2 C 0 km/h
1725 12-03-2005 04:35:02 1.2 C 4.26 g/m*3 1.2 C 0 km/h
Sensor: Nr:Datum:Temp:Abs-Feuchte:Windchill:Wind:
Aussen-T/F 1726 12-03-2005 04:45:02 1.1 C 4.29 g/m*3 1.1 C 0 km/h
1727 12-03-2005 04:55:02 1 C 4.26 g/m*3 1 C 0 km/h
1728 12-03-2005 05:05:01 1.1 C 4.34 g/m*3 1.1 C 0 km/h
1729 12-03-2005 05:15:01 1 C 4.26 g/m*3 1 C 0 km/h
1730 12-03-2005 05:25:01 1.2 C 4.37 g/m*3 1.2 C 0 km/h
1731 12-03-2005 05:35:02 1.1 C 4.34 g/m*3 1.1 C 0 km/h
1732 12-03-2005 05:45:02 1.1 C 4.39 g/m*3 1.1 C 0 km/h
1733 12-03-2005 05:55:02 1 C 4.36 g/m*3 1 C 0 km/h
1734 12-03-2005 06:05:02 0.9 C 4.38 g/m*3 0.9 C 0 km/h
1735 12-03-2005 06:15:02 1 C 4.41 g/m*3 1 C 0 km/h
1736 12-03-2005 06:25:02 1 C 4.41 g/m*3 1 C 0 km/h
1737 12-03-2005 06:35:02 1 C 4.41 g/m*3 1 C 0 km/h
1738 12-03-2005 06:45:02 1 C 4.41 g/m*3 1 C 0 km/h
1739 12-03-2005 06:55:02 1.1 C 4.44 g/m*3 1.1 C 0 km/h
1740 12-03-2005 07:05:02 1.3 C 4.5 g/m*3 1.3 C 0 km/h
1741 12-03-2005 07:15:02 1.5 C 4.46 g/m*3 1.5 C 0 km/h
1742 12-03-2005 07:25:02 1.6 C 4.43 g/m*3 1.6 C 0 km/h
1743 12-03-2005 07:35:02 1.7 C 4.46 g/m*3 1.7 C 0 km/h
1744 12-03-2005 07:45:03 1.8 C 4.44 g/m*3 1.8 C 0 km/h
1745 12-03-2005 07:55:03 1.8 C 4.44 g/m*3 1.8 C 0 km/h
1746 12-03-2005 08:05:02 1.9 C 4.42 g/m*3 1.9 C 0 km/h
1747 12-03-2005 08:15:02 1.9 C 4.36 g/m*3 1.9 C 0 km/h
1748 12-03-2005 08:25:02 2 C 4.28 g/m*3 2 C 0 km/h
1749 12-03-2005 08:35:02 2 C 4.28 g/m*3 2 C 0 km/h
1750 12-03-2005 08:45:01 2.1 C 4.2 g/m*3 2.1 C 0 km/h
Sensor: Nr:Datum:Temp:Abs-Feuchte:Windchill:Wind:
Aussen-T/F 1751 12-03-2005 08:55:01 2.4 C 4.23 g/m*3 2.4 C 0 km/h
1752 12-03-2005 09:05:02 2.4 C 4.17 g/m*3 2.4 C 0 km/h
1753 12-03-2005 09:15:02 2.4 C 4.17 g/m*3 2.4 C 0 km/h
1754 12-03-2005 09:25:02 2.1 C 4.14 g/m*3 2.1 C 0 km/h
1755 12-03-2005 09:35:04 1.9 C 4.3 g/m*3 1.9 C 0 km/h
1756 12-03-2005 09:45:02 1.9 C 4.42 g/m*3 1.9 C 0 km/h
1757 12-03-2005 09:55:02 2 C 4.45 g/m*3 2 C 0 km/h
1758 12-03-2005 10:05:02 2.1 C 4.53 g/m*3 2.1 C 0 km/h
1759 12-03-2005 10:15:02 2.4 C 4.62 g/m*3 2.4 C 0 km/h
1760 12-03-2005 10:25:02 2.4 C 4.62 g/m*3 2.4 C 0 km/h
1761 12-03-2005 10:35:02 2.7 C 4.72 g/m*3 2.7 C 0 km/h
1762 12-03-2005 10:45:03 2.7 C 4.66 g/m*3 2.7 C 0 km/h
1763 12-03-2005 10:55:03 3.2 C 4.76 g/m*3 3.2 C 0 km/h
1764 12-03-2005 11:05:03 3.6 C 4.58 g/m*3 3.6 C 0 km/h
1765 12-03-2005 11:15:04 4 C 4.51 g/m*3 4 C 0 km/h
1766 12-03-2005 11:25:05 4 C 4.51 g/m*3 4 C 0 km/h
1767 12-03-2005 11:35:04 4 C 4.39 g/m*3 4 C 0 km/h
1768 12-03-2005 11:45:04 4 C 4.39 g/m*3 4 C 0 km/h
1769 12-03-2005 11:55:04 4.4 C 3.72 g/m*3 4.4 C 0 km/h
1770 12-03-2005 12:05:05 4.8 C 3.55 g/m*3 4.8 C 0 km/h
1771 12-03-2005 12:15:05 4.8 C 3.42 g/m*3 4.8 C 0 km/h
1772 12-03-2005 12:25:05 4.8 C 3.29 g/m*3 4.8 C 0 km/h
1773 12-03-2005 12:35:05 4.7 C 3.33 g/m*3 4.7 C 0 km/h
1774 12-03-2005 12:45:04 4.4 C 3.59 g/m*3 4.4 C 0 km/h
1775 12-03-2005 12:55:05 2.6 C 3.99 g/m*3 2.6 C 0 km/h
Sensor: Nr:Datum:Temp:Abs-Feuchte:Windchill:Wind:
Aussen-T/F 1776 12-03-2005 13:05:03 2.3 C 4.14 g/m*3 2.3 C 0 km/h
1777 12-03-2005 13:15:06 2.7 C 4.08 g/m*3 2.7 C 0 km/h
1778 12-03-2005 13:25:06 3.3 C 4.19 g/m*3 3.3 C 0 km/h
1779 12-03-2005 13:35:06 4.2 C 4.06 g/m*3 4.2 C 0 km/h
1780 12-03-2005 13:45:02 4.7 C 4.06 g/m*3 4.7 C 0 km/h
1781 12-03-2005 13:55:02 5 C 3.81 g/m*3 5 C 0 km/h
1782 12-03-2005 14:05:04 5.3 C 3.81 g/m*3 5.3 C 0 km/h
1783 12-03-2005 14:15:03 5 C 3.74 g/m*3 5 C 0 km/h
1784 12-03-2005 14:25:03 4.8 C 3.49 g/m*3 4.8 C 0 km/h
1785 12-03-2005 14:35:02 3.4 C 4.09 g/m*3 3.4 C 0 km/h
1786 12-03-2005 14:45:02 3.5 C 4.18 g/m*3 3.5 C 0 km/h
1787 12-03-2005 14:55:02 3.7 C 4.05 g/m*3 3.7 C 0 km/h
1788 12-03-2005 15:05:03 4.4 C 4.05 g/m*3 4.4 C 0 km/h
1789 12-03-2005 15:15:03 4.7 C 3.66 g/m*3 4.7 C 0 km/h
1790 12-03-2005 15:25:03 5.4 C 3.63 g/m*3 5.4 C 0 km/h
1791 12-03-2005 15:35:03 6.2 C 3.31 g/m*3 6.2 C 0 km/h
1792 12-03-2005 15:45:04 5.6 C 3.25 g/m*3 5.6 C 0 km/h
1793 12-03-2005 15:55:04 5.4 C 3.35 g/m*3 5.4 C 0 km/h
1794 12-03-2005 16:05:04 5.7 C 3.2 g/m*3 5.7 C 0 km/h
1795 12-03-2005 16:15:04 6 C 3.05 g/m*3 6 C 0 km/h
1796 12-03-2005 16:25:04 6.6 C 3.1 g/m*3 6.6 C 0 km/h
1797 12-03-2005 16:35:04 5.9 C 2.96 g/m*3 5.9 C 0 km/h
1798 12-03-2005 16:45:02 5.9 C 3.03 g/m*3 5.9 C 0 km/h
1799 12-03-2005 16:55:02 6.1 C 3 g/m*3 6.1 C 0 km/h
1800 12-03-2005 17:05:03 6.2 C 3.09 g/m*3 6.2 C 0 km/h
Sensor: Nr:Datum:Temp:Abs-Feuchte:Windchill:Wind:
Aussen-T/F 1801 12-03-2005 17:15:02 5.5 C 3.09 g/m*3 5.5 C 0 km/h
1802 12-03-2005 17:25:02 5.7 C 3.06 g/m*3 5.7 C 0 km/h
1803 12-03-2005 17:35:02 5.7 C 3.06 g/m*3 5.7 C 0 km/h
1804 12-03-2005 17:45:01 5.6 C 3.18 g/m*3 5.6 C 0 km/h
1805 12-03-2005 17:55:01 5.5 C 3.16 g/m*3 5.5 C 0 km/h
1806 12-03-2005 18:05:01 5 C 3.13 g/m*3 5 C 0 km/h
1807 12-03-2005 18:15:02 4.6 C 3.18 g/m*3 4.6 C 0 km/h
1808 12-03-2005 18:25:02 4.1 C 3.2 g/m*3 4.1 C 0 km/h
1809 12-03-2005 18:35:02 3.8 C 3.2 g/m*3 3.8 C 0 km/h
1810 12-03-2005 18:45:02 3.8 C 3.2 g/m*3 3.8 C 0 km/h
1811 12-03-2005 18:55:02 3.8 C 3.2 g/m*3 3.8 C 0 km/h
1812 12-03-2005 19:05:02 3.7 C 3.24 g/m*3 3.7 C 0 km/h
1813 12-03-2005 19:15:02 3.5 C 3.26 g/m*3 3.5 C 0 km/h
1814 12-03-2005 19:25:02 3.4 C 3.24 g/m*3 3.4 C 0 km/h
1815 12-03-2005 19:35:02 3.3 C 3.28 g/m*3 3.3 C 0 km/h
1816 12-03-2005 19:45:02 3.3 C 3.22 g/m*3 3.3 C 0 km/h
1817 12-03-2005 19:55:02 3.1 C 3.23 g/m*3 3.1 C 0 km/h
1818 12-03-2005 20:05:02 3.1 C 3.23 g/m*3 3.1 C 0 km/h
1819 12-03-2005 20:15:03 3.1 C 3.23 g/m*3 3.1 C 0 km/h
1820 12-03-2005 20:25:03 3.1 C 3.29 g/m*3 3.1 C 0 km/h
1821 12-03-2005 20:35:02 3 C 3.33 g/m*3 3 C 0 km/h
1822 12-03-2005 20:45:02 3 C 3.33 g/m*3 3 C 0 km/h
1823 12-03-2005 20:55:02 3 C 3.45 g/m*3 3 C 0 km/h
1824 12-03-2005 21:05:02 2.7 C 3.61 g/m*3 2.7 C 0 km/h
1825 12-03-2005 21:15:02 2.6 C 3.88 g/m*3 2.6 C 0 km/h
Sensor: Nr:Datum:Temp:Abs-Feuchte:Windchill:Wind:
Aussen-T/F 1826 12-03-2005 21:25:02 2.6 C 3.88 g/m*3 2.6 C 0 km/h
1827 12-03-2005 21:35:02 2.6 C 3.88 g/m*3 2.6 C 0 km/h
1828 12-03-2005 21:45:02 2.7 C 3.9 g/m*3 2.7 C 0 km/h
1829 12-03-2005 21:55:02 2.8 C 3.87 g/m*3 2.8 C 0 km/h
1830 12-03-2005 22:05:02 3.1 C 3.83 g/m*3 3.1 C 0 km/h
1831 12-03-2005 22:15:02 3.2 C 3.86 g/m*3 3.2 C 0 km/h
1832 12-03-2005 22:25:02 3.3 C 3.82 g/m*3 3.3 C 0 km/h
1833 12-03-2005 22:35:02 3.6 C 3.84 g/m*3 3.6 C 0 km/h
1834 12-03-2005 22:45:01 3.6 C 3.78 g/m*3 3.6 C 0 km/h
1835 12-03-2005 22:55:01 3.7 C 3.8 g/m*3 3.7 C 0 km/h
1836 12-03-2005 23:05:02 3.7 C 3.8 g/m*3 3.7 C 0 km/h
1837 12-03-2005 23:15:02 3.7 C 3.86 g/m*3 3.7 C 0 km/h
1838 12-03-2005 23:25:02 3.7 C 3.86 g/m*3 3.7 C 0 km/h
1839 12-03-2005 23:35:01 3.8 C 3.83 g/m*3 3.8 C 0 km/h
1840 12-03-2005 23:45:01 3.8 C 3.89 g/m*3 3.8 C 0 km/h
1841 12-03-2005 23:55:01 3.8 C 3.89 g/m*3 3.8 C 0 km/h
1842 13-03-2005 00:05:02 3.8 C 3.89 g/m*3 3.8 C 0 km/h
1843 13-03-2005 00:15:03 3.7 C 3.86 g/m*3 3.7 C 0 km/h
1844 13-03-2005 00:25:03 3.7 C 3.8 g/m*3 3.7 C 0 km/h
1845 13-03-2005 00:35:01 3.7 C 3.74 g/m*3 3.7 C 0 km/h
1846 13-03-2005 00:45:03 3.6 C 3.71 g/m*3 3.6 C 0 km/h
1847 13-03-2005 00:55:03 3.4 C 3.66 g/m*3 3.4 C 0 km/h
1848 13-03-2005 01:05:02 3.3 C 3.64 g/m*3 3.3 C 0 km/h
1849 13-03-2005 01:15:03 3.2 C 3.62 g/m*3 3.2 C 0 km/h
1850 13-03-2005 01:25:03 3.2 C 3.62 g/m*3 3.2 C 0 km/h
Sensor: Nr:Datum:Temp:Abs-Feuchte:Windchill:Wind:
Aussen-T/F 1851 13-03-2005 01:35:02 3.2 C 3.68 g/m*3 3.2 C 0 km/h
1852 13-03-2005 01:45:03 3.1 C 3.65 g/m*3 3.1 C 0 km/h
1853 13-03-2005 01:55:03 3.1 C 3.65 g/m*3 3.1 C 0 km/h
1854 13-03-2005 02:05:02 3.1 C 3.71 g/m*3 3.1 C 0 km/h
1855 13-03-2005 02:15:03 3.1 C 3.77 g/m*3 3.1 C 0 km/h
1856 13-03-2005 02:25:03 3.1 C 3.77 g/m*3 3.1 C 0 km/h
1857 13-03-2005 02:35:03 3.2 C 3.74 g/m*3 3.2 C 0 km/h
1858 13-03-2005 02:46:04 3.2 C 3.74 g/m*3 3.2 C 0 km/h
1859 13-03-2005 02:56:04 3.2 C 3.68 g/m*3 3.2 C 0 km/h
1860 13-03-2005 03:06:04 3.1 C 3.71 g/m*3 3.1 C 0 km/h
1861 13-03-2005 03:16:04 3.1 C 3.71 g/m*3 3.1 C 0 km/h
1862 13-03-2005 03:26:04 3.1 C 3.71 g/m*3 3.1 C 0 km/h
1863 13-03-2005 03:36:01 3.1 C 3.65 g/m*3 3.1 C 0 km/h
1864 13-03-2005 03:46:01 3.1 C 3.65 g/m*3 3.1 C 0 km/h
1865 13-03-2005 03:56:01 3 C 3.63 g/m*3 3 C 0 km/h
1866 13-03-2005 04:06:02 2.9 C 3.66 g/m*3 2.9 C 0 km/h
1867 13-03-2005 04:16:02 2.9 C 3.66 g/m*3 2.9 C 0 km/h
1868 13-03-2005 04:26:02 3 C 3.63 g/m*3 3 C 0 km/h
1869 13-03-2005 04:36:02 3 C 3.63 g/m*3 3 C 0 km/h
1870 13-03-2005 04:46:02 2.8 C 3.75 g/m*3 2.8 C 0 km/h
1871 13-03-2005 04:56:02 2.4 C 3.83 g/m*3 2.4 C 0 km/h
1872 13-03-2005 05:06:02 2.2 C 3.89 g/m*3 2.2 C 0 km/h
1873 13-03-2005 05:16:02 2.3 C 3.86 g/m*3 2.3 C 0 km/h
1874 13-03-2005 05:26:02 2.4 C 3.83 g/m*3 2.4 C 0 km/h
1875 13-03-2005 05:36:02 2.5 C 3.79 g/m*3 2.5 C 0 km/h
Sensor: Nr:Datum:Temp:Abs-Feuchte:Windchill:Wind:
Aussen-T/F 1876 13-03-2005 05:46:01 2.5 C 3.79 g/m*3 2.5 C 0 km/h
1877 13-03-2005 05:56:01 2.5 C 3.79 g/m*3 2.5 C 0 km/h
1878 13-03-2005 06:06:02 2.5 C 3.74 g/m*3 2.5 C 0 km/h
1879 13-03-2005 06:16:02 2.6 C 3.76 g/m*3 2.6 C 0 km/h
1880 13-03-2005 06:26:03 2.6 C 3.76 g/m*3 2.6 C 0 km/h
1881 13-03-2005 06:36:01 2.6 C 3.82 g/m*3 2.6 C 0 km/h
1882 13-03-2005 06:46:01 2.4 C 3.88 g/m*3 2.4 C 0 km/h
1883 13-03-2005 06:56:01 2.3 C 3.97 g/m*3 2.3 C 0 km/h
1884 13-03-2005 07:06:02 2.1 C 4.03 g/m*3 2.1 C 0 km/h
1885 13-03-2005 07:16:02 2 C 4.06 g/m*3 2 C 0 km/h
1886 13-03-2005 07:26:02 2 C 4.06 g/m*3 2 C 0 km/h
1887 13-03-2005 07:36:01 2.1 C 4.03 g/m*3 2.1 C 0 km/h
1888 13-03-2005 07:46:02 2.2 C 4.06 g/m*3 2.2 C 0 km/h
1889 13-03-2005 07:56:02 2.5 C 4.14 g/m*3 2.5 C 0 km/h
1890 13-03-2005 08:06:02 2.5 C 4.08 g/m*3 2.5 C 0 km/h
1891 13-03-2005 08:16:01 2.6 C 4.05 g/m*3 2.6 C 0 km/h
1892 13-03-2005 08:26:01 2.6 C 4.05 g/m*3 2.6 C 0 km/h
1893 13-03-2005 08:36:01 2.7 C 4.14 g/m*3 2.7 C 0 km/h
1894 13-03-2005 08:46:02 2.7 C 4.14 g/m*3 2.7 C 0 km/h
1895 13-03-2005 08:56:02 2.9 C 4.13 g/m*3 2.9 C 0 km/h
1896 13-03-2005 09:06:03 3.3 C 4.13 g/m*3 3.3 C 0 km/h
1897 13-03-2005 09:16:04 3.3 C 4.06 g/m*3 3.3 C 0 km/h
1898 13-03-2005 09:26:04 3.5 C 4.12 g/m*3 3.5 C 0 km/h
1899 13-03-2005 09:36:02 3.8 C 4.08 g/m*3 3.8 C 0 km/h
1900 13-03-2005 09:46:01 4 C 4.07 g/m*3 4 C 0 km/h
Sensor: Nr:Datum:Temp:Abs-Feuchte:Windchill:Wind:
Aussen-T/F 1901 13-03-2005 09:56:01 4.4 C 4.05 g/m*3 4.4 C 0 km/h
1902 13-03-2005 10:06:01 4.8 C 4.09 g/m*3 4.8 C 0 km/h
1903 13-03-2005 10:16:02 5 C 4.01 g/m*3 5 C 0 km/h
1904 13-03-2005 10:26:02 5.4 C 3.98 g/m*3 5.4 C 0 km/h
1905 13-03-2005 10:36:02 5.7 C 3.91 g/m*3 5.7 C 0 km/h
1906 13-03-2005 10:46:02 5.9 C 3.75 g/m*3 5.9 C 0 km/h
1907 13-03-2005 10:56:02 6 C 3.7 g/m*3 6 C 0 km/h
1908 13-03-2005 11:06:02 6.3 C 3.7 g/m*3 6.3 C 0 km/h
1909 13-03-2005 11:16:02 6.7 C 3.72 g/m*3 6.7 C 0 km/h
1910 13-03-2005 11:26:02 6.8 C 3.75 g/m*3 6.8 C 0 km/h
1911 13-03-2005 11:36:03 7.1 C 3.59 g/m*3 7.1 C 0 km/h
1912 13-03-2005 11:46:02 6.8 C 3.44 g/m*3 6.8 C 0 km/h
1913 13-03-2005 11:56:02 7.1 C 3.51 g/m*3 7.1 C 0 km/h
1914 13-03-2005 12:06:02 7.3 C 3.32 g/m*3 7.3 C 0 km/h
1915 13-03-2005 12:16:03 7.4 C 3.18 g/m*3 7.4 C 0 km/h
1916 13-03-2005 12:26:03 7.3 C 3.24 g/m*3 7.3 C 0 km/h
1917 13-03-2005 12:36:02 7 C 3.18 g/m*3 7 C 0 km/h
1918 13-03-2005 12:46:02 7.3 C 3.16 g/m*3 7.3 C 0 km/h
1919 13-03-2005 12:56:02 7.7 C 3.08 g/m*3 7.7 C 0 km/h
1920 13-03-2005 13:06:02 7.6 C 2.9 g/m*3 7.6 C 0 km/h
1921 13-03-2005 13:16:02 7.8 C 2.86 g/m*3 7.8 C 0 km/h
1922 13-03-2005 13:26:03 7.4 C 2.39 g/m*3 7.4 C 0 km/h
1923 13-03-2005 13:36:01 7.1 C 2.5 g/m*3 7.1 C 0 km/h
1924 13-03-2005 13:46:02 7.1 C 2.73 g/m*3 7.1 C 0 km/h
1925 13-03-2005 13:56:02 7 C 2.79 g/m*3 7 C 0 km/h
Sensor: Nr:Datum:Temp:Abs-Feuchte:Windchill:Wind:
Aussen-T/F 1926 13-03-2005 14:06:02 7.1 C 2.89 g/m*3 7.1 C 0 km/h
1927 13-03-2005 14:16:02 7.1 C 2.81 g/m*3 7.1 C 0 km/h
1928 13-03-2005 14:26:02 7.1 C 2.65 g/m*3 7.1 C 0 km/h
1929 13-03-2005 14:36:02 7.3 C 2.61 g/m*3 7.3 C 0 km/h
1930 13-03-2005 14:46:01 7.4 C 2.62 g/m*3 7.4 C 0 km/h
1931 13-03-2005 14:56:01 7.4 C 2.54 g/m*3 7.4 C 0 km/h
1932 13-03-2005 15:06:02 7.1 C 2.65 g/m*3 7.1 C 0 km/h
1933 13-03-2005 15:16:01 7.1 C 2.73 g/m*3 7.1 C 0 km/h
1934 13-03-2005 15:26:01 7.1 C 2.81 g/m*3 7.1 C 0 km/h
1935 13-03-2005 15:36:01 7.6 C 2.98 g/m*3 7.6 C 0 km/h
1936 13-03-2005 15:46:02 8 C 2.98 g/m*3 8 C 0 km/h
1937 13-03-2005 15:56:02 8.4 C 3.14 g/m*3 8.4 C 0 km/h
1938 13-03-2005 16:06:03 7.7 C 3 g/m*3 7.7 C 0 km/h
1939 13-03-2005 16:16:02 7.5 C 3.04 g/m*3 7.5 C 0 km/h
1940 13-03-2005 16:26:02 7.3 C 3.08 g/m*3 7.3 C 0 km/h
1941 13-03-2005 16:36:02 7.3 C 3.16 g/m*3 7.3 C 0 km/h
1942 13-03-2005 16:46:02 7.2 C 3.14 g/m*3 7.2 C 0 km/h
1943 13-03-2005 16:56:02 7.4 C 3.18 g/m*3 7.4 C 0 km/h
1944 13-03-2005 17:06:02 7.3 C 3.08 g/m*3 7.3 C 0 km/h
1945 13-03-2005 17:16:02 7.1 C 2.96 g/m*3 7.1 C 0 km/h
1946 13-03-2005 17:26:02 7.1 C 3.04 g/m*3 7.1 C 0 km/h
1947 13-03-2005 17:36:02 7.1 C 3.04 g/m*3 7.1 C 0 km/h
1948 13-03-2005 17:46:02 6.7 C 3.04 g/m*3 6.7 C 0 km/h
1949 13-03-2005 17:56:02 6.5 C 2.92 g/m*3 6.5 C 0 km/h
1950 13-03-2005 18:06:02 6.2 C 3.02 g/m*3 6.2 C 0 km/h
Sensor: Nr:Datum:Temp:Abs-Feuchte:Windchill:Wind:
Aussen-T/F 1951 13-03-2005 18:16:02 6.1 C 3 g/m*3 6.1 C 0 km/h
1952 13-03-2005 18:26:02 6 C 3.05 g/m*3 6 C 0 km/h
1953 13-03-2005 18:36:03 6 C 3.05 g/m*3 6 C 0 km/h
1954 13-03-2005 18:46:02 5.9 C 3.1 g/m*3 5.9 C 0 km/h
1955 13-03-2005 18:56:02 5.8 C 3.08 g/m*3 5.8 C 0 km/h
1956 13-03-2005 19:06:02 5.8 C 3.08 g/m*3 5.8 C 0 km/h
1957 13-03-2005 19:16:02 5.7 C 3.13 g/m*3 5.7 C 0 km/h
1958 13-03-2005 19:26:02 5.6 C 3.18 g/m*3 5.6 C 0 km/h
1959 13-03-2005 19:36:02 5.6 C 3.25 g/m*3 5.6 C 0 km/h
1960 13-03-2005 19:46:02 5.5 C 3.16 g/m*3 5.5 C 0 km/h
1961 13-03-2005 19:56:02 5.4 C 3.21 g/m*3 5.4 C 0 km/h
1962 13-03-2005 20:06:03 5.4 C 3.14 g/m*3 5.4 C 0 km/h
1963 13-03-2005 20:16:03 5.4 C 3.28 g/m*3 5.4 C 0 km/h
1964 13-03-2005 20:26:03 5.3 C 3.26 g/m*3 5.3 C 0 km/h
1965 13-03-2005 20:36:03 5.2 C 3.37 g/m*3 5.2 C 0 km/h
1966 13-03-2005 20:46:02 5.1 C 3.42 g/m*3 5.1 C 0 km/h
1967 13-03-2005 20:56:02 4.9 C 3.58 g/m*3 4.9 C 0 km/h
1968 13-03-2005 21:06:03 4.8 C 3.69 g/m*3 4.8 C 0 km/h
1969 13-03-2005 21:16:02 4.8 C 3.69 g/m*3 4.8 C 0 km/h
1970 13-03-2005 21:26:02 4.7 C 3.6 g/m*3 4.7 C 0 km/h
1971 13-03-2005 21:36:02 4.6 C 3.51 g/m*3 4.6 C 0 km/h
1972 13-03-2005 21:46:02 4.6 C 3.57 g/m*3 4.6 C 0 km/h
1973 13-03-2005 21:56:02 4.6 C 3.71 g/m*3 4.6 C 0 km/h
1974 13-03-2005 22:06:03 4.5 C 3.68 g/m*3 4.5 C 0 km/h
1975 13-03-2005 22:16:02 4.5 C 3.68 g/m*3 4.5 C 0 km/h
Sensor: Nr:Datum:Temp:Abs-Feuchte:Windchill:Wind:
Aussen-T/F 1976 13-03-2005 22:26:02 4.5 C 3.68 g/m*3 4.5 C 0 km/h
1977 13-03-2005 22:36:02 4.4 C 3.72 g/m*3 4.4 C 0 km/h
1978 13-03-2005 22:46:01 4.4 C 3.72 g/m*3 4.4 C 0 km/h
1979 13-03-2005 22:56:01 4.3 C 3.7 g/m*3 4.3 C 0 km/h
1980 13-03-2005 23:06:02 4.3 C 3.76 g/m*3 4.3 C 0 km/h
1981 13-03-2005 23:16:01 4.2 C 3.8 g/m*3 4.2 C 0 km/h
1982 13-03-2005 23:26:01 4.2 C 3.8 g/m*3 4.2 C 0 km/h
1983 13-03-2005 23:36:01 4.2 C 3.8 g/m*3 4.2 C 0 km/h
1984 13-03-2005 23:46:01 4.2 C 3.67 g/m*3 4.2 C 0 km/h
1985 13-03-2005 23:56:01 4.2 C 3.74 g/m*3 4.2 C 0 km/h
1986 14-03-2005 00:06:02 4.1 C 3.71 g/m*3 4.1 C 0 km/h
1987 14-03-2005 00:16:03 4.1 C 3.71 g/m*3 4.1 C 0 km/h
1988 14-03-2005 00:26:04 4.1 C 3.65 g/m*3 4.1 C 0 km/h
1989 14-03-2005 00:36:02 4.1 C 3.65 g/m*3 4.1 C 0 km/h
1990 14-03-2005 00:46:02 4.1 C 3.71 g/m*3 4.1 C 0 km/h
1991 14-03-2005 00:56:02 4 C 3.69 g/m*3 4 C 0 km/h
1992 14-03-2005 01:06:02 4 C 3.69 g/m*3 4 C 0 km/h
1993 14-03-2005 01:16:03 3.9 C 3.73 g/m*3 3.9 C 0 km/h
1994 14-03-2005 01:26:03 3.9 C 3.79 g/m*3 3.9 C 0 km/h
1995 14-03-2005 01:36:02 3.8 C 3.76 g/m*3 3.8 C 0 km/h
1996 14-03-2005 01:46:02 3.8 C 3.76 g/m*3 3.8 C 0 km/h
1997 14-03-2005 01:56:02 3.7 C 3.8 g/m*3 3.7 C 0 km/h
1998 14-03-2005 02:06:02 3.7 C 3.8 g/m*3 3.7 C 0 km/h
1999 14-03-2005 02:16:02 3.6 C 3.78 g/m*3 3.6 C 0 km/h
2000 14-03-2005 02:26:02 3.6 C 3.78 g/m*3 3.6 C 0 km/h
Sensor: Nr:Datum:Temp:Abs-Feuchte:Windchill:Wind:
Aussen-T/F 2001 14-03-2005 02:36:02 3.6 C 3.78 g/m*3 3.6 C 0 km/h
2002 14-03-2005 02:47:03 3.6 C 3.78 g/m*3 3.6 C 0 km/h
2003 14-03-2005 02:57:03 3.6 C 3.78 g/m*3 3.6 C 0 km/h
2004 14-03-2005 03:07:03 3.6 C 3.84 g/m*3 3.6 C 0 km/h
2005 14-03-2005 03:17:03 3.5 C 3.81 g/m*3 3.5 C 0 km/h
2006 14-03-2005 03:27:03 3.5 C 3.81 g/m*3 3.5 C 0 km/h
2007 14-03-2005 03:37:02 3.6 C 3.84 g/m*3 3.6 C 0 km/h
2008 14-03-2005 03:47:02 3.6 C 3.78 g/m*3 3.6 C 0 km/h
2009 14-03-2005 03:57:02 3.5 C 3.81 g/m*3 3.5 C 0 km/h
2010 14-03-2005 04:07:02 3.4 C 3.85 g/m*3 3.4 C 0 km/h
2011 14-03-2005 04:17:02 3.4 C 3.85 g/m*3 3.4 C 0 km/h
2012 14-03-2005 04:27:02 3.4 C 3.85 g/m*3 3.4 C 0 km/h
2013 14-03-2005 04:37:02 3.4 C 3.85 g/m*3 3.4 C 0 km/h
2014 14-03-2005 04:47:02 3.5 C 3.87 g/m*3 3.5 C 0 km/h
2015 14-03-2005 04:57:02 3.5 C 3.81 g/m*3 3.5 C 0 km/h
2016 14-03-2005 05:07:02 3.4 C 3.79 g/m*3 3.4 C 0 km/h
2017 14-03-2005 05:17:03 3.4 C 3.79 g/m*3 3.4 C 0 km/h
2018 14-03-2005 05:27:03 3.4 C 3.85 g/m*3 3.4 C 0 km/h
2019 14-03-2005 05:37:02 3.4 C 3.79 g/m*3 3.4 C 0 km/h
2020 14-03-2005 05:47:03 3.4 C 3.79 g/m*3 3.4 C 0 km/h
2021 14-03-2005 05:57:03 3.4 C 3.79 g/m*3 3.4 C 0 km/h
2022 14-03-2005 06:07:03 3.4 C 3.79 g/m*3 3.4 C 0 km/h
2023 14-03-2005 06:17:03 3.3 C 3.76 g/m*3 3.3 C 0 km/h
2024 14-03-2005 06:27:03 3.4 C 3.73 g/m*3 3.4 C 0 km/h
2025 14-03-2005 06:37:02 3.4 C 3.66 g/m*3 3.4 C 0 km/h
Sensor: Nr:Datum:Temp:Abs-Feuchte:Windchill:Wind:
Aussen-T/F 2026 14-03-2005 06:47:02 3.5 C 3.69 g/m*3 3.5 C 0 km/h
2027 14-03-2005 06:57:02 3.4 C 3.66 g/m*3 3.4 C 0 km/h
2028 14-03-2005 07:07:02 3.4 C 3.66 g/m*3 3.4 C 0 km/h
2029 14-03-2005 07:17:02 3.4 C 3.66 g/m*3 3.4 C 0 km/h
2030 14-03-2005 07:27:02 3.5 C 3.69 g/m*3 3.5 C 0 km/h
2031 14-03-2005 07:37:02 3.4 C 3.66 g/m*3 3.4 C 0 km/h
2032 14-03-2005 07:47:02 3.5 C 3.69 g/m*3 3.5 C 0 km/h
2033 14-03-2005 07:57:02 3.5 C 3.69 g/m*3 3.5 C 0 km/h
2034 14-03-2005 08:07:03 3.6 C 3.71 g/m*3 3.6 C 0 km/h
2035 14-03-2005 08:17:02 3.7 C 3.68 g/m*3 3.7 C 0 km/h
2036 14-03-2005 08:27:02 3.8 C 3.7 g/m*3 3.8 C 0 km/h
2037 14-03-2005 08:37:02 4 C 3.56 g/m*3 4 C 0 km/h
2038 14-03-2005 08:47:01 4.2 C 3.54 g/m*3 4.2 C 0 km/h
2039 14-03-2005 08:57:01 4.3 C 3.44 g/m*3 4.3 C 0 km/h
2040 14-03-2005 09:07:02 4.4 C 3.46 g/m*3 4.4 C 0 km/h
2041 14-03-2005 09:17:02 4.5 C 3.48 g/m*3 4.5 C 0 km/h
2042 14-03-2005 09:27:02 4.8 C 3.49 g/m*3 4.8 C 0 km/h
2043 14-03-2005 09:37:02 4.9 C 3.44 g/m*3 4.9 C 0 km/h
2044 14-03-2005 09:47:02 5.2 C 3.44 g/m*3 5.2 C 0 km/h
2045 14-03-2005 09:57:02 5.5 C 3.37 g/m*3 5.5 C 0 km/h
2046 14-03-2005 10:07:02 5.7 C 3.34 g/m*3 5.7 C 0 km/h
2047 14-03-2005 10:17:02 5.9 C 3.32 g/m*3 5.9 C 0 km/h
2048 14-03-2005 10:27:02 6.3 C 3.33 g/m*3 6.3 C 0 km/h
2049 14-03-2005 10:37:02 6.4 C 3.2 g/m*3 6.4 C 0 km/h
2050 14-03-2005 10:47:02 6.5 C 3.22 g/m*3 6.5 C 0 km/h
Sensor: Nr:Datum:Temp:Abs-Feuchte:Windchill:Wind:
Aussen-T/F 2051 14-03-2005 10:57:02 6.6 C 3.17 g/m*3 6.6 C 0 km/h
2052 14-03-2005 11:07:02 6.9 C 3.16 g/m*3 6.9 C 0 km/h
2053 14-03-2005 11:17:02 7.1 C 3.2 g/m*3 7.1 C 0 km/h
2054 14-03-2005 11:27:02 7.3 C 3.16 g/m*3 7.3 C 0 km/h
2055 14-03-2005 11:37:02 7.3 C 3.16 g/m*3 7.3 C 0 km/h
2056 14-03-2005 11:47:02 7.6 C 3.3 g/m*3 7.6 C 0 km/h
2057 14-03-2005 11:57:02 8 C 3.31 g/m*3 8 C 0 km/h
2058 14-03-2005 12:07:02 8 C 3.31 g/m*3 8 C 0 km/h
2059 14-03-2005 12:17:02 8.1 C 3.33 g/m*3 8.1 C 0 km/h
2060 14-03-2005 12:27:02 8.5 C 3.24 g/m*3 8.5 C 0 km/h
2061 14-03-2005 12:37:02 8.6 C 3.35 g/m*3 8.6 C 0 km/h
2062 14-03-2005 12:47:01 8.8 C 3.31 g/m*3 8.8 C 0 km/h
2063 14-03-2005 12:57:01 8.6 C 3.18 g/m*3 8.6 C 0 km/h
2064 14-03-2005 13:07:02 8.9 C 3.24 g/m*3 8.9 C 0 km/h
2065 14-03-2005 13:17:02 8.6 C 3.09 g/m*3 8.6 C 0 km/h
2066 14-03-2005 13:27:02 9 C 3.17 g/m*3 9 C 0 km/h
2067 14-03-2005 13:37:01 9 C 3 g/m*3 9 C 0 km/h
2068 14-03-2005 13:47:01 8.6 C 3.01 g/m*3 8.6 C 0 km/h
2069 14-03-2005 13:57:01 8.6 C 3.01 g/m*3 8.6 C 0 km/h
2070 14-03-2005 14:07:02 8.7 C 2.94 g/m*3 8.7 C 0 km/h
2071 14-03-2005 14:17:02 8.6 C 2.84 g/m*3 8.6 C 0 km/h
2072 14-03-2005 14:27:02 9 C 2.82 g/m*3 9 C 0 km/h
2073 14-03-2005 14:37:02 9.1 C 2.66 g/m*3 9.1 C 0 km/h
2074 14-03-2005 14:47:02 9.1 C 2.48 g/m*3 9.1 C 0 km/h
2075 14-03-2005 14:57:02 9.2 C 2.68 g/m*3 9.2 C 0 km/h
Sensor: Nr:Datum:Temp:Abs-Feuchte:Windchill:Wind:
Aussen-T/F 2076 14-03-2005 15:07:02 9.3 C 2.7 g/m*3 9.3 C 0 km/h
2077 14-03-2005 15:17:02 9.5 C 2.73 g/m*3 9.5 C 0 km/h
2078 14-03-2005 15:27:03 9.3 C 2.7 g/m*3 9.3 C 0 km/h
2079 14-03-2005 15:37:02 9.1 C 2.66 g/m*3 9.1 C 0 km/h
2080 14-03-2005 15:47:01 9.3 C 2.7 g/m*3 9.3 C 0 km/h
2081 14-03-2005 15:57:01 9.2 C 2.68 g/m*3 9.2 C 0 km/h
2082 14-03-2005 16:07:02 9.2 C 2.77 g/m*3 9.2 C 0 km/h
2083 14-03-2005 16:17:01 9.2 C 2.77 g/m*3 9.2 C 0 km/h
2084 14-03-2005 16:27:02 8.9 C 2.72 g/m*3 8.9 C 0 km/h
2085 14-03-2005 16:37:01 8.8 C 2.7 g/m*3 8.8 C 0 km/h
2086 14-03-2005 16:47:01 8.8 C 2.87 g/m*3 8.8 C 0 km/h
2087 14-03-2005 16:57:01 8.7 C 2.77 g/m*3 8.7 C 0 km/h
2088 14-03-2005 17:07:02 8.6 C 2.84 g/m*3 8.6 C 0 km/h
2089 14-03-2005 17:17:02 8.6 C 2.84 g/m*3 8.6 C 0 km/h
2090 14-03-2005 17:27:02 8.5 C 2.9 g/m*3 8.5 C 0 km/h
2091 14-03-2005 17:37:01 8.4 C 2.97 g/m*3 8.4 C 0 km/h
2092 14-03-2005 17:47:02 8.4 C 3.14 g/m*3 8.4 C 0 km/h
2093 14-03-2005 17:57:02 8.1 C 3.49 g/m*3 8.1 C 0 km/h
2094 14-03-2005 18:07:02 7.8 C 3.59 g/m*3 7.8 C 0 km/h
2095 14-03-2005 18:17:02 7.5 C 3.6 g/m*3 7.5 C 0 km/h
2096 14-03-2005 18:27:02 7.1 C 3.59 g/m*3 7.1 C 0 km/h
2097 14-03-2005 18:37:02 6.9 C 3.54 g/m*3 6.9 C 0 km/h
2098 14-03-2005 18:47:02 6.6 C 3.4 g/m*3 6.6 C 0 km/h
2099 14-03-2005 18:57:02 6.5 C 3.37 g/m*3 6.5 C 0 km/h
2100 14-03-2005 19:07:03 6.5 C 3.45 g/m*3 6.5 C 0 km/h
Sensor: Nr:Datum:Temp:Abs-Feuchte:Windchill:Wind:
Aussen-T/F 2101 14-03-2005 19:17:02 6.4 C 3.5 g/m*3 6.4 C 0 km/h
2102 14-03-2005 19:27:03 6.4 C 3.5 g/m*3 6.4 C 0 km/h
2103 14-03-2005 19:37:02 6.1 C 3.58 g/m*3 6.1 C 0 km/h
2104 14-03-2005 19:47:01 6.1 C 3.51 g/m*3 6.1 C 0 km/h
2105 14-03-2005 19:57:01 6 C 3.56 g/m*3 6 C 0 km/h
2106 14-03-2005 20:07:02 5.9 C 3.68 g/m*3 5.9 C 0 km/h
2107 14-03-2005 20:17:02 5.9 C 3.61 g/m*3 5.9 C 0 km/h
2108 14-03-2005 20:27:02 5.9 C 3.68 g/m*3 5.9 C 0 km/h
2109 14-03-2005 20:37:01 5.9 C 3.53 g/m*3 5.9 C 0 km/h
2110 14-03-2005 20:47:02 5.8 C 3.58 g/m*3 5.8 C 0 km/h
2111 14-03-2005 20:57:02 5.8 C 3.8 g/m*3 5.8 C 0 km/h
2112 14-03-2005 21:07:02 5.7 C 3.77 g/m*3 5.7 C 0 km/h
2113 14-03-2005 21:17:01 5.6 C 3.75 g/m*3 5.6 C 0 km/h
2114 14-03-2005 21:27:01 5.5 C 3.65 g/m*3 5.5 C 0 km/h
2115 14-03-2005 21:37:02 5.4 C 3.77 g/m*3 5.4 C 0 km/h
2116 14-03-2005 21:47:01 5 C 3.67 g/m*3 5 C 0 km/h
2117 14-03-2005 21:57:01 4.7 C 3.66 g/m*3 4.7 C 0 km/h
2118 14-03-2005 22:07:02 4.5 C 3.68 g/m*3 4.5 C 0 km/h
2119 14-03-2005 22:17:02 4.4 C 3.53 g/m*3 4.4 C 0 km/h
2120 14-03-2005 22:27:02 4.4 C 3.4 g/m*3 4.4 C 0 km/h
2121 14-03-2005 22:37:01 4.4 C 3.4 g/m*3 4.4 C 0 km/h
2122 14-03-2005 22:47:02 4.3 C 3.44 g/m*3 4.3 C 0 km/h
2123 14-03-2005 22:57:02 4.2 C 3.54 g/m*3 4.2 C 0 km/h
2124 14-03-2005 23:07:02 4 C 3.56 g/m*3 4 C 0 km/h
2125 14-03-2005 23:17:02 3.8 C 3.58 g/m*3 3.8 C 0 km/h
Sensor: Nr:Datum:Temp:Abs-Feuchte:Windchill:Wind:
Aussen-T/F 2126 14-03-2005 23:27:02 3.8 C 3.58 g/m*3 3.8 C 0 km/h
2127 14-03-2005 23:37:02 3.9 C 3.6 g/m*3 3.9 C 0 km/h
2128 14-03-2005 23:47:01 4 C 3.5 g/m*3 4 C 0 km/h
2129 14-03-2005 23:57:01 4.3 C 3.5 g/m*3 4.3 C 0 km/h
2130 15-03-2005 00:07:01 4.4 C 3.46 g/m*3 4.4 C 0 km/h
2131 15-03-2005 00:17:02 4 C 3.56 g/m*3 4 C 0 km/h
2132 15-03-2005 00:27:02 4 C 3.5 g/m*3 4 C 0 km/h
2133 15-03-2005 00:37:01 3.9 C 3.54 g/m*3 3.9 C 0 km/h
2134 15-03-2005 00:47:03 3.7 C 3.55 g/m*3 3.7 C 0 km/h
2135 15-03-2005 00:57:03 3.5 C 3.57 g/m*3 3.5 C 0 km/h
2136 15-03-2005 01:07:02 3.3 C 3.58 g/m*3 3.3 C 0 km/h
2137 15-03-2005 01:17:03 3.3 C 3.64 g/m*3 3.3 C 0 km/h
2138 15-03-2005 01:27:03 3.3 C 3.64 g/m*3 3.3 C 0 km/h
2139 15-03-2005 01:37:03 3.4 C 3.54 g/m*3 3.4 C 0 km/h
2140 15-03-2005 01:47:02 3.1 C 3.59 g/m*3 3.1 C 0 km/h
2141 15-03-2005 01:57:02 3 C 3.63 g/m*3 3 C 0 km/h
2142 15-03-2005 02:07:02 3 C 3.63 g/m*3 3 C 0 km/h
2143 15-03-2005 02:17:02 2.9 C 3.72 g/m*3 2.9 C 0 km/h
2144 15-03-2005 02:27:02 2.9 C 3.66 g/m*3 2.9 C 0 km/h
2145 15-03-2005 02:37:02 2.8 C 3.7 g/m*3 2.8 C 0 km/h
2146 15-03-2005 02:48:03 2.7 C 3.67 g/m*3 2.7 C 0 km/h
2147 15-03-2005 02:58:03 2.6 C 3.65 g/m*3 2.6 C 0 km/h
2148 15-03-2005 03:08:03 2.7 C 3.67 g/m*3 2.7 C 0 km/h
2149 15-03-2005 03:18:04 2.5 C 3.62 g/m*3 2.5 C 0 km/h
2150 15-03-2005 03:28:04 2.2 C 3.66 g/m*3 2.2 C 0 km/h
Sensor: Nr:Datum:Temp:Abs-Feuchte:Windchill:Wind:
Aussen-T/F 2151 15-03-2005 03:38:02 2.1 C 3.64 g/m*3 2.1 C 0 km/h
2152 15-03-2005 03:48:02 2 C 3.61 g/m*3 2 C 0 km/h
2153 15-03-2005 03:58:02 1.8 C 3.67 g/m*3 1.8 C 0 km/h
2154 15-03-2005 04:08:02 1.5 C 3.6 g/m*3 1.5 C 0 km/h
2155 15-03-2005 04:18:02 1.3 C 3.6 g/m*3 1.3 C 0 km/h
2156 15-03-2005 04:28:02 1 C 3.58 g/m*3 1 C 0 km/h
2157 15-03-2005 04:38:02 0.8 C 3.58 g/m*3 0.8 C 0 km/h
2158 15-03-2005 04:48:02 0.6 C 3.59 g/m*3 0.6 C 0 km/h
2159 15-03-2005 04:58:02 0.5 C 3.56 g/m*3 0.5 C 0 km/h
2160 15-03-2005 05:08:02 0.4 C 3.59 g/m*3 0.4 C 0 km/h
2161 15-03-2005 05:18:02 0.4 C 3.64 g/m*3 0.4 C 0 km/h
2162 15-03-2005 05:28:03 0.4 C 3.64 g/m*3 0.4 C 0 km/h
2163 15-03-2005 05:38:02 0.4 C 3.64 g/m*3 0.4 C 0 km/h
2164 15-03-2005 05:48:02 0.4 C 3.64 g/m*3 0.4 C 0 km/h
2165 15-03-2005 05:58:02 0.3 C 3.61 g/m*3 0.3 C 0 km/h
2166 15-03-2005 06:08:02 0.2 C 3.59 g/m*3 0.2 C 0 km/h
2167 15-03-2005 06:18:01 0.2 C 3.68 g/m*3 0.2 C 0 km/h
2168 15-03-2005 06:28:02 0 C 3.63 g/m*3 0 C 0 km/h
2169 15-03-2005 06:38:01 -0.2 C 3.58 g/m*3 -0.2 C 0 km/h
2170 15-03-2005 06:48:01 -0.2 C 3.58 g/m*3 -0.2 C 0 km/h
2171 15-03-2005 06:58:01 -0.1 C 3.61 g/m*3 -0.1 C 0 km/h
2172 15-03-2005 07:08:01 0.1 C 3.66 g/m*3 0.1 C 0 km/h
2173 15-03-2005 07:18:02 0.4 C 3.69 g/m*3 0.4 C 0 km/h
2174 15-03-2005 07:28:02 0.5 C 3.66 g/m*3 0.5 C 0 km/h
2175 15-03-2005 07:38:01 0.6 C 3.64 g/m*3 0.6 C 0 km/h
Sensor: Nr:Datum:Temp:Abs-Feuchte:Windchill:Wind:
Aussen-T/F 2176 15-03-2005 07:48:02 0.8 C 3.69 g/m*3 0.8 C 0 km/h
2177 15-03-2005 07:58:02 1.3 C 3.6 g/m*3 1.3 C 0 km/h
2178 15-03-2005 08:08:02 1.3 C 3.6 g/m*3 1.3 C 0 km/h
2179 15-03-2005 08:18:02 1.3 C 3.6 g/m*3 1.3 C 0 km/h
2180 15-03-2005 08:28:02 1.5 C 3.65 g/m*3 1.5 C 0 km/h
2181 15-03-2005 08:38:02 1.9 C 3.64 g/m*3 1.9 C 0 km/h
2182 15-03-2005 08:48:01 2 C 3.56 g/m*3 2 C 0 km/h
2183 15-03-2005 08:58:01 2.4 C 3.65 g/m*3 2.4 C 0 km/h
2184 15-03-2005 09:08:01 2.7 C 3.61 g/m*3 2.7 C 0 km/h
2185 15-03-2005 09:18:02 3.1 C 3.59 g/m*3 3.1 C 0 km/h
2186 15-03-2005 09:28:02 3.5 C 3.63 g/m*3 3.5 C 0 km/h
2187 15-03-2005 09:38:01 3.9 C 3.66 g/m*3 3.9 C 0 km/h
2188 15-03-2005 09:48:01 4.3 C 3.63 g/m*3 4.3 C 0 km/h
2189 15-03-2005 09:58:01 4.6 C 3.64 g/m*3 4.6 C 0 km/h
2190 15-03-2005 10:08:02 5.1 C 3.63 g/m*3 5.1 C 0 km/h
2191 15-03-2005 10:18:02 5.5 C 3.65 g/m*3 5.5 C 0 km/h
2192 15-03-2005 10:28:02 6.1 C 3.58 g/m*3 6.1 C 0 km/h
2193 15-03-2005 10:38:02 6.6 C 3.55 g/m*3 6.6 C 0 km/h
2194 15-03-2005 10:48:02 7.1 C 3.51 g/m*3 7.1 C 0 km/h
2195 15-03-2005 10:58:02 7.6 C 3.63 g/m*3 7.6 C 0 km/h
2196 15-03-2005 11:08:03 8 C 3.55 g/m*3 8 C 0 km/h
2197 15-03-2005 11:18:02 8.3 C 3.54 g/m*3 8.3 C 0 km/h
2198 15-03-2005 11:28:02 8.5 C 3.59 g/m*3 8.5 C 0 km/h
2199 15-03-2005 11:38:02 8.7 C 3.55 g/m*3 8.7 C 0 km/h
2200 15-03-2005 11:48:01 9.1 C 3.55 g/m*3 9.1 C 0 km/h
Sensor: Nr:Datum:Temp:Abs-Feuchte:Windchill:Wind:
Aussen-T/F 2201 15-03-2005 11:58:01 9.3 C 3.59 g/m*3 9.3 C 0 km/h
2202 15-03-2005 12:08:02 9.5 C 3.55 g/m*3 9.5 C 0 km/h
2203 15-03-2005 12:18:02 9.9 C 3.55 g/m*3 9.9 C 0 km/h
2204 15-03-2005 12:28:02 10.2 C 3.52 g/m*3 10.2 C 0 km/h
2205 15-03-2005 12:38:02 10.6 C 3.61 g/m*3 10.6 C 0 km/h
2206 15-03-2005 12:48:02 10.9 C 3.58 g/m*3 10.9 C 0 km/h
2207 15-03-2005 12:58:02 11.1 C 3.53 g/m*3 11.1 C 0 km/h
2208 15-03-2005 13:08:02 11.5 C 3.51 g/m*3 11.5 C 0 km/h
2209 15-03-2005 13:18:02 11.7 C 3.56 g/m*3 11.7 C 0 km/h
2210 15-03-2005 13:28:02 12.2 C 3.45 g/m*3 12.2 C 0 km/h
2211 15-03-2005 13:38:02 12.5 C 3.41 g/m*3 12.5 C 0 km/h
2212 15-03-2005 13:48:01 12.7 C 3.45 g/m*3 12.7 C 0 km/h
2213 15-03-2005 13:58:01 13.1 C 3.42 g/m*3 13.1 C 0 km/h
2214 15-03-2005 14:08:02 13.3 C 3.47 g/m*3 13.3 C 0 km/h
2215 15-03-2005 14:18:02 13.6 C 3.53 g/m*3 13.6 C 0 km/h
2216 15-03-2005 14:28:02 13.9 C 3.36 g/m*3 13.9 C 0 km/h
2217 15-03-2005 14:38:02 14.1 C 3.52 g/m*3 14.1 C 0 km/h
2218 15-03-2005 14:48:02 14.3 C 3.44 g/m*3 14.3 C 0 km/h
2219 15-03-2005 14:58:02 14.5 C 3.48 g/m*3 14.5 C 0 km/h
2220 15-03-2005 15:08:03 14.5 C 3.48 g/m*3 14.5 C 0 km/h
2221 15-03-2005 15:18:02 14.4 C 3.34 g/m*3 14.4 C 0 km/h
2222 15-03-2005 15:28:02 14.6 C 3.38 g/m*3 14.6 C 0 km/h
2223 15-03-2005 15:38:02 15.1 C 3.48 g/m*3 15.1 C 0 km/h
2224 15-03-2005 15:48:01 15.1 C 3.48 g/m*3 15.1 C 0 km/h
2225 15-03-2005 15:58:01 15.2 C 3.5 g/m*3 15.2 C 0 km/h
Sensor: Nr:Datum:Temp:Abs-Feuchte:Windchill:Wind:
Aussen-T/F 2226 15-03-2005 16:08:02 15.5 C 3.57 g/m*3 15.5 C 0 km/h
2227 15-03-2005 16:18:02 15 C 3.46 g/m*3 15 C 0 km/h
2228 15-03-2005 16:28:02 15.1 C 3.61 g/m*3 15.1 C 0 km/h
2229 15-03-2005 16:38:02 15 C 3.59 g/m*3 15 C 0 km/h
2230 15-03-2005 16:48:02 15.2 C 3.63 g/m*3 15.2 C 0 km/h
2231 15-03-2005 16:58:02 14.9 C 3.82 g/m*3 14.9 C 0 km/h
2232 15-03-2005 17:08:02 14.9 C 3.82 g/m*3 14.9 C 0 km/h
2233 15-03-2005 17:18:02 15.1 C 3.87 g/m*3 15.1 C 0 km/h
2234 15-03-2005 17:28:02 14.6 C 3.75 g/m*3 14.6 C 0 km/h
2235 15-03-2005 17:38:02 14.7 C 3.9 g/m*3 14.7 C 0 km/h
2236 15-03-2005 17:48:01 14.4 C 3.96 g/m*3 14.4 C 0 km/h
2237 15-03-2005 17:58:01 13.7 C 4.14 g/m*3 13.7 C 0 km/h
2238 15-03-2005 18:08:02 13.4 C 4.07 g/m*3 13.4 C 0 km/h
2239 15-03-2005 18:18:02 13 C 3.97 g/m*3 13 C 0 km/h
2240 15-03-2005 18:28:02 12.5 C 4.18 g/m*3 12.5 C 0 km/h
2241 15-03-2005 18:38:02 11.5 C 4.34 g/m*3 11.5 C 0 km/h
2242 15-03-2005 18:48:03 11.3 C 4.39 g/m*3 11.3 C 0 km/h
2243 15-03-2005 18:58:03 11 C 4.5 g/m*3 11 C 0 km/h
2244 15-03-2005 19:08:03 10.9 C 4.38 g/m*3 10.9 C 0 km/h
2245 15-03-2005 19:18:02 10.8 C 4.45 g/m*3 10.8 C 0 km/h
2246 15-03-2005 19:28:02 10.4 C 4.43 g/m*3 10.4 C 0 km/h
2247 15-03-2005 19:38:02 10.2 C 4.47 g/m*3 10.2 C 0 km/h
2248 15-03-2005 19:48:01 10 C 4.6 g/m*3 10 C 0 km/h
2249 15-03-2005 19:58:01 9.6 C 4.58 g/m*3 9.6 C 0 km/h
2250 15-03-2005 20:08:02 9.5 C 4.64 g/m*3 9.5 C 0 km/h
Sensor: Nr:Datum:Temp:Abs-Feuchte:Windchill:Wind:
Aussen-T/F 2251 15-03-2005 20:18:01 9.3 C 4.58 g/m*3 9.3 C 0 km/h
2252 15-03-2005 20:28:01 9.2 C 4.64 g/m*3 9.2 C 0 km/h
2253 15-03-2005 20:38:02 9.2 C 4.64 g/m*3 9.2 C 0 km/h
2254 15-03-2005 20:48:02 9 C 4.76 g/m*3 9 C 0 km/h
2255 15-03-2005 20:58:02 8.8 C 4.87 g/m*3 8.8 C 0 km/h
2256 15-03-2005 21:08:03 8.7 C 4.76 g/m*3 8.7 C 0 km/h
2257 15-03-2005 21:18:03 8.5 C 4.78 g/m*3 8.5 C 0 km/h
2258 15-03-2005 21:28:03 8.4 C 4.75 g/m*3 8.4 C 0 km/h
2259 15-03-2005 21:38:02 8.4 C 4.75 g/m*3 8.4 C 0 km/h
2260 15-03-2005 21:48:01 8.4 C 4.67 g/m*3 8.4 C 0 km/h
2261 15-03-2005 21:58:01 8.5 C 4.7 g/m*3 8.5 C 0 km/h
2262 15-03-2005 22:08:02 8.4 C 4.75 g/m*3 8.4 C 0 km/h
2263 15-03-2005 22:18:01 8.4 C 4.75 g/m*3 8.4 C 0 km/h
2264 15-03-2005 22:28:01 8.2 C 4.86 g/m*3 8.2 C 0 km/h
2265 15-03-2005 22:38:01 8.1 C 4.83 g/m*3 8.1 C 0 km/h
2266 15-03-2005 22:48:01 8 C 4.8 g/m*3 8 C 0 km/h
2267 15-03-2005 22:58:01 7.8 C 4.98 g/m*3 7.8 C 0 km/h
2268 15-03-2005 23:08:02 7.7 C 4.95 g/m*3 7.7 C 0 km/h
2269 15-03-2005 23:18:02 7.5 C 4.96 g/m*3 7.5 C 0 km/h
2270 15-03-2005 23:28:02 7.5 C 4.96 g/m*3 7.5 C 0 km/h
2271 15-03-2005 23:38:02 7.3 C 4.98 g/m*3 7.3 C 0 km/h
2272 15-03-2005 23:48:02 7.3 C 4.9 g/m*3 7.3 C 0 km/h
2273 15-03-2005 23:58:02 8.2 C 4.86 g/m*3 8.2 C 0 km/h
2274 16-03-2005 00:08:02 8.4 C 4.67 g/m*3 8.4 C 0 km/h
2275 16-03-2005 00:18:03 8.1 C 4.66 g/m*3 8.1 C 0 km/h
Sensor: Nr:Datum:Temp:Abs-Feuchte:Windchill:Wind:
Aussen-T/F 2276 16-03-2005 00:28:03 8 C 4.63 g/m*3 8 C 0 km/h
2277 16-03-2005 00:38:02 7.9 C 4.76 g/m*3 7.9 C 0 km/h
2278 16-03-2005 00:48:02 7.8 C 4.73 g/m*3 7.8 C 0 km/h
2279 16-03-2005 00:58:02 7.9 C 4.76 g/m*3 7.9 C 0 km/h
2280 16-03-2005 01:08:02 8.1 C 4.74 g/m*3 8.1 C 0 km/h
2281 16-03-2005 01:18:02 8.3 C 4.8 g/m*3 8.3 C 0 km/h
2282 16-03-2005 01:28:02 8.3 C 4.8 g/m*3 8.3 C 0 km/h
2283 16-03-2005 01:38:02 8.1 C 4.74 g/m*3 8.1 C 0 km/h
2284 16-03-2005 01:48:02 8.1 C 4.83 g/m*3 8.1 C 0 km/h
2285 16-03-2005 01:58:02 8.2 C 4.94 g/m*3 8.2 C 0 km/h
2286 16-03-2005 02:08:01 8.5 C 4.95 g/m*3 8.5 C 0 km/h
2287 16-03-2005 02:18:03 8.5 C 4.87 g/m*3 8.5 C 0 km/h
2288 16-03-2005 02:28:03 8.4 C 4.92 g/m*3 8.4 C 0 km/h
2289 16-03-2005 02:38:02 8.2 C 4.86 g/m*3 8.2 C 0 km/h
2290 16-03-2005 02:49:04 8 C 4.88 g/m*3 8 C 0 km/h
2291 16-03-2005 02:59:04 7.8 C 4.9 g/m*3 7.8 C 0 km/h
2292 16-03-2005 03:09:04 7.9 C 4.93 g/m*3 7.9 C 0 km/h
2293 16-03-2005 03:19:04 7.9 C 4.93 g/m*3 7.9 C 0 km/h
2294 16-03-2005 03:29:05 7.9 C 4.93 g/m*3 7.9 C 0 km/h
2295 16-03-2005 03:39:02 8 C 4.96 g/m*3 8 C 0 km/h
2296 16-03-2005 03:49:02 8.4 C 5.01 g/m*3 8.4 C 0 km/h
2297 16-03-2005 03:59:02 7.9 C 4.93 g/m*3 7.9 C 0 km/h
2298 16-03-2005 04:09:02 7.8 C 4.98 g/m*3 7.8 C 0 km/h
2299 16-03-2005 04:19:02 7.9 C 5.01 g/m*3 7.9 C 0 km/h
2300 16-03-2005 04:29:02 7.9 C 5.01 g/m*3 7.9 C 0 km/h
Sensor: Nr:Datum:Temp:Abs-Feuchte:Windchill:Wind:
Aussen-T/F 2301 16-03-2005 04:39:01 7.9 C 4.93 g/m*3 7.9 C 0 km/h
2302 16-03-2005 04:49:02 7.8 C 4.98 g/m*3 7.8 C 0 km/h
2303 16-03-2005 04:59:02 7.7 C 4.95 g/m*3 7.7 C 0 km/h
2304 16-03-2005 05:09:01 7.5 C 4.96 g/m*3 7.5 C 0 km/h
2305 16-03-2005 05:19:02 7.3 C 4.98 g/m*3 7.3 C 0 km/h
2306 16-03-2005 05:29:02 7.2 C 5.02 g/m*3 7.2 C 0 km/h
2307 16-03-2005 05:39:02 7.2 C 5.02 g/m*3 7.2 C 0 km/h
2308 16-03-2005 05:49:01 6.9 C 5.08 g/m*3 6.9 C 0 km/h
2309 16-03-2005 05:59:01 6.5 C 5.02 g/m*3 6.5 C 0 km/h
2310 16-03-2005 06:09:02 6.2 C 5 g/m*3 6.2 C 0 km/h
2311 16-03-2005 06:19:02 6.4 C 5.07 g/m*3 6.4 C 0 km/h
2312 16-03-2005 06:29:02 6.5 C 5.1 g/m*3 6.5 C 0 km/h
2313 16-03-2005 06:39:01 6.7 C 5.17 g/m*3 6.7 C 0 km/h
2314 16-03-2005 06:49:02 6.7 C 5.17 g/m*3 6.7 C 0 km/h
2315 16-03-2005 06:59:02 6.8 C 5.2 g/m*3 6.8 C 0 km/h
2316 16-03-2005 07:09:02 6.8 C 5.2 g/m*3 6.8 C 0 km/h
2317 16-03-2005 07:19:02 6.7 C 5.24 g/m*3 6.7 C 0 km/h
2318 16-03-2005 07:29:02 6.7 C 5.24 g/m*3 6.7 C 0 km/h
2319 16-03-2005 07:39:02 6.8 C 5.28 g/m*3 6.8 C 0 km/h
2320 16-03-2005 07:49:02 6.9 C 5.23 g/m*3 6.9 C 0 km/h
2321 16-03-2005 07:59:02 7 C 5.19 g/m*3 7 C 0 km/h
2322 16-03-2005 08:09:02 7 C 5.42 g/m*3 7 C 0 km/h
2323 16-03-2005 08:19:02 7.2 C 5.42 g/m*3 7.2 C 0 km/h
2324 16-03-2005 08:29:02 7.2 C 5.42 g/m*3 7.2 C 0 km/h
2325 16-03-2005 08:39:02 7.2 C 5.42 g/m*3 7.2 C 0 km/h
Sensor: Nr:Datum:Temp:Abs-Feuchte:Windchill:Wind:
Aussen-T/F 2326 16-03-2005 08:49:02 7.5 C 5.52 g/m*3 7.5 C 0 km/h
2327 16-03-2005 08:59:02 8.2 C 5.61 g/m*3 8.2 C 0 km/h
2328 16-03-2005 09:09:03 9.3 C 5.75 g/m*3 9.3 C 0 km/h
2329 16-03-2005 09:19:02 9.9 C 5.7 g/m*3 9.9 C 0 km/h
2330 16-03-2005 09:29:02 10.4 C 5.59 g/m*3 10.4 C 0 km/h
2331 16-03-2005 09:39:02 10.7 C 5.7 g/m*3 10.7 C 0 km/h
2332 16-03-2005 09:49:01 11.1 C 5.64 g/m*3 11.1 C 0 km/h
2333 16-03-2005 09:59:01 11.3 C 5.71 g/m*3 11.3 C 0 km/h
2334 16-03-2005 10:09:01 11.6 C 5.82 g/m*3 11.6 C 0 km/h
2335 16-03-2005 10:19:01 12.1 C 5.79 g/m*3 12.1 C 0 km/h
2336 16-03-2005 10:29:01 12.5 C 5.72 g/m*3 12.5 C 0 km/h
2337 16-03-2005 10:39:01 13 C 5.78 g/m*3 13 C 0 km/h
2338 16-03-2005 10:49:02 13.3 C 5.78 g/m*3 13.3 C 0 km/h
2339 16-03-2005 10:59:02 13.5 C 5.85 g/m*3 13.5 C 0 km/h
2340 16-03-2005 11:09:01 14.1 C 5.95 g/m*3 14.1 C 0 km/h
2341 16-03-2005 11:19:01 14.7 C 6.04 g/m*3 14.7 C 0 km/h
2342 16-03-2005 11:29:01 15.1 C 5.93 g/m*3 15.1 C 0 km/h
2343 16-03-2005 11:39:02 15.6 C 5.98 g/m*3 15.6 C 0 km/h
2344 16-03-2005 11:49:02 16 C 5.99 g/m*3 16 C 0 km/h
2345 16-03-2005 11:59:02 16.4 C 6 g/m*3 16.4 C 0 km/h
2346 16-03-2005 12:09:02 16.8 C 6 g/m*3 16.8 C 0 km/h
2347 16-03-2005 12:19:02 17.2 C 6 g/m*3 17.2 C 0 km/h
2348 16-03-2005 12:29:02 17.6 C 6 g/m*3 17.6 C 0 km/h
2349 16-03-2005 12:39:02 18 C 5.99 g/m*3 18 C 0 km/h
2350 16-03-2005 12:49:01 18.4 C 5.98 g/m*3 18.4 C 0 km/h
Sensor: Nr:Datum:Temp:Abs-Feuchte:Windchill:Wind:
Aussen-T/F 2351 16-03-2005 12:59:01 18.7 C 6.08 g/m*3 18.7 C 0 km/h
2352 16-03-2005 13:09:02 18.9 C 6.16 g/m*3 18.9 C 0 km/h
2353 16-03-2005 13:19:02 19.2 C 6.1 g/m*3 19.2 C 0 km/h
2354 16-03-2005 13:29:02 19.5 C 6.21 g/m*3 19.5 C 0 km/h
2355 16-03-2005 13:39:01 19.8 C 6.32 g/m*3 19.8 C 0 km/h
2356 16-03-2005 13:49:01 20.1 C 6.08 g/m*3 20.1 C 0 km/h
2357 16-03-2005 13:59:01 20.3 C 5.98 g/m*3 20.3 C 0 km/h
2358 16-03-2005 14:09:02 20.4 C 6.01 g/m*3 20.4 C 0 km/h
2359 16-03-2005 14:19:02 20.6 C 6.09 g/m*3 20.6 C 0 km/h
2360 16-03-2005 14:29:02 20.9 C 6.01 g/m*3 20.9 C 0 km/h
2361 16-03-2005 14:39:02 21 C 5.68 g/m*3 21 C 0 km/h
2362 16-03-2005 14:49:01 21.1 C 5.9 g/m*3 21.1 C 0 km/h
2363 16-03-2005 14:59:01 21.4 C 6 g/m*3 21.4 C 0 km/h
2364 16-03-2005 15:09:02 21.5 C 6.03 g/m*3 21.5 C 0 km/h
2365 16-03-2005 15:19:02 21.1 C 5.71 g/m*3 21.1 C 0 km/h
2366 16-03-2005 15:29:02 21.1 C 5.9 g/m*3 21.1 C 0 km/h
2367 16-03-2005 15:39:01 21.4 C 6 g/m*3 21.4 C 0 km/h
2368 16-03-2005 15:49:01 21 C 6.05 g/m*3 21 C 0 km/h
2369 16-03-2005 15:59:01 20.9 C 6.01 g/m*3 20.9 C 0 km/h
2370 16-03-2005 16:09:02 20.8 C 5.98 g/m*3 20.8 C 0 km/h
2371 16-03-2005 16:19:01 21 C 6.05 g/m*3 21 C 0 km/h
2372 16-03-2005 16:29:02 21.3 C 5.96 g/m*3 21.3 C 0 km/h
2373 16-03-2005 16:39:01 21.1 C 5.9 g/m*3 21.1 C 0 km/h
2374 16-03-2005 16:49:02 20.5 C 6.23 g/m*3 20.5 C 0 km/h
2375 16-03-2005 16:59:03 20.5 C 6.23 g/m*3 20.5 C 0 km/h
Sensor: Nr:Datum:Temp:Abs-Feuchte:Windchill:Wind:
Aussen-T/F 2376 16-03-2005 17:09:01 20.6 C 6.44 g/m*3 20.6 C 0 km/h
2377 16-03-2005 17:19:02 20.5 C 6.41 g/m*3 20.5 C 0 km/h
2378 16-03-2005 17:29:02 20.4 C 6.19 g/m*3 20.4 C 0 km/h
2379 16-03-2005 17:39:02 20.2 C 6.47 g/m*3 20.2 C 0 km/h
2380 16-03-2005 17:49:02 20.2 C 6.12 g/m*3 20.2 C 0 km/h
2381 16-03-2005 17:59:02 20.2 C 6.29 g/m*3 20.2 C 0 km/h
2382 16-03-2005 18:09:03 19.7 C 6.45 g/m*3 19.7 C 0 km/h
2383 16-03-2005 18:19:02 19.1 C 6.39 g/m*3 19.1 C 0 km/h
2384 16-03-2005 18:29:02 18.1 C 6.33 g/m*3 18.1 C 0 km/h
2385 16-03-2005 18:39:02 17.4 C 6.08 g/m*3 17.4 C 0 km/h
2386 16-03-2005 18:49:01 16.8 C 6.15 g/m*3 16.8 C 0 km/h
2387 16-03-2005 18:59:01 16.3 C 6.1 g/m*3 16.3 C 0 km/h
2388 16-03-2005 19:09:02 15.8 C 6.06 g/m*3 15.8 C 0 km/h
2389 16-03-2005 19:19:02 15.5 C 6.08 g/m*3 15.5 C 0 km/h
2390 16-03-2005 19:29:02 15.2 C 5.97 g/m*3 15.2 C 0 km/h
2391 16-03-2005 19:39:01 15 C 6.03 g/m*3 15 C 0 km/h
2392 16-03-2005 19:49:01 14.6 C 6.01 g/m*3 14.6 C 0 km/h
2393 16-03-2005 19:59:01 14.4 C 6.06 g/m*3 14.4 C 0 km/h
2394 16-03-2005 20:09:01 14.1 C 5.95 g/m*3 14.1 C 0 km/h
2395 16-03-2005 20:19:02 13.9 C 6.11 g/m*3 13.9 C 0 km/h
2396 16-03-2005 20:29:02 13.7 C 6.04 g/m*3 13.7 C 0 km/h
2397 16-03-2005 20:39:02 13.5 C 6.08 g/m*3 13.5 C 0 km/h
2398 16-03-2005 20:49:01 13.4 C 6.04 g/m*3 13.4 C 0 km/h
2399 16-03-2005 20:59:01 13.1 C 6.05 g/m*3 13.1 C 0 km/h
2400 16-03-2005 21:09:02 13 C 6.12 g/m*3 13 C 0 km/h
Sensor: Nr:Datum:Temp:Abs-Feuchte:Windchill:Wind:
Aussen-T/F 2401 16-03-2005 21:19:01 12.7 C 6.23 g/m*3 12.7 C 0 km/h
2402 16-03-2005 21:29:01 12.4 C 6.34 g/m*3 12.4 C 0 km/h
2403 16-03-2005 21:39:02 12.2 C 6.15 g/m*3 12.2 C 0 km/h
2404 16-03-2005 21:49:02 13 C 5.9 g/m*3 13 C 0 km/h
2405 16-03-2005 21:59:02 13.3 C 5.78 g/m*3 13.3 C 0 km/h
2406 16-03-2005 22:09:02 13.2 C 5.86 g/m*3 13.2 C 0 km/h
2407 16-03-2005 22:19:02 13 C 5.9 g/m*3 13 C 0 km/h
2408 16-03-2005 22:29:02 13.1 C 5.82 g/m*3 13.1 C 0 km/h
2409 16-03-2005 22:39:02 12.9 C 5.97 g/m*3 12.9 C 0 km/h
2410 16-03-2005 22:49:03 12.7 C 6.12 g/m*3 12.7 C 0 km/h
2411 16-03-2005 22:59:03 12.5 C 6.16 g/m*3 12.5 C 0 km/h
2412 16-03-2005 23:09:03 12.2 C 6.15 g/m*3 12.2 C 0 km/h
2413 16-03-2005 23:19:02 11.8 C 6.21 g/m*3 11.8 C 0 km/h
2414 16-03-2005 23:29:02 11.9 C 6.25 g/m*3 11.9 C 0 km/h
2415 16-03-2005 23:39:03 11.7 C 6.17 g/m*3 11.7 C 0 km/h
2416 16-03-2005 23:49:02 11.6 C 6.13 g/m*3 11.6 C 0 km/h
2417 16-03-2005 23:59:02 11.5 C 6.2 g/m*3 11.5 C 0 km/h
2418 17-03-2005 00:09:02 11.4 C 6.16 g/m*3 11.4 C 0 km/h
2419 17-03-2005 00:19:03 11.3 C 6.22 g/m*3 11.3 C 0 km/h
2420 17-03-2005 00:29:03 11.1 C 6.25 g/m*3 11.1 C 0 km/h
2421 17-03-2005 00:39:02 10.8 C 6.33 g/m*3 10.8 C 0 km/h
2422 17-03-2005 00:49:02 10.6 C 6.25 g/m*3 10.6 C 0 km/h
2423 17-03-2005 00:59:02 10.6 C 6.15 g/m*3 10.6 C 0 km/h
2424 17-03-2005 01:09:02 10.4 C 6.07 g/m*3 10.4 C 0 km/h
2425 17-03-2005 01:19:02 10.2 C 6.09 g/m*3 10.2 C 0 km/h
Sensor: Nr:Datum:Temp:Abs-Feuchte:Windchill:Wind:
Aussen-T/F 2426 17-03-2005 01:29:02 10.4 C 6.07 g/m*3 10.4 C 0 km/h
2427 17-03-2005 01:39:02 10.2 C 6 g/m*3 10.2 C 0 km/h
2428 17-03-2005 01:49:02 9.9 C 6.07 g/m*3 9.9 C 0 km/h
2429 17-03-2005 01:59:02 10.1 C 5.96 g/m*3 10.1 C 0 km/h
2430 17-03-2005 02:09:01 11.5 C 6.2 g/m*3 11.5 C 0 km/h
2431 17-03-2005 02:19:02 11.8 C 6.1 g/m*3 11.8 C 0 km/h
2432 17-03-2005 02:29:02 12.2 C 5.94 g/m*3 12.2 C 0 km/h
2433 17-03-2005 02:39:02 12.4 C 6.01 g/m*3 12.4 C 0 km/h
2434 17-03-2005 02:50:04 12.4 C 6.01 g/m*3 12.4 C 0 km/h
2435 17-03-2005 03:00:04 12.5 C 5.94 g/m*3 12.5 C 0 km/h
2436 17-03-2005 03:10:04 12.6 C 5.97 g/m*3 12.6 C 0 km/h
2437 17-03-2005 03:20:04 12.8 C 6.05 g/m*3 12.8 C 0 km/h
2438 17-03-2005 03:30:04 12.9 C 5.97 g/m*3 12.9 C 0 km/h
2439 17-03-2005 03:40:02 12.4 C 6.01 g/m*3 12.4 C 0 km/h
2440 17-03-2005 03:50:02 12.4 C 6.01 g/m*3 12.4 C 0 km/h
2441 17-03-2005 04:00:02 12.2 C 5.94 g/m*3 12.2 C 0 km/h
2442 17-03-2005 04:10:02 12.1 C 5.9 g/m*3 12.1 C 0 km/h
2443 17-03-2005 04:20:02 11.7 C 6.07 g/m*3 11.7 C 0 km/h
2444 17-03-2005 04:30:02 11.6 C 6.03 g/m*3 11.6 C 0 km/h
2445 17-03-2005 04:40:02 11.5 C 5.99 g/m*3 11.5 C 0 km/h
2446 17-03-2005 04:50:03 11.3 C 6.02 g/m*3 11.3 C 0 km/h
2447 17-03-2005 05:00:03 11.6 C 6.13 g/m*3 11.6 C 0 km/h
2448 17-03-2005 05:10:03 11.7 C 6.07 g/m*3 11.7 C 0 km/h
2449 17-03-2005 05:20:02 11.8 C 6 g/m*3 11.8 C 0 km/h
2450 17-03-2005 05:30:02 11.7 C 6.07 g/m*3 11.7 C 0 km/h
Sensor: Nr:Datum:Temp:Abs-Feuchte:Windchill:Wind:
Aussen-T/F 2451 17-03-2005 05:40:03 11.6 C 6.03 g/m*3 11.6 C 0 km/h
2452 17-03-2005 05:50:03 11.2 C 5.98 g/m*3 11.2 C 0 km/h
2453 17-03-2005 06:00:03 10.5 C 6.01 g/m*3 10.5 C 0 km/h
2454 17-03-2005 06:10:02 10.3 C 6.03 g/m*3 10.3 C 0 km/h
2455 17-03-2005 06:20:02 10.1 C 6.15 g/m*3 10.1 C 0 km/h
2456 17-03-2005 06:30:02 9.9 C 6.16 g/m*3 9.9 C 0 km/h
2457 17-03-2005 06:40:02 10 C 6.2 g/m*3 10 C 0 km/h
2458 17-03-2005 06:50:02 10.1 C 6.15 g/m*3 10.1 C 0 km/h
2459 17-03-2005 07:00:02 10.1 C 6.15 g/m*3 10.1 C 0 km/h
2460 17-03-2005 07:10:03 10 C 6.2 g/m*3 10 C 0 km/h
2461 17-03-2005 07:20:02 9.8 C 6.31 g/m*3 9.8 C 0 km/h
2462 17-03-2005 07:30:02 9.9 C 6.35 g/m*3 9.9 C 0 km/h
2463 17-03-2005 07:40:02 10.1 C 6.34 g/m*3 10.1 C 0 km/h
2464 17-03-2005 07:50:01 10.4 C 6.46 g/m*3 10.4 C 0 km/h
2465 17-03-2005 08:00:01 10.7 C 6.58 g/m*3 10.7 C 0 km/h
2466 17-03-2005 08:10:02 10.8 C 6.52 g/m*3 10.8 C 0 km/h
2467 17-03-2005 08:20:02 11.2 C 6.28 g/m*3 11.2 C 0 km/h
2468 17-03-2005 08:30:02 11.4 C 6.47 g/m*3 11.4 C 0 km/h
2469 17-03-2005 08:40:01 11.7 C 6.48 g/m*3 11.7 C 0 km/h
2470 17-03-2005 08:50:01 11.8 C 6.63 g/m*3 11.8 C 0 km/h
2471 17-03-2005 09:00:01 12.2 C 6.69 g/m*3 12.2 C 0 km/h
2472 17-03-2005 09:10:02 12.5 C 6.71 g/m*3 12.5 C 0 km/h
2473 17-03-2005 09:20:02 12.9 C 6.88 g/m*3 12.9 C 0 km/h
2474 17-03-2005 09:30:03 13.3 C 6.93 g/m*3 13.3 C 0 km/h
2475 17-03-2005 09:40:01 13.6 C 7.18 g/m*3 13.6 C 0 km/h
Sensor: Nr:Datum:Temp:Abs-Feuchte:Windchill:Wind:
Aussen-T/F 2476 17-03-2005 09:50:01 14 C 7.24 g/m*3 14 C 0 km/h
2477 17-03-2005 10:00:01 14.2 C 7.2 g/m*3 14.2 C 0 km/h
2478 17-03-2005 10:10:01 14.3 C 7.25 g/m*3 14.3 C 0 km/h
2479 17-03-2005 10:20:01 14.4 C 7.29 g/m*3 14.4 C 0 km/h
2480 17-03-2005 10:30:01 14.9 C 7.39 g/m*3 14.9 C 0 km/h
2481 17-03-2005 10:40:02 14.8 C 7.47 g/m*3 14.8 C 0 km/h
2482 17-03-2005 10:50:02 14.9 C 7.52 g/m*3 14.9 C 0 km/h
2483 17-03-2005 11:00:02 15.3 C 7.44 g/m*3 15.3 C 0 km/h
2484 17-03-2005 11:10:02 15.5 C 7.4 g/m*3 15.5 C 0 km/h
2485 17-03-2005 11:20:02 15.7 C 7.49 g/m*3 15.7 C 0 km/h
2486 17-03-2005 11:30:02 15.8 C 7.4 g/m*3 15.8 C 0 km/h
2487 17-03-2005 11:40:02 15.8 C 7.4 g/m*3 15.8 C 0 km/h
2488 17-03-2005 11:50:01 16.6 C 7.35 g/m*3 16.6 C 0 km/h
2489 17-03-2005 12:00:01 17 C 7.23 g/m*3 17 C 0 km/h
2490 17-03-2005 12:10:01 17.3 C 7.37 g/m*3 17.3 C 0 km/h
2491 17-03-2005 12:20:01 17.2 C 7.32 g/m*3 17.2 C 0 km/h
2492 17-03-2005 12:30:01 17.8 C 7.29 g/m*3 17.8 C 0 km/h
2493 17-03-2005 12:40:02 18.5 C 7.28 g/m*3 18.5 C 0 km/h
2494 17-03-2005 12:50:02 18.5 C 6.49 g/m*3 18.5 C 0 km/h
2495 17-03-2005 13:00:02 18.3 C 6.57 g/m*3 18.3 C 0 km/h
2496 17-03-2005 13:10:03 18.2 C 6.37 g/m*3 18.2 C 0 km/h
2497 17-03-2005 13:20:02 18.3 C 6.41 g/m*3 18.3 C 0 km/h
2498 17-03-2005 13:30:02 18.1 C 6.33 g/m*3 18.1 C 0 km/h
2499 17-03-2005 13:40:02 18.5 C 6.49 g/m*3 18.5 C 0 km/h
2500 17-03-2005 13:50:01 18.6 C 6.53 g/m*3 18.6 C 0 km/h
Sensor: Nr:Datum:Temp:Abs-Feuchte:Windchill:Wind:
Aussen-T/F 2501 17-03-2005 14:00:01 18.5 C 6.49 g/m*3 18.5 C 0 km/h
2502 17-03-2005 14:10:02 18.5 C 6.49 g/m*3 18.5 C 0 km/h
2503 17-03-2005 14:20:02 18.6 C 6.53 g/m*3 18.6 C 0 km/h
2504 17-03-2005 14:30:03 18.6 C 6.37 g/m*3 18.6 C 0 km/h
2505 17-03-2005 14:40:01 18.7 C 6.4 g/m*3 18.7 C 0 km/h
2506 17-03-2005 14:50:02 18.8 C 6.6 g/m*3 18.8 C 0 km/h
2507 17-03-2005 15:00:02 19.5 C 6.71 g/m*3 19.5 C 0 km/h
2508 17-03-2005 15:10:02 19.3 C 6.3 g/m*3 19.3 C 0 km/h
2509 17-03-2005 15:20:02 20 C 6.39 g/m*3 20 C 0 km/h
2510 17-03-2005 15:30:02 20.2 C 6.47 g/m*3 20.2 C 0 km/h
2511 17-03-2005 15:40:02 20 C 6.22 g/m*3 20 C 0 km/h
2512 17-03-2005 15:50:01 19.8 C 5.98 g/m*3 19.8 C 0 km/h
2513 17-03-2005 16:00:01 19.5 C 6.21 g/m*3 19.5 C 0 km/h
2514 17-03-2005 16:10:02 19.2 C 5.94 g/m*3 19.2 C 0 km/h
2515 17-03-2005 16:20:02 19.4 C 6.17 g/m*3 19.4 C 0 km/h
2516 17-03-2005 16:30:02 19 C 6.19 g/m*3 19 C 0 km/h
2517 17-03-2005 16:40:01 19 C 6.36 g/m*3 19 C 0 km/h
2518 17-03-2005 16:50:02 18.9 C 6.48 g/m*3 18.9 C 0 km/h
2519 17-03-2005 17:00:02 19.1 C 6.23 g/m*3 19.1 C 0 km/h
2520 17-03-2005 17:10:01 19.1 C 6.39 g/m*3 19.1 C 0 km/h
2521 17-03-2005 17:20:02 18.6 C 6.53 g/m*3 18.6 C 0 km/h
2522 17-03-2005 17:30:02 18.6 C 6.53 g/m*3 18.6 C 0 km/h
2523 17-03-2005 17:40:02 18.3 C 6.57 g/m*3 18.3 C 0 km/h
2524 17-03-2005 17:50:02 18.2 C 6.68 g/m*3 18.2 C 0 km/h
2525 17-03-2005 18:00:02 18.2 C 6.53 g/m*3 18.2 C 0 km/h
Sensor: Nr:Datum:Temp:Abs-Feuchte:Windchill:Wind:
Aussen-T/F 2526 17-03-2005 18:10:02 18.2 C 6.37 g/m*3 18.2 C 0 km/h
2527 17-03-2005 18:20:02 17.7 C 6.49 g/m*3 17.7 C 0 km/h
2528 17-03-2005 18:30:02 17.6 C 6.45 g/m*3 17.6 C 0 km/h
2529 17-03-2005 18:40:02 17.5 C 6.71 g/m*3 17.5 C 0 km/h
2530 17-03-2005 18:50:02 17.1 C 6.55 g/m*3 17.1 C 0 km/h
2531 17-03-2005 19:00:02 17 C 6.66 g/m*3 17 C 0 km/h
2532 17-03-2005 19:10:03 16.6 C 6.64 g/m*3 16.6 C 0 km/h
2533 17-03-2005 19:20:02 16.4 C 6.7 g/m*3 16.4 C 0 km/h
2534 17-03-2005 19:30:02 16.1 C 6.72 g/m*3 16.1 C 0 km/h
2535 17-03-2005 19:40:02 15.9 C 6.77 g/m*3 15.9 C 0 km/h
2536 17-03-2005 19:50:02 15.6 C 6.78 g/m*3 15.6 C 0 km/h
2537 17-03-2005 20:00:02 15.4 C 6.83 g/m*3 15.4 C 0 km/h
2538 17-03-2005 20:10:02 15.1 C 6.84 g/m*3 15.1 C 0 km/h
2539 17-03-2005 20:20:02 14.6 C 7.01 g/m*3 14.6 C 0 km/h
2540 17-03-2005 20:30:02 14.3 C 7 g/m*3 14.3 C 0 km/h
2541 17-03-2005 20:40:02 14.2 C 7.08 g/m*3 14.2 C 0 km/h
2542 17-03-2005 20:50:01 14.1 C 7.16 g/m*3 14.1 C 0 km/h
2543 17-03-2005 21:00:01 14 C 7.24 g/m*3 14 C 0 km/h
2544 17-03-2005 21:10:02 14.1 C 7.28 g/m*3 14.1 C 0 km/h
2545 17-03-2005 21:20:02 14.1 C 7.28 g/m*3 14.1 C 0 km/h
2546 17-03-2005 21:30:02 14.2 C 7.33 g/m*3 14.2 C 0 km/h
2547 17-03-2005 21:40:02 14.4 C 7.29 g/m*3 14.4 C 0 km/h
2548 17-03-2005 21:50:02 14.6 C 7.26 g/m*3 14.6 C 0 km/h
2549 17-03-2005 22:00:02 14.6 C 7.26 g/m*3 14.6 C 0 km/h
2550 17-03-2005 22:10:02 14.6 C 7.26 g/m*3 14.6 C 0 km/h
Sensor: Nr:Datum:Temp:Abs-Feuchte:Windchill:Wind:
Aussen-T/F 2551 17-03-2005 22:20:02 14.6 C 7.26 g/m*3 14.6 C 0 km/h
2552 17-03-2005 22:30:03 14.9 C 7.14 g/m*3 14.9 C 0 km/h
2553 17-03-2005 22:40:02 14.7 C 7.05 g/m*3 14.7 C 0 km/h
2554 17-03-2005 22:50:01 14.7 C 7.05 g/m*3 14.7 C 0 km/h
2555 17-03-2005 23:00:01 14.6 C 7.13 g/m*3 14.6 C 0 km/h
2556 17-03-2005 23:10:02 14.2 C 6.96 g/m*3 14.2 C 0 km/h
2557 17-03-2005 23:20:01 14.4 C 7.05 g/m*3 14.4 C 0 km/h
2558 17-03-2005 23:30:01 14.3 C 7.13 g/m*3 14.3 C 0 km/h
2559 17-03-2005 23:40:01 14.1 C 7.04 g/m*3 14.1 C 0 km/h
2560 17-03-2005 23:50:01 14 C 7.24 g/m*3 14 C 0 km/h
2561 18-03-2005 00:00:01 13.8 C 7.27 g/m*3 13.8 C 0 km/h
2562 18-03-2005 00:10:01 13.7 C 7.46 g/m*3 13.7 C 0 km/h
2563 18-03-2005 00:20:03 13.7 C 7.58 g/m*3 13.7 C 0 km/h
2564 18-03-2005 00:30:03 13.6 C 7.77 g/m*3 13.6 C 0 km/h
2565 18-03-2005 00:40:01 13.5 C 7.84 g/m*3 13.5 C 0 km/h
2566 18-03-2005 00:50:02 13.4 C 7.79 g/m*3 13.4 C 0 km/h
2567 18-03-2005 01:00:02 13.2 C 7.81 g/m*3 13.2 C 0 km/h
2568 18-03-2005 01:10:02 13 C 7.83 g/m*3 13 C 0 km/h
2569 18-03-2005 01:20:02 13 C 7.83 g/m*3 13 C 0 km/h
2570 18-03-2005 01:30:02 13 C 7.83 g/m*3 13 C 0 km/h
2571 18-03-2005 01:40:02 13 C 7.83 g/m*3 13 C 0 km/h
2572 18-03-2005 01:50:02 13 C 7.71 g/m*3 13 C 0 km/h
2573 18-03-2005 02:00:02 12.8 C 7.73 g/m*3 12.8 C 0 km/h
2574 18-03-2005 02:10:02 12.8 C 7.73 g/m*3 12.8 C 0 km/h
2575 18-03-2005 02:20:03 12.7 C 7.79 g/m*3 12.7 C 0 km/h
Sensor: Nr:Datum:Temp:Abs-Feuchte:Windchill:Wind:
Aussen-T/F 2576 18-03-2005 02:30:03 12.5 C 7.7 g/m*3 12.5 C 0 km/h
2577 18-03-2005 02:40:03 12.5 C 7.7 g/m*3 12.5 C 0 km/h
2578 18-03-2005 02:51:03 12.4 C 7.65 g/m*3 12.4 C 0 km/h
2579 18-03-2005 03:01:03 12.2 C 7.66 g/m*3 12.2 C 0 km/h
2580 18-03-2005 03:11:04 12.1 C 7.61 g/m*3 12.1 C 0 km/h
2581 18-03-2005 03:21:04 11.9 C 7.63 g/m*3 11.9 C 0 km/h
2582 18-03-2005 03:31:02 11.6 C 7.59 g/m*3 11.6 C 0 km/h
2583 18-03-2005 03:41:02 11.5 C 7.64 g/m*3 11.5 C 0 km/h
2584 18-03-2005 03:51:02 11.3 C 7.55 g/m*3 11.3 C 0 km/h
2585 18-03-2005 04:01:02 11.2 C 7.6 g/m*3 11.2 C 0 km/h
2586 18-03-2005 04:11:02 11.1 C 7.55 g/m*3 11.1 C 0 km/h
2587 18-03-2005 04:21:02 11 C 7.51 g/m*3 11 C 0 km/h
2588 18-03-2005 04:31:02 11 C 7.51 g/m*3 11 C 0 km/h
2589 18-03-2005 04:41:02 10.9 C 7.56 g/m*3 10.9 C 0 km/h
2590 18-03-2005 04:51:02 10.7 C 7.56 g/m*3 10.7 C 0 km/h
2591 18-03-2005 05:01:02 10.6 C 7.52 g/m*3 10.6 C 0 km/h
2592 18-03-2005 05:11:02 10.4 C 7.52 g/m*3 10.4 C 0 km/h
2593 18-03-2005 05:21:02 10.3 C 7.47 g/m*3 10.3 C 0 km/h
2594 18-03-2005 05:31:02 10.2 C 7.42 g/m*3 10.2 C 0 km/h
2595 18-03-2005 05:41:02 10.2 C 7.42 g/m*3 10.2 C 0 km/h
2596 18-03-2005 05:51:03 10.2 C 7.42 g/m*3 10.2 C 0 km/h
2597 18-03-2005 06:01:02 10.1 C 7.38 g/m*3 10.1 C 0 km/h
2598 18-03-2005 06:11:02 9.9 C 7.47 g/m*3 9.9 C 0 km/h
2599 18-03-2005 06:21:02 9.7 C 7.38 g/m*3 9.7 C 0 km/h
2600 18-03-2005 06:31:02 9.5 C 7.37 g/m*3 9.5 C 0 km/h
Sensor: Nr:Datum:Temp:Abs-Feuchte:Windchill:Wind:
Aussen-T/F 2601 18-03-2005 06:41:02 9.5 C 7.37 g/m*3 9.5 C 0 km/h
2602 18-03-2005 06:51:01 9.3 C 7.37 g/m*3 9.3 C 0 km/h
2603 18-03-2005 07:01:02 9.3 C 7.37 g/m*3 9.3 C 0 km/h
2604 18-03-2005 07:11:02 9.4 C 7.51 g/m*3 9.4 C 0 km/h
2605 18-03-2005 07:21:02 9.4 C 7.51 g/m*3 9.4 C 0 km/h
2606 18-03-2005 07:31:02 9.3 C 7.46 g/m*3 9.3 C 0 km/h
2607 18-03-2005 07:41:02 9.3 C 7.46 g/m*3 9.3 C 0 km/h
2608 18-03-2005 07:51:02 9.4 C 7.51 g/m*3 9.4 C 0 km/h
2609 18-03-2005 08:01:02 9.5 C 7.55 g/m*3 9.5 C 0 km/h
2610 18-03-2005 08:11:02 9.6 C 7.6 g/m*3 9.6 C 0 km/h
2611 18-03-2005 08:21:02 9.8 C 7.7 g/m*3 9.8 C 0 km/h
2612 18-03-2005 08:31:02 9.8 C 7.61 g/m*3 9.8 C 0 km/h
2613 18-03-2005 08:41:02 10 C 7.61 g/m*3 10 C 0 km/h
2614 18-03-2005 08:51:01 10.1 C 7.56 g/m*3 10.1 C 0 km/h
2615 18-03-2005 09:01:02 10.4 C 7.61 g/m*3 10.4 C 0 km/h
2616 18-03-2005 09:11:02 10.8 C 7.71 g/m*3 10.8 C 0 km/h
2617 18-03-2005 09:21:02 11.1 C 7.55 g/m*3 11.1 C 0 km/h
2618 18-03-2005 09:31:02 11.4 C 7.6 g/m*3 11.4 C 0 km/h
2619 18-03-2005 09:41:03 11.6 C 7.59 g/m*3 11.6 C 0 km/h
2620 18-03-2005 09:51:02 11.8 C 7.58 g/m*3 11.8 C 0 km/h
2621 18-03-2005 10:01:02 12.2 C 7.45 g/m*3 12.2 C 0 km/h
2622 18-03-2005 10:11:02 12.5 C 7.26 g/m*3 12.5 C 0 km/h
2623 18-03-2005 10:21:02 13 C 7.14 g/m*3 13 C 0 km/h
2624 18-03-2005 10:31:02 13.2 C 7.12 g/m*3 13.2 C 0 km/h
2625 18-03-2005 10:41:02 13.4 C 7.09 g/m*3 13.4 C 0 km/h
Sensor: Nr:Datum:Temp:Abs-Feuchte:Windchill:Wind:
Aussen-T/F 2626 18-03-2005 10:51:01 13.7 C 6.99 g/m*3 13.7 C 0 km/h
2627 18-03-2005 11:01:02 14 C 6.75 g/m*3 14 C 0 km/h
2628 18-03-2005 11:11:02 14.1 C 6.67 g/m*3 14.1 C 0 km/h
2629 18-03-2005 11:21:02 14.3 C 6.76 g/m*3 14.3 C 0 km/h
2630 18-03-2005 11:31:02 14.5 C 6.72 g/m*3 14.5 C 0 km/h
2631 18-03-2005 11:41:02 14.9 C 6.88 g/m*3 14.9 C 0 km/h
2632 18-03-2005 11:51:01 15.2 C 6.75 g/m*3 15.2 C 0 km/h
2633 18-03-2005 12:01:02 15.6 C 6.78 g/m*3 15.6 C 0 km/h
2634 18-03-2005 12:11:02 15.7 C 6.69 g/m*3 15.7 C 0 km/h
2635 18-03-2005 12:21:01 16.2 C 6.76 g/m*3 16.2 C 0 km/h
2636 18-03-2005 12:31:01 16.5 C 6.6 g/m*3 16.5 C 0 km/h
2637 18-03-2005 12:41:01 16.9 C 6.62 g/m*3 16.9 C 0 km/h
2638 18-03-2005 12:51:01 17.2 C 6.59 g/m*3 17.2 C 0 km/h
2639 18-03-2005 13:01:02 17.7 C 6.34 g/m*3 17.7 C 0 km/h
2640 18-03-2005 13:11:03 18 C 6.45 g/m*3 18 C 0 km/h
2641 18-03-2005 13:21:02 18.4 C 6.29 g/m*3 18.4 C 0 km/h
2642 18-03-2005 13:31:01 18.8 C 6.28 g/m*3 18.8 C 0 km/h
2643 18-03-2005 13:41:01 18.9 C 6.32 g/m*3 18.9 C 0 km/h
2644 18-03-2005 13:51:02 19.2 C 6.1 g/m*3 19.2 C 0 km/h
2645 18-03-2005 14:01:02 19.6 C 6.25 g/m*3 19.6 C 0 km/h
2646 18-03-2005 14:11:02 19.8 C 6.15 g/m*3 19.8 C 0 km/h
2647 18-03-2005 14:21:02 20.4 C 6.19 g/m*3 20.4 C 0 km/h
2648 18-03-2005 14:31:02 20.8 C 6.34 g/m*3 20.8 C 0 km/h
2649 18-03-2005 14:41:02 21.2 C 5.93 g/m*3 21.2 C 0 km/h
2650 18-03-2005 14:51:02 21.5 C 6.03 g/m*3 21.5 C 0 km/h
Sensor: Nr:Datum:Temp:Abs-Feuchte:Windchill:Wind:
Aussen-T/F 2651 18-03-2005 15:01:03 21.8 C 6.72 g/m*3 21.8 C 0 km/h
2652 18-03-2005 15:11:03 21.6 C 6.64 g/m*3 21.6 C 0 km/h
2653 18-03-2005 15:21:02 21.4 C 6.56 g/m*3 21.4 C 0 km/h
2654 18-03-2005 15:31:02 21.7 C 6.68 g/m*3 21.7 C 0 km/h
2655 18-03-2005 15:41:03 22.5 C 6.79 g/m*3 22.5 C 0 km/h
2656 18-03-2005 15:51:01 23 C 6.37 g/m*3 23 C 0 km/h
2657 18-03-2005 16:01:02 22.3 C 6.32 g/m*3 22.3 C 0 km/h
2658 18-03-2005 16:11:02 22.2 C 6.48 g/m*3 22.2 C 0 km/h
2659 18-03-2005 16:21:02 21 C 6.41 g/m*3 21 C 0 km/h
2660 18-03-2005 16:31:02 20.4 C 6.55 g/m*3 20.4 C 0 km/h
2661 18-03-2005 16:41:02 20.8 C 6.7 g/m*3 20.8 C 0 km/h
2662 18-03-2005 16:51:02 21.3 C 6.52 g/m*3 21.3 C 0 km/h
2663 18-03-2005 17:01:02 20.8 C 6.7 g/m*3 20.8 C 0 km/h
2664 18-03-2005 17:11:03 20.3 C 6.51 g/m*3 20.3 C 0 km/h
2665 18-03-2005 17:21:02 19.5 C 6.55 g/m*3 19.5 C 0 km/h
2666 18-03-2005 17:31:03 19.7 C 6.62 g/m*3 19.7 C 0 km/h
2667 18-03-2005 17:41:03 19.7 C 6.79 g/m*3 19.7 C 0 km/h
2668 18-03-2005 17:51:02 19.3 C 6.8 g/m*3 19.3 C 0 km/h
2669 18-03-2005 18:01:02 19 C 6.68 g/m*3 19 C 0 km/h
2670 18-03-2005 18:11:02 18.8 C 6.93 g/m*3 18.8 C 0 km/h
2671 18-03-2005 18:21:02 18.5 C 6.96 g/m*3 18.5 C 0 km/h
2672 18-03-2005 18:31:02 18.2 C 6.99 g/m*3 18.2 C 0 km/h
2673 18-03-2005 18:41:02 18.2 C 7.15 g/m*3 18.2 C 0 km/h
2674 18-03-2005 18:51:01 18 C 7.22 g/m*3 18 C 0 km/h
2675 18-03-2005 19:01:02 17.5 C 7.31 g/m*3 17.5 C 0 km/h
Sensor: Nr:Datum:Temp:Abs-Feuchte:Windchill:Wind:
Aussen-T/F 2676 18-03-2005 19:11:02 17.1 C 7.28 g/m*3 17.1 C 0 km/h
2677 18-03-2005 19:21:02 16.8 C 7.58 g/m*3 16.8 C 0 km/h
2678 18-03-2005 19:31:01 16.4 C 7.54 g/m*3 16.4 C 0 km/h
2679 18-03-2005 19:41:01 16.2 C 7.58 g/m*3 16.2 C 0 km/h
2680 18-03-2005 19:51:02 15.9 C 7.72 g/m*3 15.9 C 0 km/h
2681 18-03-2005 20:01:02 15.8 C 7.67 g/m*3 15.8 C 0 km/h
2682 18-03-2005 20:11:02 15.7 C 7.63 g/m*3 15.7 C 0 km/h
2683 18-03-2005 20:21:02 15.7 C 7.76 g/m*3 15.7 C 0 km/h
2684 18-03-2005 20:31:02 15.6 C 7.58 g/m*3 15.6 C 0 km/h
2685 18-03-2005 20:41:03 15.6 C 7.71 g/m*3 15.6 C 0 km/h
2686 18-03-2005 20:51:01 15.5 C 7.67 g/m*3 15.5 C 0 km/h
2687 18-03-2005 21:01:02 15.2 C 7.66 g/m*3 15.2 C 0 km/h
2688 18-03-2005 21:11:02 15.1 C 7.61 g/m*3 15.1 C 0 km/h
2689 18-03-2005 21:21:02 15 C 7.57 g/m*3 15 C 0 km/h
2690 18-03-2005 21:31:01 14.7 C 7.55 g/m*3 14.7 C 0 km/h
2691 18-03-2005 21:41:01 14.6 C 7.63 g/m*3 14.6 C 0 km/h
2692 18-03-2005 21:51:02 14.6 C 7.76 g/m*3 14.6 C 0 km/h
2693 18-03-2005 22:01:02 14.5 C 7.71 g/m*3 14.5 C 0 km/h
2694 18-03-2005 22:11:02 14.4 C 7.79 g/m*3 14.4 C 0 km/h
2695 18-03-2005 22:21:02 14.5 C 7.84 g/m*3 14.5 C 0 km/h
2696 18-03-2005 22:31:02 14.6 C 7.76 g/m*3 14.6 C 0 km/h
2697 18-03-2005 22:41:02 14.7 C 7.81 g/m*3 14.7 C 0 km/h
2698 18-03-2005 22:51:02 14.7 C 7.93 g/m*3 14.7 C 0 km/h
2699 18-03-2005 23:01:02 14.6 C 7.88 g/m*3 14.6 C 0 km/h
2700 18-03-2005 23:11:02 14.5 C 7.96 g/m*3 14.5 C 0 km/h
Sensor: Nr:Datum:Temp:Abs-Feuchte:Windchill:Wind:
Aussen-T/F 2701 18-03-2005 23:21:02 14.6 C 8.01 g/m*3 14.6 C 0 km/h
2702 18-03-2005 23:31:02 14.5 C 7.96 g/m*3 14.5 C 0 km/h
2703 18-03-2005 23:41:03 14.5 C 8.21 g/m*3 14.5 C 0 km/h
2704 18-03-2005 23:51:01 14.5 C 8.33 g/m*3 14.5 C 0 km/h
2705 19-03-2005 00:01:02 14.5 C 8.33 g/m*3 14.5 C 0 km/h
2706 19-03-2005 00:11:02 14.4 C 8.28 g/m*3 14.4 C 0 km/h
2707 19-03-2005 00:21:03 14.4 C 8.41 g/m*3 14.4 C 0 km/h
2708 19-03-2005 00:31:02 14.2 C 8.43 g/m*3 14.2 C 0 km/h
2709 19-03-2005 00:41:02 14.1 C 8.5 g/m*3 14.1 C 0 km/h
2710 19-03-2005 00:51:02 14 C 8.44 g/m*3 14 C 0 km/h
2711 19-03-2005 01:01:01 13.9 C 8.39 g/m*3 13.9 C 0 km/h
2712 19-03-2005 01:11:01 13.8 C 8.34 g/m*3 13.8 C 0 km/h
2713 19-03-2005 01:21:02 13.8 C 8.34 g/m*3 13.8 C 0 km/h
2714 19-03-2005 01:31:02 13.9 C 8.39 g/m*3 13.9 C 0 km/h
2715 19-03-2005 01:41:02 13.8 C 8.34 g/m*3 13.8 C 0 km/h
2716 19-03-2005 01:51:03 13.7 C 8.29 g/m*3 13.7 C 0 km/h
2717 19-03-2005 02:01:02 13.7 C 8.29 g/m*3 13.7 C 0 km/h
2718 19-03-2005 02:11:02 13.7 C 8.29 g/m*3 13.7 C 0 km/h
2719 19-03-2005 02:21:03 13.5 C 8.19 g/m*3 13.5 C 0 km/h
2720 19-03-2005 02:31:02 13.4 C 8.14 g/m*3 13.4 C 0 km/h
2721 19-03-2005 02:41:02 13.4 C 8.14 g/m*3 13.4 C 0 km/h
2722 19-03-2005 02:52:03 13.5 C 8.07 g/m*3 13.5 C 0 km/h
2723 19-03-2005 03:02:03 13.5 C 8.07 g/m*3 13.5 C 0 km/h
2724 19-03-2005 03:12:03 13.4 C 8.02 g/m*3 13.4 C 0 km/h
2725 19-03-2005 03:22:03 13.4 C 8.14 g/m*3 13.4 C 0 km/h
Sensor: Nr:Datum:Temp:Abs-Feuchte:Windchill:Wind:
Aussen-T/F 2726 19-03-2005 03:32:03 13.5 C 8.19 g/m*3 13.5 C 0 km/h
2727 19-03-2005 03:42:03 13.5 C 8.19 g/m*3 13.5 C 0 km/h
2728 19-03-2005 03:52:03 13.4 C 8.14 g/m*3 13.4 C 0 km/h
2729 19-03-2005 04:02:02 13.5 C 8.19 g/m*3 13.5 C 0 km/h
2730 19-03-2005 04:12:02 13.5 C 8.3 g/m*3 13.5 C 0 km/h
2731 19-03-2005 04:22:02 13.5 C 8.3 g/m*3 13.5 C 0 km/h
2732 19-03-2005 04:32:03 13.4 C 8.25 g/m*3 13.4 C 0 km/h
2733 19-03-2005 04:42:03 13.5 C 8.3 g/m*3 13.5 C 0 km/h
2734 19-03-2005 04:52:02 13.4 C 8.25 g/m*3 13.4 C 0 km/h
2735 19-03-2005 05:02:02 13.4 C 8.37 g/m*3 13.4 C 0 km/h
2736 19-03-2005 05:12:02 13.4 C 8.37 g/m*3 13.4 C 0 km/h
2737 19-03-2005 05:22:02 13.4 C 8.37 g/m*3 13.4 C 0 km/h
2738 19-03-2005 05:32:02 13.4 C 8.49 g/m*3 13.4 C 0 km/h
2739 19-03-2005 05:42:02 13.3 C 8.43 g/m*3 13.3 C 0 km/h
2740 19-03-2005 05:52:01 13.3 C 8.43 g/m*3 13.3 C 0 km/h
2741 19-03-2005 06:02:02 13.3 C 8.43 g/m*3 13.3 C 0 km/h
2742 19-03-2005 06:12:02 13.3 C 8.43 g/m*3 13.3 C 0 km/h
2743 19-03-2005 06:22:02 13.2 C 8.38 g/m*3 13.2 C 0 km/h
2744 19-03-2005 06:32:01 13.2 C 8.38 g/m*3 13.2 C 0 km/h
2745 19-03-2005 06:42:01 13.2 C 8.38 g/m*3 13.2 C 0 km/h
2746 19-03-2005 06:52:02 13.2 C 8.38 g/m*3 13.2 C 0 km/h
2747 19-03-2005 07:02:02 13.2 C 8.38 g/m*3 13.2 C 0 km/h
2748 19-03-2005 07:12:02 13.2 C 8.5 g/m*3 13.2 C 0 km/h
2749 19-03-2005 07:22:01 13.2 C 8.5 g/m*3 13.2 C 0 km/h
2750 19-03-2005 07:32:02 13.2 C 8.61 g/m*3 13.2 C 0 km/h
Sensor: Nr:Datum:Temp:Abs-Feuchte:Windchill:Wind:
Aussen-T/F 2751 19-03-2005 07:42:02 13.1 C 8.67 g/m*3 13.1 C 0 km/h
2752 19-03-2005 07:52:01 13.2 C 8.73 g/m*3 13.2 C 0 km/h
2753 19-03-2005 08:02:02 13.2 C 8.73 g/m*3 13.2 C 0 km/h
2754 19-03-2005 08:12:02 13.2 C 8.73 g/m*3 13.2 C 0 km/h
2755 19-03-2005 08:22:02 13.3 C 8.66 g/m*3 13.3 C 0 km/h
2756 19-03-2005 08:32:01 13.3 C 8.66 g/m*3 13.3 C 0 km/h
2757 19-03-2005 08:42:02 13.2 C 8.61 g/m*3 13.2 C 0 km/h
2758 19-03-2005 08:52:01 13.4 C 8.6 g/m*3 13.4 C 0 km/h
2759 19-03-2005 09:02:02 13.4 C 8.6 g/m*3 13.4 C 0 km/h
2760 19-03-2005 09:12:02 13.4 C 8.6 g/m*3 13.4 C 0 km/h
2761 19-03-2005 09:22:02 13.6 C 8.59 g/m*3 13.6 C 0 km/h
2762 19-03-2005 09:32:02 13.5 C 8.54 g/m*3 13.5 C 0 km/h
2763 19-03-2005 09:42:02 13.8 C 8.7 g/m*3 13.8 C 0 km/h
2764 19-03-2005 09:52:02 14 C 8.68 g/m*3 14 C 0 km/h
2765 19-03-2005 10:02:02 14.1 C 8.62 g/m*3 14.1 C 0 km/h
2766 19-03-2005 10:12:02 14.1 C 8.62 g/m*3 14.1 C 0 km/h
2767 19-03-2005 10:22:02 14.1 C 8.62 g/m*3 14.1 C 0 km/h
2768 19-03-2005 10:32:02 14.2 C 8.79 g/m*3 14.2 C 0 km/h
2769 19-03-2005 10:42:02 14.2 C 8.67 g/m*3 14.2 C 0 km/h
2770 19-03-2005 10:52:02 14.4 C 8.78 g/m*3 14.4 C 0 km/h
2771 19-03-2005 11:02:02 14.6 C 8.76 g/m*3 14.6 C 0 km/h
2772 19-03-2005 11:12:02 14.7 C 8.81 g/m*3 14.7 C 0 km/h
2773 19-03-2005 11:22:02 14.8 C 8.74 g/m*3 14.8 C 0 km/h
2774 19-03-2005 11:32:02 14.5 C 8.58 g/m*3 14.5 C 0 km/h
2775 19-03-2005 11:42:02 14.7 C 8.56 g/m*3 14.7 C 0 km/h
Sensor: Nr:Datum:Temp:Abs-Feuchte:Windchill:Wind:
Aussen-T/F 2776 19-03-2005 11:52:02 14.4 C 8.53 g/m*3 14.4 C 0 km/h
2777 19-03-2005 12:02:02 14.3 C 8.6 g/m*3 14.3 C 0 km/h
2778 19-03-2005 12:12:02 14.3 C 8.6 g/m*3 14.3 C 0 km/h
2779 19-03-2005 12:22:02 14 C 8.56 g/m*3 14 C 0 km/h
2780 19-03-2005 12:32:02 14.1 C 8.62 g/m*3 14.1 C 0 km/h
2781 19-03-2005 12:42:02 14.2 C 8.79 g/m*3 14.2 C 0 km/h
2782 19-03-2005 12:52:02 14.1 C 8.62 g/m*3 14.1 C 0 km/h
2783 19-03-2005 13:02:02 14.1 C 8.74 g/m*3 14.1 C 0 km/h
2784 19-03-2005 13:12:02 14.2 C 8.79 g/m*3 14.2 C 0 km/h
2785 19-03-2005 13:22:02 14.3 C 8.72 g/m*3 14.3 C 0 km/h
2786 19-03-2005 13:32:02 14 C 8.81 g/m*3 14 C 0 km/h
2787 19-03-2005 13:42:02 13.5 C 9.01 g/m*3 13.5 C 0 km/h
2788 19-03-2005 13:52:02 13.5 C 9.12 g/m*3 13.5 C 0 km/h
2789 19-03-2005 14:02:02 13.8 C 9.17 g/m*3 13.8 C 0 km/h
2790 19-03-2005 14:12:02 14.1 C 9.1 g/m*3 14.1 C 0 km/h
2791 19-03-2005 14:22:02 14.2 C 8.91 g/m*3 14.2 C 0 km/h
2792 19-03-2005 14:32:02 14.2 C 8.79 g/m*3 14.2 C 0 km/h
2793 19-03-2005 14:42:02 14.3 C 8.72 g/m*3 14.3 C 0 km/h
2794 19-03-2005 14:52:01 14.7 C 8.69 g/m*3 14.7 C 0 km/h
2795 19-03-2005 15:02:01 14.6 C 8.51 g/m*3 14.6 C 0 km/h
2796 19-03-2005 15:12:01 14.5 C 8.58 g/m*3 14.5 C 0 km/h
2797 19-03-2005 15:22:01 14.2 C 8.55 g/m*3 14.2 C 0 km/h
2798 19-03-2005 15:32:02 14.1 C 8.5 g/m*3 14.1 C 0 km/h
2799 19-03-2005 15:42:02 14.3 C 8.48 g/m*3 14.3 C 0 km/h
2800 19-03-2005 15:52:02 14.3 C 8.35 g/m*3 14.3 C 0 km/h
Sensor: Nr:Datum:Temp:Abs-Feuchte:Windchill:Wind:
Aussen-T/F 2801 19-03-2005 16:02:49 14.4 C 8.41 g/m*3 14.4 C 0 km/h
2802 19-03-2005 16:12:01 14.5 C 8.46 g/m*3 14.5 C 0 km/h
2803 19-03-2005 16:22:02 14.2 C 8.43 g/m*3 14.2 C 0 km/h
2804 19-03-2005 16:32:02 14.2 C 8.43 g/m*3 14.2 C 0 km/h
2805 19-03-2005 16:42:02 14.1 C 8.25 g/m*3 14.1 C 0 km/h
2806 19-03-2005 16:52:01 14.1 C 8.37 g/m*3 14.1 C 0 km/h
2807 19-03-2005 17:02:02 14 C 8.32 g/m*3 14 C 0 km/h
2808 19-03-2005 17:12:02 13.9 C 8.51 g/m*3 13.9 C 0 km/h
2809 19-03-2005 17:22:01 13.8 C 8.46 g/m*3 13.8 C 0 km/h
2810 19-03-2005 17:32:02 13.7 C 8.53 g/m*3 13.7 C 0 km/h
2811 19-03-2005 17:42:02 13.6 C 8.47 g/m*3 13.6 C 0 km/h
2812 19-03-2005 17:52:02 13.4 C 8.49 g/m*3 13.4 C 0 km/h
2813 19-03-2005 18:02:02 13.3 C 8.55 g/m*3 13.3 C 0 km/h
2814 19-03-2005 18:12:02 13.2 C 8.5 g/m*3 13.2 C 0 km/h
2815 19-03-2005 18:22:02 13.2 C 8.5 g/m*3 13.2 C 0 km/h
2816 19-03-2005 18:32:02 13.2 C 8.38 g/m*3 13.2 C 0 km/h
2817 19-03-2005 18:42:02 13.2 C 8.38 g/m*3 13.2 C 0 km/h
2818 19-03-2005 18:52:02 13.2 C 8.38 g/m*3 13.2 C 0 km/h
2819 19-03-2005 19:02:02 13.2 C 8.38 g/m*3 13.2 C 0 km/h
2820 19-03-2005 19:12:02 13.3 C 8.43 g/m*3 13.3 C 0 km/h
2821 19-03-2005 19:22:02 13.2 C 8.38 g/m*3 13.2 C 0 km/h
2822 19-03-2005 19:32:02 13.1 C 8.33 g/m*3 13.1 C 0 km/h
2823 19-03-2005 19:42:02 13.1 C 8.33 g/m*3 13.1 C 0 km/h
2824 19-03-2005 19:52:01 13 C 8.28 g/m*3 13 C 0 km/h
2825 19-03-2005 20:02:01 13 C 8.39 g/m*3 13 C 0 km/h
Sensor: Nr:Datum:Temp:Abs-Feuchte:Windchill:Wind:
Aussen-T/F 2826 19-03-2005 20:12:01 12.9 C 8.34 g/m*3 12.9 C 0 km/h
2827 19-03-2005 20:22:01 12.9 C 8.34 g/m*3 12.9 C 0 km/h
2828 19-03-2005 20:32:02 12.9 C 8.45 g/m*3 12.9 C 0 km/h
2829 19-03-2005 20:42:02 12.9 C 8.45 g/m*3 12.9 C 0 km/h
2830 19-03-2005 20:52:02 12.8 C 8.4 g/m*3 12.8 C 0 km/h
2831 19-03-2005 21:02:03 12.7 C 8.35 g/m*3 12.7 C 0 km/h
2832 19-03-2005 21:12:03 12.7 C 8.35 g/m*3 12.7 C 0 km/h
2833 19-03-2005 21:22:03 12.6 C 8.3 g/m*3 12.6 C 0 km/h
2834 19-03-2005 21:32:02 12.6 C 8.41 g/m*3 12.6 C 0 km/h
2835 19-03-2005 21:42:02 12.5 C 8.36 g/m*3 12.5 C 0 km/h
2836 19-03-2005 21:52:01 12.4 C 8.3 g/m*3 12.4 C 0 km/h
2837 19-03-2005 22:02:02 12.4 C 8.19 g/m*3 12.4 C 0 km/h
2838 19-03-2005 22:12:02 12.4 C 8.3 g/m*3 12.4 C 0 km/h
2839 19-03-2005 22:22:02 12.4 C 8.3 g/m*3 12.4 C 0 km/h
2840 19-03-2005 22:32:01 12.1 C 7.83 g/m*3 12.1 C 0 km/h
2841 19-03-2005 22:42:01 12 C 7.57 g/m*3 12 C 0 km/h
2842 19-03-2005 22:52:02 11.9 C 7.41 g/m*3 11.9 C 0 km/h
2843 19-03-2005 23:02:01 11.6 C 7.07 g/m*3 11.6 C 0 km/h
2844 19-03-2005 23:12:01 11.4 C 6.77 g/m*3 11.4 C 0 km/h
2845 19-03-2005 23:22:02 11.3 C 6.73 g/m*3 11.3 C 0 km/h
2846 19-03-2005 23:32:02 11.2 C 6.69 g/m*3 11.2 C 0 km/h
2847 19-03-2005 23:42:02 11.2 C 6.69 g/m*3 11.2 C 0 km/h
2848 19-03-2005 23:52:01 11.1 C 6.55 g/m*3 11.1 C 0 km/h
2849 20-03-2005 00:02:01 11 C 6.61 g/m*3 11 C 0 km/h
2850 20-03-2005 00:12:01 11 C 6.61 g/m*3 11 C 0 km/h
Sensor: Nr:Datum:Temp:Abs-Feuchte:Windchill:Wind:
Aussen-T/F 2851 20-03-2005 00:22:03 11 C 6.61 g/m*3 11 C 0 km/h
2852 20-03-2005 00:32:02 10.9 C 6.56 g/m*3 10.9 C 0 km/h
2853 20-03-2005 00:42:02 10.8 C 6.52 g/m*3 10.8 C 0 km/h
2854 20-03-2005 00:52:02 10.7 C 6.48 g/m*3 10.7 C 0 km/h
2855 20-03-2005 01:02:03 10.6 C 6.44 g/m*3 10.6 C 0 km/h
2856 20-03-2005 01:12:03 10.5 C 6.5 g/m*3 10.5 C 0 km/h
2857 20-03-2005 01:22:02 10.5 C 6.4 g/m*3 10.5 C 0 km/h
2858 20-03-2005 01:32:03 10.3 C 6.32 g/m*3 10.3 C 0 km/h
2859 20-03-2005 01:42:03 10.1 C 6.24 g/m*3 10.1 C 0 km/h
2860 20-03-2005 01:52:02 10.1 C 6.24 g/m*3 10.1 C 0 km/h
2861 20-03-2005 02:02:03 10 C 6.2 g/m*3 10 C 0 km/h
2862 20-03-2005 02:12:03 9.8 C 6.22 g/m*3 9.8 C 0 km/h
2863 20-03-2005 02:22:02 9.9 C 6.26 g/m*3 9.9 C 0 km/h
2864 20-03-2005 02:32:02 9.7 C 6.18 g/m*3 9.7 C 0 km/h
2865 20-03-2005 02:42:02 9.7 C 6.18 g/m*3 9.7 C 0 km/h
2866 20-03-2005 02:53:04 9.6 C 6.14 g/m*3 9.6 C 0 km/h
2867 20-03-2005 03:03:04 9.5 C 6.19 g/m*3 9.5 C 0 km/h
2868 20-03-2005 03:13:04 9.4 C 6.15 g/m*3 9.4 C 0 km/h
2869 20-03-2005 03:23:04 9.3 C 6.11 g/m*3 9.3 C 0 km/h
2870 20-03-2005 03:33:02 9.2 C 5.98 g/m*3 9.2 C 0 km/h
2871 20-03-2005 03:43:02 9.2 C 5.98 g/m*3 9.2 C 0 km/h
2872 20-03-2005 03:53:02 9.1 C 6.03 g/m*3 9.1 C 0 km/h
2873 20-03-2005 04:03:01 9 C 5.99 g/m*3 9 C 0 km/h
2874 20-03-2005 04:13:01 9 C 6.08 g/m*3 9 C 0 km/h
2875 20-03-2005 04:23:01 8.9 C 6.04 g/m*3 8.9 C 0 km/h
Sensor: Nr:Datum:Temp:Abs-Feuchte:Windchill:Wind:
Aussen-T/F 2876 20-03-2005 04:33:01 8.9 C 6.13 g/m*3 8.9 C 0 km/h
2877 20-03-2005 04:43:01 8.8 C 6.09 g/m*3 8.8 C 0 km/h
2878 20-03-2005 04:53:02 8.7 C 6.05 g/m*3 8.7 C 0 km/h
2879 20-03-2005 05:03:02 8.7 C 6.05 g/m*3 8.7 C 0 km/h
2880 20-03-2005 05:13:02 8.6 C 6.1 g/m*3 8.6 C 0 km/h
2881 20-03-2005 05:23:02 8.6 C 6.1 g/m*3 8.6 C 0 km/h
2882 20-03-2005 05:33:02 8.5 C 5.98 g/m*3 8.5 C 0 km/h
2883 20-03-2005 05:43:02 8.4 C 6.02 g/m*3 8.4 C 0 km/h
2884 20-03-2005 05:53:02 8.3 C 5.98 g/m*3 8.3 C 0 km/h
2885 20-03-2005 06:03:02 8.3 C 5.98 g/m*3 8.3 C 0 km/h
2886 20-03-2005 06:13:02 8.3 C 5.98 g/m*3 8.3 C 0 km/h
2887 20-03-2005 06:23:01 8.1 C 5.82 g/m*3 8.1 C 0 km/h
2888 20-03-2005 06:33:02 7.9 C 5.91 g/m*3 7.9 C 0 km/h
2889 20-03-2005 06:43:02 8 C 5.95 g/m*3 8 C 0 km/h
2890 20-03-2005 06:53:01 8 C 5.95 g/m*3 8 C 0 km/h
2891 20-03-2005 07:03:02 8 C 5.87 g/m*3 8 C 0 km/h
2892 20-03-2005 07:13:02 8 C 5.87 g/m*3 8 C 0 km/h
2893 20-03-2005 07:23:01 7.9 C 5.91 g/m*3 7.9 C 0 km/h
2894 20-03-2005 07:33:01 8 C 5.79 g/m*3 8 C 0 km/h
2895 20-03-2005 07:43:01 8 C 5.79 g/m*3 8 C 0 km/h
2896 20-03-2005 07:53:02 8.1 C 5.74 g/m*3 8.1 C 0 km/h
2897 20-03-2005 08:03:02 8 C 5.7 g/m*3 8 C 0 km/h
2898 20-03-2005 08:13:02 8.1 C 5.74 g/m*3 8.1 C 0 km/h
2899 20-03-2005 08:23:02 8.4 C 5.77 g/m*3 8.4 C 0 km/h
2900 20-03-2005 08:33:02 8.7 C 5.79 g/m*3 8.7 C 0 km/h
Sensor: Nr:Datum:Temp:Abs-Feuchte:Windchill:Wind:
Aussen-T/F 2901 20-03-2005 08:43:02 8.8 C 5.66 g/m*3 8.8 C 0 km/h
2902 20-03-2005 08:53:01 8.9 C 5.69 g/m*3 8.9 C 0 km/h
2903 20-03-2005 09:03:02 9.1 C 5.59 g/m*3 9.1 C 0 km/h
2904 20-03-2005 09:13:02 9.2 C 5.63 g/m*3 9.2 C 0 km/h
2905 20-03-2005 09:23:02 9.6 C 5.68 g/m*3 9.6 C 0 km/h
2906 20-03-2005 09:33:01 9.8 C 5.75 g/m*3 9.8 C 0 km/h
2907 20-03-2005 09:43:01 10.1 C 5.58 g/m*3 10.1 C 0 km/h
2908 20-03-2005 09:53:01 10.4 C 5.59 g/m*3 10.4 C 0 km/h
2909 20-03-2005 10:03:02 10.6 C 5.56 g/m*3 10.6 C 0 km/h
2910 20-03-2005 10:13:02 10.8 C 5.63 g/m*3 10.8 C 0 km/h
2911 20-03-2005 10:23:02 11.4 C 5.75 g/m*3 11.4 C 0 km/h
2912 20-03-2005 10:33:01 11.5 C 5.58 g/m*3 11.5 C 0 km/h
2913 20-03-2005 10:43:01 11.6 C 5.51 g/m*3 11.6 C 0 km/h
2914 20-03-2005 10:53:02 11.9 C 5.61 g/m*3 11.9 C 0 km/h
2915 20-03-2005 11:03:02 12.2 C 5.61 g/m*3 12.2 C 0 km/h
2916 20-03-2005 11:13:02 12.6 C 5.53 g/m*3 12.6 C 0 km/h
2917 20-03-2005 11:23:02 13.1 C 5.48 g/m*3 13.1 C 0 km/h
2918 20-03-2005 11:33:01 13.1 C 5.48 g/m*3 13.1 C 0 km/h
2919 20-03-2005 11:43:01 13.2 C 5.51 g/m*3 13.2 C 0 km/h
2920 20-03-2005 11:53:02 13.4 C 5.58 g/m*3 13.4 C 0 km/h
2921 20-03-2005 12:03:01 13.3 C 5.43 g/m*3 13.3 C 0 km/h
2922 20-03-2005 12:13:01 13.5 C 5.5 g/m*3 13.5 C 0 km/h
2923 20-03-2005 12:23:01 13.6 C 5.53 g/m*3 13.6 C 0 km/h
2924 20-03-2005 12:33:02 13.4 C 5.46 g/m*3 13.4 C 0 km/h
2925 20-03-2005 12:43:02 14 C 5.55 g/m*3 14 C 0 km/h
Sensor: Nr:Datum:Temp:Abs-Feuchte:Windchill:Wind:
Aussen-T/F 2926 20-03-2005 12:53:02 14.2 C 5.37 g/m*3 14.2 C 0 km/h
2927 20-03-2005 13:03:02 14 C 5.31 g/m*3 14 C 0 km/h
2928 20-03-2005 13:13:02 14.3 C 5.16 g/m*3 14.3 C 0 km/h
2929 20-03-2005 13:23:02 14.9 C 5.35 g/m*3 14.9 C 0 km/h
2930 20-03-2005 13:33:03 15.3 C 5.09 g/m*3 15.3 C 0 km/h
2931 20-03-2005 13:43:03 15.9 C 5.15 g/m*3 15.9 C 0 km/h
2932 20-03-2005 13:53:02 16.4 C 5.16 g/m*3 16.4 C 0 km/h
2933 20-03-2005 14:03:02 16.6 C 5.09 g/m*3 16.6 C 0 km/h
2934 20-03-2005 14:13:02 16.9 C 5.03 g/m*3 16.9 C 0 km/h
2935 20-03-2005 14:23:02 17.3 C 4.86 g/m*3 17.3 C 0 km/h
2936 20-03-2005 14:33:02 17.8 C 4.86 g/m*3 17.8 C 0 km/h
2937 20-03-2005 14:43:02 18.1 C 4.94 g/m*3 18.1 C 0 km/h
2938 20-03-2005 14:53:01 18.6 C 5.09 g/m*3 18.6 C 0 km/h
2939 20-03-2005 15:03:02 19 C 4.89 g/m*3 19 C 0 km/h
2940 20-03-2005 15:13:02 18.4 C 4.56 g/m*3 18.4 C 0 km/h
2941 20-03-2005 15:23:02 18.8 C 4.83 g/m*3 18.8 C 0 km/h
2942 20-03-2005 15:33:01 18.9 C 4.86 g/m*3 18.9 C 0 km/h
2943 20-03-2005 15:43:01 18.8 C 4.83 g/m*3 18.8 C 0 km/h
2944 20-03-2005 15:53:01 19.4 C 4.84 g/m*3 19.4 C 0 km/h
2945 20-03-2005 16:03:02 19.3 C 4.81 g/m*3 19.3 C 0 km/h
2946 20-03-2005 16:13:02 19.7 C 4.75 g/m*3 19.7 C 0 km/h
2947 20-03-2005 16:23:02 19.1 C 4.59 g/m*3 19.1 C 0 km/h
2948 20-03-2005 16:33:01 18.8 C 4.83 g/m*3 18.8 C 0 km/h
2949 20-03-2005 16:43:01 18.5 C 4.43 g/m*3 18.5 C 0 km/h
2950 20-03-2005 16:53:01 17.7 C 4.53 g/m*3 17.7 C 0 km/h
Sensor: Nr:Datum:Temp:Abs-Feuchte:Windchill:Wind:
Aussen-T/F 2951 20-03-2005 17:03:02 17.2 C 4.25 g/m*3 17.2 C 0 km/h
2952 20-03-2005 17:13:02 16.7 C 4.41 g/m*3 16.7 C 0 km/h
2953 20-03-2005 17:23:02 16.4 C 4.33 g/m*3 16.4 C 0 km/h
2954 20-03-2005 17:33:02 15.9 C 4.2 g/m*3 15.9 C 0 km/h
2955 20-03-2005 17:43:02 15.2 C 4.28 g/m*3 15.2 C 0 km/h
2956 20-03-2005 17:53:02 14.8 C 4.43 g/m*3 14.8 C 0 km/h
2957 20-03-2005 18:03:02 14.2 C 4.27 g/m*3 14.2 C 0 km/h
2958 20-03-2005 18:13:02 13.7 C 4.5 g/m*3 13.7 C 0 km/h
2959 20-03-2005 18:23:02 13.3 C 4.51 g/m*3 13.3 C 0 km/h
2960 20-03-2005 18:33:02 12.7 C 4.56 g/m*3 12.7 C 0 km/h
2961 20-03-2005 18:43:02 12.3 C 4.67 g/m*3 12.3 C 0 km/h
2962 20-03-2005 18:53:02 12 C 4.9 g/m*3 12 C 0 km/h
2963 20-03-2005 19:03:02 11.5 C 4.96 g/m*3 11.5 C 0 km/h
2964 20-03-2005 19:13:02 11.2 C 4.87 g/m*3 11.2 C 0 km/h
2965 20-03-2005 19:23:02 11 C 4.8 g/m*3 11 C 0 km/h
2966 20-03-2005 19:33:02 10.8 C 4.94 g/m*3 10.8 C 0 km/h
2967 20-03-2005 19:43:02 10.7 C 4.91 g/m*3 10.7 C 0 km/h
2968 20-03-2005 19:53:02 10.5 C 4.85 g/m*3 10.5 C 0 km/h
2969 20-03-2005 20:03:02 10.4 C 4.82 g/m*3 10.4 C 0 km/h
2970 20-03-2005 20:13:02 10.1 C 4.92 g/m*3 10.1 C 0 km/h
2971 20-03-2005 20:23:02 9.8 C 5.01 g/m*3 9.8 C 0 km/h
2972 20-03-2005 20:33:02 9.8 C 5.1 g/m*3 9.8 C 0 km/h
2973 20-03-2005 20:43:02 9.4 C 5.06 g/m*3 9.4 C 0 km/h
2974 20-03-2005 20:53:01 9.2 C 5 g/m*3 9.2 C 0 km/h
2975 20-03-2005 21:03:02 9 C 4.94 g/m*3 9 C 0 km/h
Sensor: Nr:Datum:Temp:Abs-Feuchte:Windchill:Wind:
Aussen-T/F 2976 20-03-2005 21:13:02 8.9 C 5.08 g/m*3 8.9 C 0 km/h
2977 20-03-2005 21:23:02 8.7 C 5.02 g/m*3 8.7 C 0 km/h
2978 20-03-2005 21:33:02 8.7 C 5.19 g/m*3 8.7 C 0 km/h
2979 20-03-2005 21:43:03 8.5 C 5.12 g/m*3 8.5 C 0 km/h
2980 20-03-2005 21:53:02 8.5 C 5.21 g/m*3 8.5 C 0 km/h
2981 20-03-2005 22:03:03 8.4 C 5.17 g/m*3 8.4 C 0 km/h
2982 20-03-2005 22:13:03 8.4 C 5.09 g/m*3 8.4 C 0 km/h
2983 20-03-2005 22:23:03 8.3 C 5.06 g/m*3 8.3 C 0 km/h
2984 20-03-2005 22:33:02 8.2 C 5.02 g/m*3 8.2 C 0 km/h
2985 20-03-2005 22:43:02 8.1 C 4.99 g/m*3 8.1 C 0 km/h
2986 20-03-2005 22:53:01 8.1 C 4.99 g/m*3 8.1 C 0 km/h
2987 20-03-2005 23:03:02 8.1 C 5.08 g/m*3 8.1 C 0 km/h
2988 20-03-2005 23:13:02 7.9 C 5.01 g/m*3 7.9 C 0 km/h
2989 20-03-2005 23:23:02 7.8 C 5.06 g/m*3 7.8 C 0 km/h
2990 20-03-2005 23:33:01 7.7 C 5.03 g/m*3 7.7 C 0 km/h
2991 20-03-2005 23:43:01 7.6 C 5.08 g/m*3 7.6 C 0 km/h
2992 20-03-2005 23:53:02 7.6 C 5.08 g/m*3 7.6 C 0 km/h
2993 21-03-2005 00:03:03 7.5 C 5.04 g/m*3 7.5 C 0 km/h
2994 21-03-2005 00:13:03 7.2 C 5.02 g/m*3 7.2 C 0 km/h
2995 21-03-2005 00:23:03 7.2 C 5.02 g/m*3 7.2 C 0 km/h
2996 21-03-2005 00:33:02 7.2 C 5.02 g/m*3 7.2 C 0 km/h
2997 21-03-2005 00:43:02 7.1 C 4.99 g/m*3 7.1 C 0 km/h
2998 21-03-2005 00:53:03 7 C 5.04 g/m*3 7 C 0 km/h
2999 21-03-2005 01:03:02 6.9 C 5.08 g/m*3 6.9 C 0 km/h
3000 21-03-2005 01:13:02 6.8 C 5.05 g/m*3 6.8 C 0 km/h
Sensor: Nr:Datum:Temp:Abs-Feuchte:Windchill:Wind:
Aussen-T/F 3001 21-03-2005 01:23:02 6.7 C 5.09 g/m*3 6.7 C 0 km/h
3002 21-03-2005 01:33:03 6.6 C 5.06 g/m*3 6.6 C 0 km/h
3003 21-03-2005 01:43:03 6.5 C 5.02 g/m*3 6.5 C 0 km/h
3004 21-03-2005 01:53:03 6.2 C 4.93 g/m*3 6.2 C 0 km/h
3005 21-03-2005 02:03:02 6 C 4.94 g/m*3 6 C 0 km/h
3006 21-03-2005 02:13:02 5.9 C 5.05 g/m*3 5.9 C 0 km/h
3007 21-03-2005 02:23:03 5.9 C 5.05 g/m*3 5.9 C 0 km/h
3008 21-03-2005 02:33:02 5.7 C 4.98 g/m*3 5.7 C 0 km/h
3009 21-03-2005 02:43:02 5.6 C 4.95 g/m*3 5.6 C 0 km/h
3010 21-03-2005 02:54:04 5.6 C 4.95 g/m*3 5.6 C 0 km/h
3011 21-03-2005 03:04:04 5.4 C 4.95 g/m*3 5.4 C 0 km/h
3012 21-03-2005 03:14:03 5.3 C 4.92 g/m*3 5.3 C 0 km/h
3013 21-03-2005 03:24:03 5.2 C 4.89 g/m*3 5.2 C 0 km/h
3014 21-03-2005 03:34:02 5.1 C 4.86 g/m*3 5.1 C 0 km/h
3015 21-03-2005 03:44:02 5 C 4.89 g/m*3 5 C 0 km/h
3016 21-03-2005 03:54:02 4.9 C 4.93 g/m*3 4.9 C 0 km/h
3017 21-03-2005 04:04:01 4.7 C 4.86 g/m*3 4.7 C 0 km/h
3018 21-03-2005 04:14:01 4.6 C 4.9 g/m*3 4.6 C 0 km/h
3019 21-03-2005 04:24:02 4.7 C 4.93 g/m*3 4.7 C 0 km/h
3020 21-03-2005 04:34:01 4.5 C 4.86 g/m*3 4.5 C 0 km/h
3021 21-03-2005 04:44:01 4.4 C 4.83 g/m*3 4.4 C 0 km/h
3022 21-03-2005 04:54:03 4.2 C 4.77 g/m*3 4.2 C 0 km/h
3023 21-03-2005 05:04:03 4.1 C 4.8 g/m*3 4.1 C 0 km/h
3024 21-03-2005 05:14:04 4.1 C 4.8 g/m*3 4.1 C 0 km/h
3025 21-03-2005 05:24:03 4 C 4.77 g/m*3 4 C 0 km/h
Sensor: Nr:Datum:Temp:Abs-Feuchte:Windchill:Wind:
Aussen-T/F 3026 21-03-2005 05:34:03 3.9 C 4.8 g/m*3 3.9 C 0 km/h
3027 21-03-2005 05:44:03 3.8 C 4.83 g/m*3 3.8 C 0 km/h
3028 21-03-2005 05:54:03 3.5 C 4.73 g/m*3 3.5 C 0 km/h
3029 21-03-2005 06:04:02 3.5 C 4.73 g/m*3 3.5 C 0 km/h
3030 21-03-2005 06:14:02 3.4 C 4.76 g/m*3 3.4 C 0 km/h
3031 21-03-2005 06:24:02 3.3 C 4.73 g/m*3 3.3 C 0 km/h
3032 21-03-2005 06:34:02 3.2 C 4.7 g/m*3 3.2 C 0 km/h
3033 21-03-2005 06:44:02 3.2 C 4.7 g/m*3 3.2 C 0 km/h
3034 21-03-2005 06:54:01 3.2 C 4.7 g/m*3 3.2 C 0 km/h
3035 21-03-2005 07:04:01 3.3 C 4.73 g/m*3 3.3 C 0 km/h
3036 21-03-2005 07:14:01 3.3 C 4.73 g/m*3 3.3 C 0 km/h
3037 21-03-2005 07:24:01 3.3 C 4.73 g/m*3 3.3 C 0 km/h
3038 21-03-2005 07:34:01 3.3 C 4.73 g/m*3 3.3 C 0 km/h
3039 21-03-2005 07:44:01 3.4 C 4.76 g/m*3 3.4 C 0 km/h
3040 21-03-2005 07:54:03 3.5 C 4.73 g/m*3 3.5 C 0 km/h
3041 21-03-2005 08:04:02 3.4 C 4.76 g/m*3 3.4 C 0 km/h
3042 21-03-2005 08:14:02 3.4 C 4.76 g/m*3 3.4 C 0 km/h
3043 21-03-2005 08:24:02 3.5 C 4.73 g/m*3 3.5 C 0 km/h
3044 21-03-2005 08:34:02 3.7 C 4.8 g/m*3 3.7 C 0 km/h
3045 21-03-2005 08:44:02 3.9 C 4.93 g/m*3 3.9 C 0 km/h
3046 21-03-2005 08:54:02 4.2 C 4.96 g/m*3 4.2 C 0 km/h
3047 21-03-2005 09:04:02 4.7 C 5 g/m*3 4.7 C 0 km/h
3048 21-03-2005 09:14:02 5.2 C 5.03 g/m*3 5.2 C 0 km/h
3049 21-03-2005 09:24:01 5.5 C 4.99 g/m*3 5.5 C 0 km/h
3050 21-03-2005 09:34:01 6.1 C 5.04 g/m*3 6.1 C 0 km/h
Sensor: Nr:Datum:Temp:Abs-Feuchte:Windchill:Wind:
Aussen-T/F 3051 21-03-2005 09:44:01 6.6 C 4.98 g/m*3 6.6 C 0 km/h
3052 21-03-2005 09:54:02 7.1 C 4.99 g/m*3 7.1 C 0 km/h
3053 21-03-2005 10:04:02 7.7 C 4.95 g/m*3 7.7 C 0 km/h
3054 21-03-2005 10:14:02 8.4 C 5.01 g/m*3 8.4 C 0 km/h
3055 21-03-2005 10:24:02 8.9 C 4.82 g/m*3 8.9 C 0 km/h
3056 21-03-2005 10:34:02 9.2 C 4.55 g/m*3 9.2 C 0 km/h
3057 21-03-2005 10:44:02 9.6 C 4.49 g/m*3 9.6 C 0 km/h
3058 21-03-2005 10:54:02 10.2 C 4 g/m*3 10.2 C 0 km/h
3059 21-03-2005 11:04:03 11 C 3.4 g/m*3 11 C 0 km/h
3060 21-03-2005 11:14:03 11.4 C 3.28 g/m*3 11.4 C 0 km/h
3061 21-03-2005 11:24:03 11.7 C 3.03 g/m*3 11.7 C 0 km/h
3062 21-03-2005 11:34:02 12.1 C 2.68 g/m*3 12.1 C 0 km/h
3063 21-03-2005 11:44:03 12.2 C 2.37 g/m*3 12.2 C 0 km/h
3064 21-03-2005 11:54:02 12.7 C 2.89 g/m*3 12.7 C 0 km/h
3065 21-03-2005 12:04:02 12.8 C 2.58 g/m*3 12.8 C 0 km/h
3066 21-03-2005 12:14:02 13.2 C 2.64 g/m*3 13.2 C 0 km/h
3067 21-03-2005 12:24:02 13.7 C 2.49 g/m*3 13.7 C 0 km/h
3068 21-03-2005 12:34:02 14.1 C 2.55 g/m*3 14.1 C 0 km/h
3069 21-03-2005 12:44:02 14.4 C 2.72 g/m*3 14.4 C 0 km/h
3070 21-03-2005 12:54:01 14.9 C 2.93 g/m*3 14.9 C 0 km/h
3071 21-03-2005 13:04:02 15.2 C 2.6 g/m*3 15.2 C 0 km/h
3072 21-03-2005 13:14:02 15.8 C 2.96 g/m*3 15.8 C 0 km/h
3073 21-03-2005 13:24:02 15.8 C 2.69 g/m*3 15.8 C 0 km/h
3074 21-03-2005 13:34:02 16 C 2.72 g/m*3 16 C 0 km/h
3075 21-03-2005 13:44:02 16.9 C 3.02 g/m*3 16.9 C 0 km/h
Sensor: Nr:Datum:Temp:Abs-Feuchte:Windchill:Wind:
Aussen-T/F 3076 21-03-2005 13:54:02 16.9 C 2.88 g/m*3 16.9 C 0 km/h
3077 21-03-2005 14:04:02 17 C 2.89 g/m*3 17 C 0 km/h
3078 21-03-2005 14:14:02 17.3 C 2.95 g/m*3 17.3 C 0 km/h
3079 21-03-2005 14:24:02 17.7 C 3.02 g/m*3 17.7 C 0 km/h
3080 21-03-2005 14:34:02 17.1 C 2.91 g/m*3 17.1 C 0 km/h
3081 21-03-2005 14:44:03 17.9 C 3.05 g/m*3 17.9 C 0 km/h
3082 21-03-2005 14:54:02 18.2 C 3.11 g/m*3 18.2 C 0 km/h
3083 21-03-2005 15:04:02 18.9 C 3.24 g/m*3 18.9 C 0 km/h
3084 21-03-2005 15:14:02 19 C 3.26 g/m*3 19 C 0 km/h
3085 21-03-2005 15:24:02 18.6 C 3.18 g/m*3 18.6 C 0 km/h
3086 21-03-2005 15:34:02 18.7 C 3.2 g/m*3 18.7 C 0 km/h
3087 21-03-2005 15:44:02 18.5 C 3.16 g/m*3 18.5 C 0 km/h
3088 21-03-2005 15:54:02 18.8 C 3.22 g/m*3 18.8 C 0 km/h
3089 21-03-2005 16:04:02 18.9 C 3.24 g/m*3 18.9 C 0 km/h
3090 21-03-2005 16:14:02 18.9 C 3.24 g/m*3 18.9 C 0 km/h
3091 21-03-2005 16:24:02 18.9 C 3.24 g/m*3 18.9 C 0 km/h
3092 21-03-2005 16:34:02 18.3 C 3.13 g/m*3 18.3 C 0 km/h
3093 21-03-2005 16:44:02 18.1 C 3.09 g/m*3 18.1 C 0 km/h
3094 21-03-2005 16:54:02 18.3 C 3.13 g/m*3 18.3 C 0 km/h
3095 21-03-2005 17:04:02 18.5 C 3.16 g/m*3 18.5 C 0 km/h
3096 21-03-2005 17:14:02 18.7 C 3.2 g/m*3 18.7 C 0 km/h
3097 21-03-2005 17:24:03 18.6 C 3.18 g/m*3 18.6 C 0 km/h
3098 21-03-2005 17:34:03 18.1 C 3.09 g/m*3 18.1 C 0 km/h
3099 21-03-2005 17:44:03 17.9 C 3.05 g/m*3 17.9 C 0 km/h
3100 21-03-2005 17:54:02 17.6 C 3 g/m*3 17.6 C 0 km/h
Sensor: Nr:Datum:Temp:Abs-Feuchte:Windchill:Wind:
Aussen-T/F 3101 21-03-2005 18:04:02 17 C 3.04 g/m*3 17 C 0 km/h
3102 21-03-2005 18:14:02 16.3 C 2.91 g/m*3 16.3 C 0 km/h
3103 21-03-2005 18:24:02 15.3 C 3.26 g/m*3 15.3 C 0 km/h
3104 21-03-2005 18:34:02 14.7 C 3.78 g/m*3 14.7 C 0 km/h
3105 21-03-2005 18:44:02 14 C 3.86 g/m*3 14 C 0 km/h
3106 21-03-2005 18:54:02 13.3 C 3.81 g/m*3 13.3 C 0 km/h
3107 21-03-2005 19:04:02 12.8 C 3.92 g/m*3 12.8 C 0 km/h
3108 21-03-2005 19:14:02 12.3 C 3.91 g/m*3 12.3 C 0 km/h
3109 21-03-2005 19:24:02 12.1 C 3.97 g/m*3 12.1 C 0 km/h
3110 21-03-2005 19:34:02 11.7 C 3.97 g/m*3 11.7 C 0 km/h
3111 21-03-2005 19:44:02 11.4 C 4 g/m*3 11.4 C 0 km/h
3112 21-03-2005 19:54:02 11.1 C 4.03 g/m*3 11.1 C 0 km/h
3113 21-03-2005 20:04:02 10.8 C 4.05 g/m*3 10.8 C 0 km/h
3114 21-03-2005 20:14:02 10.7 C 4.03 g/m*3 10.7 C 0 km/h
3115 21-03-2005 20:24:02 10.5 C 3.98 g/m*3 10.5 C 0 km/h
3116 21-03-2005 20:34:02 10.4 C 3.95 g/m*3 10.4 C 0 km/h
3117 21-03-2005 20:44:02 10.4 C 3.86 g/m*3 10.4 C 0 km/h
3118 21-03-2005 20:54:02 10.2 C 3.81 g/m*3 10.2 C 0 km/h
3119 21-03-2005 21:04:02 10.1 C 3.97 g/m*3 10.1 C 0 km/h
3120 21-03-2005 21:14:02 10 C 3.85 g/m*3 10 C 0 km/h
3121 21-03-2005 21:24:02 9.8 C 3.9 g/m*3 9.8 C 0 km/h
3122 21-03-2005 21:34:03 9.7 C 3.78 g/m*3 9.7 C 0 km/h
3123 21-03-2005 21:44:03 9.6 C 4.03 g/m*3 9.6 C 0 km/h
3124 21-03-2005 21:54:02 9.3 C 3.95 g/m*3 9.3 C 0 km/h
3125 21-03-2005 22:04:02 9.1 C 3.99 g/m*3 9.1 C 0 km/h
Sensor: Nr:Datum:Temp:Abs-Feuchte:Windchill:Wind:
Aussen-T/F 3126 21-03-2005 22:14:02 8.9 C 3.94 g/m*3 8.9 C 0 km/h
3127 21-03-2005 22:24:02 8.8 C 4.09 g/m*3 8.8 C 0 km/h
3128 21-03-2005 22:34:02 8.6 C 4.21 g/m*3 8.6 C 0 km/h
3129 21-03-2005 22:44:02 8.6 C 4.12 g/m*3 8.6 C 0 km/h
3130 21-03-2005 22:54:01 8.4 C 4.07 g/m*3 8.4 C 0 km/h
3131 21-03-2005 23:04:02 8.3 C 4.21 g/m*3 8.3 C 0 km/h
3132 21-03-2005 23:14:02 8 C 4.13 g/m*3 8 C 0 km/h
3133 21-03-2005 23:24:02 7.9 C 4.11 g/m*3 7.9 C 0 km/h
3134 21-03-2005 23:34:01 7.8 C 4.24 g/m*3 7.8 C 0 km/h
3135 21-03-2005 23:44:01 7.7 C 4.14 g/m*3 7.7 C 0 km/h
3136 21-03-2005 23:54:01 7.5 C 4.16 g/m*3 7.5 C 0 km/h
3137 22-03-2005 00:04:02 7.4 C 4.29 g/m*3 7.4 C 0 km/h
3138 22-03-2005 00:14:02 7.3 C 4.27 g/m*3 7.3 C 0 km/h
3139 22-03-2005 00:24:03 7.1 C 4.29 g/m*3 7.1 C 0 km/h
3140 22-03-2005 00:34:02 7 C 4.26 g/m*3 7 C 0 km/h
3141 22-03-2005 00:44:02 6.9 C 4.23 g/m*3 6.9 C 0 km/h
3142 22-03-2005 00:54:03 6.8 C 4.21 g/m*3 6.8 C 0 km/h
3143 22-03-2005 01:04:02 6.7 C 4.33 g/m*3 6.7 C 0 km/h
3144 22-03-2005 01:14:03 6.6 C 4.45 g/m*3 6.6 C 0 km/h
3145 22-03-2005 01:24:02 6.5 C 4.35 g/m*3 6.5 C 0 km/h
3146 22-03-2005 01:34:02 6.4 C 4.32 g/m*3 6.4 C 0 km/h
3147 22-03-2005 01:44:02 6.3 C 4.22 g/m*3 6.3 C 0 km/h
3148 22-03-2005 01:54:02 6.1 C 4.24 g/m*3 6.1 C 0 km/h
3149 22-03-2005 02:04:02 5.9 C 4.25 g/m*3 5.9 C 0 km/h
3150 22-03-2005 02:14:02 5.8 C 4.3 g/m*3 5.8 C 0 km/h
Sensor: Nr:Datum:Temp:Abs-Feuchte:Windchill:Wind:
Aussen-T/F 3151 22-03-2005 02:24:02 5.7 C 4.34 g/m*3 5.7 C 0 km/h
3152 22-03-2005 02:34:02 5.6 C 4.38 g/m*3 5.6 C 0 km/h
3153 22-03-2005 02:44:03 5.6 C 4.31 g/m*3 5.6 C 0 km/h
3154 22-03-2005 02:55:04 5.4 C 4.26 g/m*3 5.4 C 0 km/h
3155 22-03-2005 03:05:04 5.2 C 4.2 g/m*3 5.2 C 0 km/h
3156 22-03-2005 03:15:04 5.2 C 4.2 g/m*3 5.2 C 0 km/h
3157 22-03-2005 03:25:04 5.3 C 4.23 g/m*3 5.3 C 0 km/h
3158 22-03-2005 03:35:03 5.3 C 4.23 g/m*3 5.3 C 0 km/h
3159 22-03-2005 03:45:03 5.2 C 4.2 g/m*3 5.2 C 0 km/h
3160 22-03-2005 03:55:03 5.2 C 4.2 g/m*3 5.2 C 0 km/h
3161 22-03-2005 04:05:02 5 C 4.21 g/m*3 5 C 0 km/h
3162 22-03-2005 04:15:03 4.8 C 4.29 g/m*3 4.8 C 0 km/h
3163 22-03-2005 04:25:03 4.9 C 4.12 g/m*3 4.9 C 0 km/h
3164 22-03-2005 04:35:02 5 C 4.14 g/m*3 5 C 0 km/h
3165 22-03-2005 04:45:02 5.2 C 4.2 g/m*3 5.2 C 0 km/h
3166 22-03-2005 04:55:02 5.1 C 4.1 g/m*3 5.1 C 0 km/h
3167 22-03-2005 05:05:02 5.2 C 4.27 g/m*3 5.2 C 0 km/h
3168 22-03-2005 05:15:01 5.1 C 4.17 g/m*3 5.1 C 0 km/h
3169 22-03-2005 05:25:01 5.1 C 4.1 g/m*3 5.1 C 0 km/h
3170 22-03-2005 05:35:01 5.1 C 4.04 g/m*3 5.1 C 0 km/h
3171 22-03-2005 05:45:01 5.2 C 4.13 g/m*3 5.2 C 0 km/h
3172 22-03-2005 05:55:01 5.1 C 4.31 g/m*3 5.1 C 0 km/h
3173 22-03-2005 06:05:02 5.1 C 4.38 g/m*3 5.1 C 0 km/h
3174 22-03-2005 06:15:02 4.9 C 4.19 g/m*3 4.9 C 0 km/h
3175 22-03-2005 06:25:03 5 C 4.01 g/m*3 5 C 0 km/h
Sensor: Nr:Datum:Temp:Abs-Feuchte:Windchill:Wind:
Aussen-T/F 3176 22-03-2005 06:35:01 5.1 C 4.1 g/m*3 5.1 C 0 km/h
3177 22-03-2005 06:45:01 5.1 C 3.97 g/m*3 5.1 C 0 km/h
3178 22-03-2005 06:55:01 5.2 C 3.99 g/m*3 5.2 C 0 km/h
3179 22-03-2005 07:05:02 5.3 C 3.81 g/m*3 5.3 C 0 km/h
3180 22-03-2005 07:15:02 5.3 C 3.95 g/m*3 5.3 C 0 km/h
3181 22-03-2005 07:25:02 5.4 C 4.05 g/m*3 5.4 C 0 km/h
3182 22-03-2005 07:35:02 5.6 C 4.03 g/m*3 5.6 C 0 km/h
3183 22-03-2005 07:45:02 5.8 C 4.08 g/m*3 5.8 C 0 km/h
3184 22-03-2005 07:55:03 6.1 C 4.02 g/m*3 6.1 C 0 km/h
3185 22-03-2005 08:05:02 6.5 C 3.82 g/m*3 6.5 C 0 km/h
3186 22-03-2005 08:15:02 6.8 C 3.98 g/m*3 6.8 C 0 km/h
3187 22-03-2005 08:25:02 7.3 C 3.87 g/m*3 7.3 C 0 km/h
3188 22-03-2005 08:35:02 7.6 C 3.79 g/m*3 7.6 C 0 km/h
3189 22-03-2005 08:45:02 7.8 C 3.75 g/m*3 7.8 C 0 km/h
3190 22-03-2005 08:55:02 8.1 C 3.66 g/m*3 8.1 C 0 km/h
3191 22-03-2005 09:05:02 8.4 C 3.48 g/m*3 8.4 C 0 km/h
3192 22-03-2005 09:15:02 8.8 C 3.57 g/m*3 8.8 C 0 km/h
3193 22-03-2005 09:25:02 9.2 C 3.57 g/m*3 9.2 C 0 km/h
3194 22-03-2005 09:35:02 9.7 C 3.6 g/m*3 9.7 C 0 km/h
3195 22-03-2005 09:45:02 10.3 C 3.35 g/m*3 10.3 C 0 km/h
3196 22-03-2005 09:55:02 10.7 C 3.34 g/m*3 10.7 C 0 km/h
3197 22-03-2005 10:05:03 11.1 C 3.22 g/m*3 11.1 C 0 km/h
3198 22-03-2005 10:15:02 11.4 C 3.18 g/m*3 11.4 C 0 km/h
3199 22-03-2005 10:25:02 11.8 C 3.37 g/m*3 11.8 C 0 km/h
3200 22-03-2005 10:35:02 12.3 C 3.04 g/m*3 12.3 C 0 km/h
Sensor: Nr:Datum:Temp:Abs-Feuchte:Windchill:Wind:
Aussen-T/F 3201 22-03-2005 10:45:02 12.6 C 2.99 g/m*3 12.6 C 0 km/h
3202 22-03-2005 10:55:02 13.3 C 2.89 g/m*3 13.3 C 0 km/h
3203 22-03-2005 11:05:02 13.8 C 2.74 g/m*3 13.8 C 0 km/h
3204 22-03-2005 11:15:02 14.1 C 2.79 g/m*3 14.1 C 0 km/h
3205 22-03-2005 11:25:02 14.8 C 3.17 g/m*3 14.8 C 0 km/h
3206 22-03-2005 11:35:03 14.8 C 2.91 g/m*3 14.8 C 0 km/h
3207 22-03-2005 11:45:02 15 C 2.82 g/m*3 15 C 0 km/h
3208 22-03-2005 11:55:02 15 C 2.69 g/m*3 15 C 0 km/h
3209 22-03-2005 12:05:02 15.4 C 3.02 g/m*3 15.4 C 0 km/h
3210 22-03-2005 12:15:02 15.7 C 2.94 g/m*3 15.7 C 0 km/h
3211 22-03-2005 12:25:02 16.3 C 3.47 g/m*3 16.3 C 0 km/h
3212 22-03-2005 12:35:02 16.7 C 3.13 g/m*3 16.7 C 0 km/h
3213 22-03-2005 12:45:02 17.1 C 3.49 g/m*3 17.1 C 0 km/h
3214 22-03-2005 12:55:02 17.2 C 3.37 g/m*3 17.2 C 0 km/h
3215 22-03-2005 13:05:03 17.7 C 3.77 g/m*3 17.7 C 0 km/h
3216 22-03-2005 13:15:02 17.9 C 3.51 g/m*3 17.9 C 0 km/h
3217 22-03-2005 13:25:02 17.9 C 3.66 g/m*3 17.9 C 0 km/h
3218 22-03-2005 13:35:02 17.2 C 3.37 g/m*3 17.2 C 0 km/h
3219 22-03-2005 13:45:01 17.7 C 3.77 g/m*3 17.7 C 0 km/h
3220 22-03-2005 13:55:01 17.8 C 3.79 g/m*3 17.8 C 0 km/h
3221 22-03-2005 14:05:01 18.6 C 3.98 g/m*3 18.6 C 0 km/h
3222 22-03-2005 14:15:01 18.5 C 3.96 g/m*3 18.5 C 0 km/h
3223 22-03-2005 14:25:01 18.7 C 4 g/m*3 18.7 C 0 km/h
3224 22-03-2005 14:35:02 18.7 C 4 g/m*3 18.7 C 0 km/h
3225 22-03-2005 14:45:02 18.7 C 4.16 g/m*3 18.7 C 0 km/h
Sensor: Nr:Datum:Temp:Abs-Feuchte:Windchill:Wind:
Aussen-T/F 3226 22-03-2005 14:55:02 19.4 C 4.34 g/m*3 19.4 C 0 km/h
3227 22-03-2005 15:05:03 19.4 C 4.34 g/m*3 19.4 C 0 km/h
3228 22-03-2005 15:15:02 18.8 C 4.19 g/m*3 18.8 C 0 km/h
3229 22-03-2005 15:25:02 18.7 C 4.32 g/m*3 18.7 C 0 km/h
3230 22-03-2005 15:35:02 18.7 C 4.48 g/m*3 18.7 C 0 km/h
3231 22-03-2005 15:45:01 18.4 C 4.56 g/m*3 18.4 C 0 km/h
3232 22-03-2005 15:55:01 18.3 C 4.53 g/m*3 18.3 C 0 km/h
3233 22-03-2005 16:05:02 18.4 C 4.56 g/m*3 18.4 C 0 km/h
3234 22-03-2005 16:15:02 18.5 C 4.75 g/m*3 18.5 C 0 km/h
3235 22-03-2005 16:25:02 18.6 C 4.77 g/m*3 18.6 C 0 km/h
3236 22-03-2005 16:35:01 18.5 C 4.75 g/m*3 18.5 C 0 km/h
3237 22-03-2005 16:45:01 18 C 4.61 g/m*3 18 C 0 km/h
3238 22-03-2005 16:55:01 17.6 C 4.65 g/m*3 17.6 C 0 km/h
3239 22-03-2005 17:05:02 17.2 C 4.69 g/m*3 17.2 C 0 km/h
3240 22-03-2005 17:15:02 17 C 4.63 g/m*3 17 C 0 km/h
3241 22-03-2005 17:25:02 16.5 C 4.91 g/m*3 16.5 C 0 km/h
3242 22-03-2005 17:35:02 16.1 C 4.8 g/m*3 16.1 C 0 km/h